<?xml version="1.0" encoding="UTF-8" standalone="no" ?>
<gpx xmlns="http://www.topografix.com/GPX/1/1" xmlns:xsi="http://www.w3.org/2001/XMLSchema-instance" xsi:schemaLocation="http://www.topografix.com/GPX/1/1 http://www.topografix.com/GPX/1/1/gpx.xsd" version="1.1" creator="VisuGPX - https://www.visugpx.com">
  <metadata>
    <name>Mazaugues, le long du Grand Gaudin</name>
    <desc><![CDATA[Reprise d'un circuit déjà parcouru en automne ( [url]https://les-randos-du-grand.eklablog.com/2024/12/mazaugues-autour-du-grand-gaudin.html[/url] ) avec cette fois, de l'eau dans le Grand Gaudin et ses belles cascades. Une ruine intéressante, des iris, sont aussi au programme. Voir : [url]https://les-randos-du-grand.eklablog.com/2026/03/mazaugues-le-long-du-grand-gaudin.html[/url]]]></desc>
  </metadata>
  <trk>
    <name><![CDATA[Mazaugues_Gaudin_2026]]></name>
    <trkseg>
      <trkpt lat="43.36138" lon="5.88212">
        <ele>444.27</ele>
        <time>2026-03-27T09:28:35Z</time>
      </trkpt>
      <trkpt lat="43.36133" lon="5.88206">
        <ele>438.5</ele>
        <time>2026-03-27T09:28:59Z</time>
      </trkpt>
      <trkpt lat="43.36136" lon="5.88205">
        <ele>432.73</ele>
        <time>2026-03-27T09:29:29Z</time>
      </trkpt>
      <trkpt lat="43.36133" lon="5.88205">
        <ele>433.21</ele>
        <time>2026-03-27T09:30:12Z</time>
      </trkpt>
      <trkpt lat="43.36132" lon="5.88205">
        <ele>432.73</ele>
        <time>2026-03-27T09:30:51Z</time>
      </trkpt>
      <trkpt lat="43.36131" lon="5.88207">
        <ele>433.69</ele>
        <time>2026-03-27T09:31:21Z</time>
      </trkpt>
      <trkpt lat="43.36132" lon="5.88208">
        <ele>434.65</ele>
        <time>2026-03-27T09:31:41Z</time>
      </trkpt>
      <trkpt lat="43.36131" lon="5.88207">
        <ele>436.1</ele>
        <time>2026-03-27T09:32:06Z</time>
      </trkpt>
      <trkpt lat="43.36134" lon="5.88205">
        <ele>433.21</ele>
        <time>2026-03-27T09:32:30Z</time>
      </trkpt>
      <trkpt lat="43.36133" lon="5.88208">
        <ele>434.17</ele>
        <time>2026-03-27T09:32:47Z</time>
      </trkpt>
      <trkpt lat="43.36132" lon="5.88208">
        <ele>436.1</ele>
        <time>2026-03-27T09:33:25Z</time>
      </trkpt>
      <trkpt lat="43.36133" lon="5.8821">
        <ele>435.13</ele>
        <time>2026-03-27T09:33:56Z</time>
      </trkpt>
      <trkpt lat="43.36136" lon="5.8821">
        <ele>435.13</ele>
        <time>2026-03-27T09:34:20Z</time>
      </trkpt>
      <trkpt lat="43.36137" lon="5.88206">
        <ele>432.25</ele>
        <time>2026-03-27T09:34:49Z</time>
      </trkpt>
      <trkpt lat="43.36135" lon="5.88208">
        <ele>433.21</ele>
        <time>2026-03-27T09:35:14Z</time>
      </trkpt>
      <trkpt lat="43.36135" lon="5.8821">
        <ele>434.65</ele>
        <time>2026-03-27T09:35:34Z</time>
      </trkpt>
      <trkpt lat="43.36133" lon="5.88211">
        <ele>435.13</ele>
        <time>2026-03-27T09:35:49Z</time>
      </trkpt>
      <trkpt lat="43.36131" lon="5.88209">
        <ele>433.21</ele>
        <time>2026-03-27T09:36:03Z</time>
      </trkpt>
      <trkpt lat="43.36133" lon="5.88207">
        <ele>432.25</ele>
        <time>2026-03-27T09:36:17Z</time>
      </trkpt>
      <trkpt lat="43.36134" lon="5.88209">
        <ele>432.73</ele>
        <time>2026-03-27T09:36:26Z</time>
      </trkpt>
      <trkpt lat="43.36135" lon="5.88219">
        <ele>432.73</ele>
        <time>2026-03-27T09:36:35Z</time>
      </trkpt>
      <trkpt lat="43.36131" lon="5.88235">
        <ele>431.77</ele>
        <time>2026-03-27T09:36:49Z</time>
      </trkpt>
      <trkpt lat="43.36128" lon="5.8824">
        <ele>432.25</ele>
        <time>2026-03-27T09:36:55Z</time>
      </trkpt>
      <trkpt lat="43.36117" lon="5.88247">
        <ele>430.81</ele>
        <time>2026-03-27T09:37:08Z</time>
      </trkpt>
      <trkpt lat="43.36115" lon="5.88249">
        <ele>430.81</ele>
        <time>2026-03-27T09:37:11Z</time>
      </trkpt>
      <trkpt lat="43.36114" lon="5.88256">
        <ele>430.33</ele>
        <time>2026-03-27T09:37:18Z</time>
      </trkpt>
      <trkpt lat="43.3611" lon="5.88271">
        <ele>430.33</ele>
        <time>2026-03-27T09:37:32Z</time>
      </trkpt>
      <trkpt lat="43.3611" lon="5.88272">
        <ele>430.33</ele>
        <time>2026-03-27T09:37:33Z</time>
      </trkpt>
      <trkpt lat="43.36108" lon="5.88274">
        <ele>431.29</ele>
        <time>2026-03-27T09:37:50Z</time>
      </trkpt>
      <trkpt lat="43.36108" lon="5.88276">
        <ele>431.77</ele>
        <time>2026-03-27T09:37:53Z</time>
      </trkpt>
      <trkpt lat="43.36111" lon="5.88285">
        <ele>431.77</ele>
        <time>2026-03-27T09:38:02Z</time>
      </trkpt>
      <trkpt lat="43.36111" lon="5.883">
        <ele>430.81</ele>
        <time>2026-03-27T09:38:15Z</time>
      </trkpt>
      <trkpt lat="43.36112" lon="5.88317">
        <ele>431.29</ele>
        <time>2026-03-27T09:38:28Z</time>
      </trkpt>
      <trkpt lat="43.36116" lon="5.88332">
        <ele>430.33</ele>
        <time>2026-03-27T09:38:40Z</time>
      </trkpt>
      <trkpt lat="43.36118" lon="5.88349">
        <ele>431.29</ele>
        <time>2026-03-27T09:38:54Z</time>
      </trkpt>
      <trkpt lat="43.36119" lon="5.88363">
        <ele>431.77</ele>
        <time>2026-03-27T09:39:05Z</time>
      </trkpt>
      <trkpt lat="43.36117" lon="5.8838">
        <ele>432.25</ele>
        <time>2026-03-27T09:39:18Z</time>
      </trkpt>
      <trkpt lat="43.36116" lon="5.88388">
        <ele>432.25</ele>
        <time>2026-03-27T09:39:25Z</time>
      </trkpt>
      <trkpt lat="43.3611" lon="5.884">
        <ele>431.29</ele>
        <time>2026-03-27T09:39:37Z</time>
      </trkpt>
      <trkpt lat="43.36109" lon="5.88418">
        <ele>431.77</ele>
        <time>2026-03-27T09:39:51Z</time>
      </trkpt>
      <trkpt lat="43.36112" lon="5.88433">
        <ele>432.25</ele>
        <time>2026-03-27T09:40:04Z</time>
      </trkpt>
      <trkpt lat="43.36116" lon="5.88444">
        <ele>432.73</ele>
        <time>2026-03-27T09:40:15Z</time>
      </trkpt>
      <trkpt lat="43.3612" lon="5.88458">
        <ele>432.25</ele>
        <time>2026-03-27T09:40:27Z</time>
      </trkpt>
      <trkpt lat="43.36122" lon="5.8847">
        <ele>433.21</ele>
        <time>2026-03-27T09:40:38Z</time>
      </trkpt>
      <trkpt lat="43.36122" lon="5.88473">
        <ele>432.73</ele>
        <time>2026-03-27T09:40:41Z</time>
      </trkpt>
      <trkpt lat="43.3612" lon="5.88487">
        <ele>431.77</ele>
        <time>2026-03-27T09:40:53Z</time>
      </trkpt>
      <trkpt lat="43.36118" lon="5.88499">
        <ele>432.25</ele>
        <time>2026-03-27T09:41:03Z</time>
      </trkpt>
      <trkpt lat="43.36116" lon="5.88514">
        <ele>432.73</ele>
        <time>2026-03-27T09:41:15Z</time>
      </trkpt>
      <trkpt lat="43.36114" lon="5.88529">
        <ele>432.25</ele>
        <time>2026-03-27T09:41:27Z</time>
      </trkpt>
      <trkpt lat="43.36115" lon="5.88542">
        <ele>433.21</ele>
        <time>2026-03-27T09:41:38Z</time>
      </trkpt>
      <trkpt lat="43.36116" lon="5.88554">
        <ele>433.69</ele>
        <time>2026-03-27T09:41:50Z</time>
      </trkpt>
      <trkpt lat="43.36118" lon="5.88567">
        <ele>433.21</ele>
        <time>2026-03-27T09:42:01Z</time>
      </trkpt>
      <trkpt lat="43.36118" lon="5.88571">
        <ele>432.73</ele>
        <time>2026-03-27T09:42:04Z</time>
      </trkpt>
      <trkpt lat="43.36116" lon="5.88585">
        <ele>431.77</ele>
        <time>2026-03-27T09:42:16Z</time>
      </trkpt>
      <trkpt lat="43.36115" lon="5.886">
        <ele>431.77</ele>
        <time>2026-03-27T09:42:28Z</time>
      </trkpt>
      <trkpt lat="43.36115" lon="5.88615">
        <ele>431.29</ele>
        <time>2026-03-27T09:42:40Z</time>
      </trkpt>
      <trkpt lat="43.36115" lon="5.88625">
        <ele>430.33</ele>
        <time>2026-03-27T09:42:48Z</time>
      </trkpt>
      <trkpt lat="43.36118" lon="5.8864">
        <ele>431.77</ele>
        <time>2026-03-27T09:43:01Z</time>
      </trkpt>
      <trkpt lat="43.36121" lon="5.88646">
        <ele>431.77</ele>
        <time>2026-03-27T09:43:10Z</time>
      </trkpt>
      <trkpt lat="43.36122" lon="5.88648">
        <ele>431.77</ele>
        <time>2026-03-27T09:43:13Z</time>
      </trkpt>
      <trkpt lat="43.36127" lon="5.88659">
        <ele>432.25</ele>
        <time>2026-03-27T09:43:22Z</time>
      </trkpt>
      <trkpt lat="43.36126" lon="5.88678">
        <ele>431.77</ele>
        <time>2026-03-27T09:43:37Z</time>
      </trkpt>
      <trkpt lat="43.36127" lon="5.88691">
        <ele>430.81</ele>
        <time>2026-03-27T09:43:49Z</time>
      </trkpt>
      <trkpt lat="43.36127" lon="5.88698">
        <ele>430.33</ele>
        <time>2026-03-27T09:44:04Z</time>
      </trkpt>
      <trkpt lat="43.36128" lon="5.88711">
        <ele>429.37</ele>
        <time>2026-03-27T09:44:16Z</time>
      </trkpt>
      <trkpt lat="43.36128" lon="5.88709">
        <ele>429.37</ele>
        <time>2026-03-27T09:44:30Z</time>
      </trkpt>
      <trkpt lat="43.36127" lon="5.88712">
        <ele>428.89</ele>
        <time>2026-03-27T09:44:42Z</time>
      </trkpt>
      <trkpt lat="43.36127" lon="5.8872">
        <ele>427.44</ele>
        <time>2026-03-27T09:44:59Z</time>
      </trkpt>
      <trkpt lat="43.3613" lon="5.88735">
        <ele>427.44</ele>
        <time>2026-03-27T09:45:11Z</time>
      </trkpt>
      <trkpt lat="43.36131" lon="5.88741">
        <ele>428.89</ele>
        <time>2026-03-27T09:45:24Z</time>
      </trkpt>
      <trkpt lat="43.36134" lon="5.88751">
        <ele>428.89</ele>
        <time>2026-03-27T09:45:36Z</time>
      </trkpt>
      <trkpt lat="43.36136" lon="5.88758">
        <ele>428.89</ele>
        <time>2026-03-27T09:45:41Z</time>
      </trkpt>
      <trkpt lat="43.36137" lon="5.88775">
        <ele>428.89</ele>
        <time>2026-03-27T09:45:54Z</time>
      </trkpt>
      <trkpt lat="43.36137" lon="5.88789">
        <ele>428.4</ele>
        <time>2026-03-27T09:46:05Z</time>
      </trkpt>
      <trkpt lat="43.36135" lon="5.88796">
        <ele>428.4</ele>
        <time>2026-03-27T09:46:11Z</time>
      </trkpt>
      <trkpt lat="43.36139" lon="5.88815">
        <ele>428.4</ele>
        <time>2026-03-27T09:46:27Z</time>
      </trkpt>
      <trkpt lat="43.36147" lon="5.88835">
        <ele>427.92</ele>
        <time>2026-03-27T09:46:45Z</time>
      </trkpt>
      <trkpt lat="43.36149" lon="5.8884">
        <ele>427.44</ele>
        <time>2026-03-27T09:46:49Z</time>
      </trkpt>
      <trkpt lat="43.36154" lon="5.8885">
        <ele>428.4</ele>
        <time>2026-03-27T09:47:01Z</time>
      </trkpt>
      <trkpt lat="43.36154" lon="5.88851">
        <ele>428.89</ele>
        <time>2026-03-27T09:47:08Z</time>
      </trkpt>
      <trkpt lat="43.3615" lon="5.88854">
        <ele>427.44</ele>
        <time>2026-03-27T09:47:13Z</time>
      </trkpt>
      <trkpt lat="43.36145" lon="5.88869">
        <ele>425.52</ele>
        <time>2026-03-27T09:47:25Z</time>
      </trkpt>
      <trkpt lat="43.36141" lon="5.88885">
        <ele>426</ele>
        <time>2026-03-27T09:47:38Z</time>
      </trkpt>
      <trkpt lat="43.36137" lon="5.88901">
        <ele>426.48</ele>
        <time>2026-03-27T09:47:50Z</time>
      </trkpt>
      <trkpt lat="43.36131" lon="5.88925">
        <ele>426.48</ele>
        <time>2026-03-27T09:48:08Z</time>
      </trkpt>
      <trkpt lat="43.36128" lon="5.88951">
        <ele>426.48</ele>
        <time>2026-03-27T09:48:27Z</time>
      </trkpt>
      <trkpt lat="43.36122" lon="5.88976">
        <ele>426</ele>
        <time>2026-03-27T09:48:46Z</time>
      </trkpt>
      <trkpt lat="43.36121" lon="5.89001">
        <ele>425.04</ele>
        <time>2026-03-27T09:49:06Z</time>
      </trkpt>
      <trkpt lat="43.3612" lon="5.89013">
        <ele>425.04</ele>
        <time>2026-03-27T09:49:15Z</time>
      </trkpt>
      <trkpt lat="43.36119" lon="5.89039">
        <ele>425.52</ele>
        <time>2026-03-27T09:49:36Z</time>
      </trkpt>
      <trkpt lat="43.36121" lon="5.89057">
        <ele>425.52</ele>
        <time>2026-03-27T09:49:52Z</time>
      </trkpt>
      <trkpt lat="43.36129" lon="5.89079">
        <ele>425.52</ele>
        <time>2026-03-27T09:50:13Z</time>
      </trkpt>
      <trkpt lat="43.36133" lon="5.891">
        <ele>424.08</ele>
        <time>2026-03-27T09:50:30Z</time>
      </trkpt>
      <trkpt lat="43.36136" lon="5.89122">
        <ele>422.64</ele>
        <time>2026-03-27T09:50:48Z</time>
      </trkpt>
      <trkpt lat="43.36138" lon="5.89138">
        <ele>421.19</ele>
        <time>2026-03-27T09:51:02Z</time>
      </trkpt>
      <trkpt lat="43.36143" lon="5.89154">
        <ele>421.68</ele>
        <time>2026-03-27T09:51:15Z</time>
      </trkpt>
      <trkpt lat="43.3615" lon="5.89179">
        <ele>422.16</ele>
        <time>2026-03-27T09:51:35Z</time>
      </trkpt>
      <trkpt lat="43.36149" lon="5.89202">
        <ele>421.19</ele>
        <time>2026-03-27T09:51:54Z</time>
      </trkpt>
      <trkpt lat="43.36148" lon="5.89219">
        <ele>418.79</ele>
        <time>2026-03-27T09:52:12Z</time>
      </trkpt>
      <trkpt lat="43.36146" lon="5.89233">
        <ele>417.83</ele>
        <time>2026-03-27T09:52:28Z</time>
      </trkpt>
      <trkpt lat="43.36146" lon="5.8925">
        <ele>416.39</ele>
        <time>2026-03-27T09:52:45Z</time>
      </trkpt>
      <trkpt lat="43.36144" lon="5.89267">
        <ele>415.43</ele>
        <time>2026-03-27T09:53:02Z</time>
      </trkpt>
      <trkpt lat="43.36144" lon="5.89279">
        <ele>415.43</ele>
        <time>2026-03-27T09:53:13Z</time>
      </trkpt>
      <trkpt lat="43.36144" lon="5.89292">
        <ele>414.47</ele>
        <time>2026-03-27T09:53:25Z</time>
      </trkpt>
      <trkpt lat="43.36143" lon="5.89298">
        <ele>413.98</ele>
        <time>2026-03-27T09:53:38Z</time>
      </trkpt>
      <trkpt lat="43.36145" lon="5.89302">
        <ele>413.98</ele>
        <time>2026-03-27T09:53:44Z</time>
      </trkpt>
      <trkpt lat="43.36146" lon="5.89314">
        <ele>413.02</ele>
        <time>2026-03-27T09:53:55Z</time>
      </trkpt>
      <trkpt lat="43.36145" lon="5.89325">
        <ele>413.5</ele>
        <time>2026-03-27T09:54:05Z</time>
      </trkpt>
      <trkpt lat="43.36147" lon="5.89332">
        <ele>414.95</ele>
        <time>2026-03-27T09:54:12Z</time>
      </trkpt>
      <trkpt lat="43.36147" lon="5.89337">
        <ele>415.43</ele>
        <time>2026-03-27T09:54:16Z</time>
      </trkpt>
      <trkpt lat="43.36147" lon="5.89342">
        <ele>415.91</ele>
        <time>2026-03-27T09:54:19Z</time>
      </trkpt>
      <trkpt lat="43.36144" lon="5.8935">
        <ele>415.43</ele>
        <time>2026-03-27T09:54:26Z</time>
      </trkpt>
      <trkpt lat="43.36143" lon="5.89365">
        <ele>415.91</ele>
        <time>2026-03-27T09:54:37Z</time>
      </trkpt>
      <trkpt lat="43.36141" lon="5.89375">
        <ele>414.95</ele>
        <time>2026-03-27T09:54:46Z</time>
      </trkpt>
      <trkpt lat="43.3614" lon="5.89381">
        <ele>414.95</ele>
        <time>2026-03-27T09:54:51Z</time>
      </trkpt>
      <trkpt lat="43.36134" lon="5.89395">
        <ele>413.5</ele>
        <time>2026-03-27T09:55:04Z</time>
      </trkpt>
      <trkpt lat="43.36134" lon="5.89397">
        <ele>413.02</ele>
        <time>2026-03-27T09:55:06Z</time>
      </trkpt>
      <trkpt lat="43.36131" lon="5.89411">
        <ele>411.58</ele>
        <time>2026-03-27T09:55:19Z</time>
      </trkpt>
      <trkpt lat="43.36124" lon="5.89425">
        <ele>410.62</ele>
        <time>2026-03-27T09:55:34Z</time>
      </trkpt>
      <trkpt lat="43.36119" lon="5.89435">
        <ele>409.18</ele>
        <time>2026-03-27T09:55:45Z</time>
      </trkpt>
      <trkpt lat="43.3612" lon="5.89448">
        <ele>408.7</ele>
        <time>2026-03-27T09:55:56Z</time>
      </trkpt>
      <trkpt lat="43.3612" lon="5.89451">
        <ele>408.7</ele>
        <time>2026-03-27T09:56:04Z</time>
      </trkpt>
      <trkpt lat="43.36121" lon="5.89465">
        <ele>410.14</ele>
        <time>2026-03-27T09:56:18Z</time>
      </trkpt>
      <trkpt lat="43.36122" lon="5.89469">
        <ele>409.66</ele>
        <time>2026-03-27T09:56:22Z</time>
      </trkpt>
      <trkpt lat="43.36122" lon="5.89482">
        <ele>407.74</ele>
        <time>2026-03-27T09:56:32Z</time>
      </trkpt>
      <trkpt lat="43.36122" lon="5.89497">
        <ele>407.26</ele>
        <time>2026-03-27T09:56:43Z</time>
      </trkpt>
      <trkpt lat="43.36121" lon="5.89499">
        <ele>407.26</ele>
        <time>2026-03-27T09:56:45Z</time>
      </trkpt>
      <trkpt lat="43.36118" lon="5.89508">
        <ele>408.22</ele>
        <time>2026-03-27T09:56:53Z</time>
      </trkpt>
      <trkpt lat="43.36116" lon="5.89511">
        <ele>408.22</ele>
        <time>2026-03-27T09:56:57Z</time>
      </trkpt>
      <trkpt lat="43.36113" lon="5.89526">
        <ele>407.74</ele>
        <time>2026-03-27T09:57:11Z</time>
      </trkpt>
      <trkpt lat="43.36111" lon="5.89538">
        <ele>408.7</ele>
        <time>2026-03-27T09:57:24Z</time>
      </trkpt>
      <trkpt lat="43.36108" lon="5.89541">
        <ele>409.66</ele>
        <time>2026-03-27T09:57:44Z</time>
      </trkpt>
      <trkpt lat="43.36106" lon="5.8954">
        <ele>407.26</ele>
        <time>2026-03-27T09:58:07Z</time>
      </trkpt>
      <trkpt lat="43.36105" lon="5.89543">
        <ele>405.81</ele>
        <time>2026-03-27T09:58:20Z</time>
      </trkpt>
      <trkpt lat="43.36095" lon="5.89547">
        <ele>404.37</ele>
        <time>2026-03-27T09:58:31Z</time>
      </trkpt>
      <trkpt lat="43.36088" lon="5.89549">
        <ele>405.33</ele>
        <time>2026-03-27T09:58:41Z</time>
      </trkpt>
      <trkpt lat="43.36077" lon="5.89551">
        <ele>405.81</ele>
        <time>2026-03-27T09:58:52Z</time>
      </trkpt>
      <trkpt lat="43.36067" lon="5.89543">
        <ele>404.37</ele>
        <time>2026-03-27T09:59:04Z</time>
      </trkpt>
      <trkpt lat="43.36061" lon="5.89542">
        <ele>405.33</ele>
        <time>2026-03-27T09:59:11Z</time>
      </trkpt>
      <trkpt lat="43.36055" lon="5.89547">
        <ele>403.41</ele>
        <time>2026-03-27T09:59:21Z</time>
      </trkpt>
      <trkpt lat="43.36052" lon="5.89544">
        <ele>402.93</ele>
        <time>2026-03-27T09:59:25Z</time>
      </trkpt>
      <trkpt lat="43.36048" lon="5.8954">
        <ele>403.89</ele>
        <time>2026-03-27T09:59:38Z</time>
      </trkpt>
      <trkpt lat="43.3604" lon="5.89542">
        <ele>402.93</ele>
        <time>2026-03-27T09:59:49Z</time>
      </trkpt>
      <trkpt lat="43.36033" lon="5.89539">
        <ele>401.97</ele>
        <time>2026-03-27T10:00:01Z</time>
      </trkpt>
      <trkpt lat="43.36026" lon="5.89541">
        <ele>401.01</ele>
        <time>2026-03-27T10:00:13Z</time>
      </trkpt>
      <trkpt lat="43.3602" lon="5.89542">
        <ele>401.97</ele>
        <time>2026-03-27T10:00:25Z</time>
      </trkpt>
      <trkpt lat="43.36014" lon="5.89539">
        <ele>400.05</ele>
        <time>2026-03-27T10:00:37Z</time>
      </trkpt>
      <trkpt lat="43.36014" lon="5.89536">
        <ele>402.93</ele>
        <time>2026-03-27T10:00:59Z</time>
      </trkpt>
      <trkpt lat="43.36024" lon="5.89529">
        <ele>403.41</ele>
        <time>2026-03-27T10:01:18Z</time>
      </trkpt>
      <trkpt lat="43.36038" lon="5.8953">
        <ele>403.89</ele>
        <time>2026-03-27T10:01:34Z</time>
      </trkpt>
      <trkpt lat="43.36048" lon="5.89529">
        <ele>403.89</ele>
        <time>2026-03-27T10:01:52Z</time>
      </trkpt>
      <trkpt lat="43.36054" lon="5.89526">
        <ele>404.85</ele>
        <time>2026-03-27T10:02:07Z</time>
      </trkpt>
      <trkpt lat="43.36066" lon="5.89532">
        <ele>405.81</ele>
        <time>2026-03-27T10:02:22Z</time>
      </trkpt>
      <trkpt lat="43.36076" lon="5.8954">
        <ele>408.7</ele>
        <time>2026-03-27T10:02:36Z</time>
      </trkpt>
      <trkpt lat="43.36077" lon="5.89539">
        <ele>408.7</ele>
        <time>2026-03-27T10:02:37Z</time>
      </trkpt>
      <trkpt lat="43.36088" lon="5.89537">
        <ele>410.62</ele>
        <time>2026-03-27T10:02:52Z</time>
      </trkpt>
      <trkpt lat="43.36097" lon="5.89532">
        <ele>410.62</ele>
        <time>2026-03-27T10:03:08Z</time>
      </trkpt>
      <trkpt lat="43.36103" lon="5.89536">
        <ele>412.54</ele>
        <time>2026-03-27T10:03:21Z</time>
      </trkpt>
      <trkpt lat="43.36109" lon="5.89552">
        <ele>412.54</ele>
        <time>2026-03-27T10:03:34Z</time>
      </trkpt>
      <trkpt lat="43.36111" lon="5.89565">
        <ele>410.62</ele>
        <time>2026-03-27T10:03:47Z</time>
      </trkpt>
      <trkpt lat="43.36111" lon="5.89584">
        <ele>408.7</ele>
        <time>2026-03-27T10:04:01Z</time>
      </trkpt>
      <trkpt lat="43.36112" lon="5.8959">
        <ele>407.74</ele>
        <time>2026-03-27T10:04:21Z</time>
      </trkpt>
      <trkpt lat="43.36112" lon="5.89594">
        <ele>407.26</ele>
        <time>2026-03-27T10:04:38Z</time>
      </trkpt>
      <trkpt lat="43.3611" lon="5.89602">
        <ele>407.74</ele>
        <time>2026-03-27T10:04:57Z</time>
      </trkpt>
      <trkpt lat="43.36105" lon="5.8962">
        <ele>406.29</ele>
        <time>2026-03-27T10:05:16Z</time>
      </trkpt>
      <trkpt lat="43.36103" lon="5.89635">
        <ele>405.33</ele>
        <time>2026-03-27T10:05:28Z</time>
      </trkpt>
      <trkpt lat="43.36108" lon="5.89634">
        <ele>405.81</ele>
        <time>2026-03-27T10:05:44Z</time>
      </trkpt>
      <trkpt lat="43.3611" lon="5.8963">
        <ele>406.77</ele>
        <time>2026-03-27T10:05:57Z</time>
      </trkpt>
      <trkpt lat="43.36112" lon="5.89629">
        <ele>406.77</ele>
        <time>2026-03-27T10:06:00Z</time>
      </trkpt>
      <trkpt lat="43.36118" lon="5.8962">
        <ele>405.33</ele>
        <time>2026-03-27T10:06:12Z</time>
      </trkpt>
      <trkpt lat="43.36125" lon="5.89613">
        <ele>405.33</ele>
        <time>2026-03-27T10:06:24Z</time>
      </trkpt>
      <trkpt lat="43.36131" lon="5.89607">
        <ele>404.85</ele>
        <time>2026-03-27T10:06:37Z</time>
      </trkpt>
      <trkpt lat="43.36135" lon="5.896">
        <ele>404.85</ele>
        <time>2026-03-27T10:06:49Z</time>
      </trkpt>
      <trkpt lat="43.36145" lon="5.89596">
        <ele>409.18</ele>
        <time>2026-03-27T10:07:03Z</time>
      </trkpt>
      <trkpt lat="43.36154" lon="5.89593">
        <ele>410.62</ele>
        <time>2026-03-27T10:07:15Z</time>
      </trkpt>
      <trkpt lat="43.36162" lon="5.8959">
        <ele>410.62</ele>
        <time>2026-03-27T10:07:27Z</time>
      </trkpt>
      <trkpt lat="43.36168" lon="5.89585">
        <ele>411.58</ele>
        <time>2026-03-27T10:07:39Z</time>
      </trkpt>
      <trkpt lat="43.36174" lon="5.89578">
        <ele>412.06</ele>
        <time>2026-03-27T10:07:51Z</time>
      </trkpt>
      <trkpt lat="43.36183" lon="5.89569">
        <ele>412.06</ele>
        <time>2026-03-27T10:08:06Z</time>
      </trkpt>
      <trkpt lat="43.3619" lon="5.89559">
        <ele>407.74</ele>
        <time>2026-03-27T10:08:20Z</time>
      </trkpt>
      <trkpt lat="43.36196" lon="5.89549">
        <ele>406.29</ele>
        <time>2026-03-27T10:08:32Z</time>
      </trkpt>
      <trkpt lat="43.36203" lon="5.89541">
        <ele>405.81</ele>
        <time>2026-03-27T10:08:43Z</time>
      </trkpt>
      <trkpt lat="43.3621" lon="5.8953">
        <ele>406.77</ele>
        <time>2026-03-27T10:08:57Z</time>
      </trkpt>
      <trkpt lat="43.36215" lon="5.89522">
        <ele>408.22</ele>
        <time>2026-03-27T10:09:09Z</time>
      </trkpt>
      <trkpt lat="43.3622" lon="5.89512">
        <ele>408.22</ele>
        <time>2026-03-27T10:09:25Z</time>
      </trkpt>
      <trkpt lat="43.36224" lon="5.89499">
        <ele>406.77</ele>
        <time>2026-03-27T10:09:38Z</time>
      </trkpt>
      <trkpt lat="43.3623" lon="5.89491">
        <ele>406.77</ele>
        <time>2026-03-27T10:09:49Z</time>
      </trkpt>
      <trkpt lat="43.36233" lon="5.8948">
        <ele>409.18</ele>
        <time>2026-03-27T10:10:02Z</time>
      </trkpt>
      <trkpt lat="43.36236" lon="5.89472">
        <ele>410.62</ele>
        <time>2026-03-27T10:10:16Z</time>
      </trkpt>
      <trkpt lat="43.36238" lon="5.89462">
        <ele>410.14</ele>
        <time>2026-03-27T10:10:28Z</time>
      </trkpt>
      <trkpt lat="43.36239" lon="5.89453">
        <ele>408.22</ele>
        <time>2026-03-27T10:10:39Z</time>
      </trkpt>
      <trkpt lat="43.36242" lon="5.89447">
        <ele>406.77</ele>
        <time>2026-03-27T10:10:47Z</time>
      </trkpt>
      <trkpt lat="43.36244" lon="5.89439">
        <ele>406.77</ele>
        <time>2026-03-27T10:10:55Z</time>
      </trkpt>
      <trkpt lat="43.36247" lon="5.89428">
        <ele>407.26</ele>
        <time>2026-03-27T10:11:07Z</time>
      </trkpt>
      <trkpt lat="43.36249" lon="5.89419">
        <ele>406.77</ele>
        <time>2026-03-27T10:11:18Z</time>
      </trkpt>
      <trkpt lat="43.36252" lon="5.89409">
        <ele>404.37</ele>
        <time>2026-03-27T10:11:30Z</time>
      </trkpt>
      <trkpt lat="43.36254" lon="5.89398">
        <ele>402.45</ele>
        <time>2026-03-27T10:11:43Z</time>
      </trkpt>
      <trkpt lat="43.36255" lon="5.89396">
        <ele>402.45</ele>
        <time>2026-03-27T10:11:45Z</time>
      </trkpt>
      <trkpt lat="43.36259" lon="5.89383">
        <ele>399.57</ele>
        <time>2026-03-27T10:11:56Z</time>
      </trkpt>
      <trkpt lat="43.36263" lon="5.89375">
        <ele>398.6</ele>
        <time>2026-03-27T10:12:09Z</time>
      </trkpt>
      <trkpt lat="43.36264" lon="5.89375">
        <ele>398.12</ele>
        <time>2026-03-27T10:12:10Z</time>
      </trkpt>
      <trkpt lat="43.36267" lon="5.89366">
        <ele>397.64</ele>
        <time>2026-03-27T10:12:23Z</time>
      </trkpt>
      <trkpt lat="43.36269" lon="5.89365">
        <ele>398.6</ele>
        <time>2026-03-27T10:12:35Z</time>
      </trkpt>
      <trkpt lat="43.36269" lon="5.89361">
        <ele>398.6</ele>
        <time>2026-03-27T10:12:39Z</time>
      </trkpt>
      <trkpt lat="43.36271" lon="5.89357">
        <ele>398.6</ele>
        <time>2026-03-27T10:12:43Z</time>
      </trkpt>
      <trkpt lat="43.36275" lon="5.89344">
        <ele>395.72</ele>
        <time>2026-03-27T10:12:56Z</time>
      </trkpt>
      <trkpt lat="43.36278" lon="5.89336">
        <ele>394.28</ele>
        <time>2026-03-27T10:13:09Z</time>
      </trkpt>
      <trkpt lat="43.36283" lon="5.89328">
        <ele>394.28</ele>
        <time>2026-03-27T10:13:22Z</time>
      </trkpt>
      <trkpt lat="43.36286" lon="5.89318">
        <ele>392.84</ele>
        <time>2026-03-27T10:13:32Z</time>
      </trkpt>
      <trkpt lat="43.36289" lon="5.89307">
        <ele>390.43</ele>
        <time>2026-03-27T10:13:43Z</time>
      </trkpt>
      <trkpt lat="43.36289" lon="5.89304">
        <ele>390.43</ele>
        <time>2026-03-27T10:13:46Z</time>
      </trkpt>
      <trkpt lat="43.36291" lon="5.89292">
        <ele>392.84</ele>
        <time>2026-03-27T10:13:58Z</time>
      </trkpt>
      <trkpt lat="43.36297" lon="5.89283">
        <ele>393.32</ele>
        <time>2026-03-27T10:14:09Z</time>
      </trkpt>
      <trkpt lat="43.36304" lon="5.89274">
        <ele>394.76</ele>
        <time>2026-03-27T10:14:21Z</time>
      </trkpt>
      <trkpt lat="43.36308" lon="5.89267">
        <ele>395.24</ele>
        <time>2026-03-27T10:14:33Z</time>
      </trkpt>
      <trkpt lat="43.36311" lon="5.89263">
        <ele>396.68</ele>
        <time>2026-03-27T10:14:46Z</time>
      </trkpt>
      <trkpt lat="43.36318" lon="5.89255">
        <ele>398.12</ele>
        <time>2026-03-27T10:14:59Z</time>
      </trkpt>
      <trkpt lat="43.36325" lon="5.89249">
        <ele>397.64</ele>
        <time>2026-03-27T10:15:13Z</time>
      </trkpt>
      <trkpt lat="43.36327" lon="5.89247">
        <ele>397.64</ele>
        <time>2026-03-27T10:15:17Z</time>
      </trkpt>
      <trkpt lat="43.36339" lon="5.89245">
        <ele>399.57</ele>
        <time>2026-03-27T10:15:30Z</time>
      </trkpt>
      <trkpt lat="43.36339" lon="5.89243">
        <ele>401.49</ele>
        <time>2026-03-27T10:15:45Z</time>
      </trkpt>
      <trkpt lat="43.36345" lon="5.89237">
        <ele>402.93</ele>
        <time>2026-03-27T10:15:59Z</time>
      </trkpt>
      <trkpt lat="43.36353" lon="5.89228">
        <ele>403.89</ele>
        <time>2026-03-27T10:16:11Z</time>
      </trkpt>
      <trkpt lat="43.36359" lon="5.8922">
        <ele>401.97</ele>
        <time>2026-03-27T10:16:23Z</time>
      </trkpt>
      <trkpt lat="43.36363" lon="5.8921">
        <ele>402.45</ele>
        <time>2026-03-27T10:16:36Z</time>
      </trkpt>
      <trkpt lat="43.36368" lon="5.892">
        <ele>401.97</ele>
        <time>2026-03-27T10:16:50Z</time>
      </trkpt>
      <trkpt lat="43.3637" lon="5.89185">
        <ele>401.01</ele>
        <time>2026-03-27T10:17:04Z</time>
      </trkpt>
      <trkpt lat="43.36382" lon="5.89183">
        <ele>398.6</ele>
        <time>2026-03-27T10:17:17Z</time>
      </trkpt>
      <trkpt lat="43.36391" lon="5.89186">
        <ele>396.68</ele>
        <time>2026-03-27T10:17:30Z</time>
      </trkpt>
      <trkpt lat="43.36394" lon="5.89177">
        <ele>393.8</ele>
        <time>2026-03-27T10:17:45Z</time>
      </trkpt>
      <trkpt lat="43.36398" lon="5.89168">
        <ele>393.8</ele>
        <time>2026-03-27T10:17:57Z</time>
      </trkpt>
      <trkpt lat="43.364" lon="5.89161">
        <ele>394.76</ele>
        <time>2026-03-27T10:18:04Z</time>
      </trkpt>
      <trkpt lat="43.36401" lon="5.89158">
        <ele>394.76</ele>
        <time>2026-03-27T10:18:06Z</time>
      </trkpt>
      <trkpt lat="43.36408" lon="5.89152">
        <ele>395.24</ele>
        <time>2026-03-27T10:18:19Z</time>
      </trkpt>
      <trkpt lat="43.36412" lon="5.89144">
        <ele>395.24</ele>
        <time>2026-03-27T10:18:30Z</time>
      </trkpt>
      <trkpt lat="43.36415" lon="5.89137">
        <ele>393.8</ele>
        <time>2026-03-27T10:18:44Z</time>
      </trkpt>
      <trkpt lat="43.36418" lon="5.89133">
        <ele>394.28</ele>
        <time>2026-03-27T10:19:00Z</time>
      </trkpt>
      <trkpt lat="43.36418" lon="5.8913">
        <ele>395.24</ele>
        <time>2026-03-27T10:19:05Z</time>
      </trkpt>
      <trkpt lat="43.36417" lon="5.8912">
        <ele>394.28</ele>
        <time>2026-03-27T10:19:17Z</time>
      </trkpt>
      <trkpt lat="43.36415" lon="5.89113">
        <ele>394.28</ele>
        <time>2026-03-27T10:19:32Z</time>
      </trkpt>
      <trkpt lat="43.36417" lon="5.89107">
        <ele>394.76</ele>
        <time>2026-03-27T10:19:48Z</time>
      </trkpt>
      <trkpt lat="43.36418" lon="5.89106">
        <ele>394.28</ele>
        <time>2026-03-27T10:20:11Z</time>
      </trkpt>
      <trkpt lat="43.3642" lon="5.89116">
        <ele>392.36</ele>
        <time>2026-03-27T10:20:31Z</time>
      </trkpt>
      <trkpt lat="43.3642" lon="5.89119">
        <ele>392.84</ele>
        <time>2026-03-27T10:20:46Z</time>
      </trkpt>
      <trkpt lat="43.3642" lon="5.8912">
        <ele>392.36</ele>
        <time>2026-03-27T10:20:54Z</time>
      </trkpt>
      <trkpt lat="43.36412" lon="5.89121">
        <ele>394.28</ele>
        <time>2026-03-27T10:21:06Z</time>
      </trkpt>
      <trkpt lat="43.36406" lon="5.89121">
        <ele>395.72</ele>
        <time>2026-03-27T10:21:19Z</time>
      </trkpt>
      <trkpt lat="43.36404" lon="5.89123">
        <ele>397.16</ele>
        <time>2026-03-27T10:21:40Z</time>
      </trkpt>
      <trkpt lat="43.36404" lon="5.89118">
        <ele>396.68</ele>
        <time>2026-03-27T10:22:12Z</time>
      </trkpt>
      <trkpt lat="43.36405" lon="5.89113">
        <ele>397.16</ele>
        <time>2026-03-27T10:22:31Z</time>
      </trkpt>
      <trkpt lat="43.36411" lon="5.89112">
        <ele>396.2</ele>
        <time>2026-03-27T10:22:46Z</time>
      </trkpt>
      <trkpt lat="43.36418" lon="5.89111">
        <ele>396.68</ele>
        <time>2026-03-27T10:23:00Z</time>
      </trkpt>
      <trkpt lat="43.36417" lon="5.89109">
        <ele>394.76</ele>
        <time>2026-03-27T10:23:24Z</time>
      </trkpt>
      <trkpt lat="43.36417" lon="5.89112">
        <ele>395.72</ele>
        <time>2026-03-27T10:23:51Z</time>
      </trkpt>
      <trkpt lat="43.36418" lon="5.8912">
        <ele>394.76</ele>
        <time>2026-03-27T10:24:09Z</time>
      </trkpt>
      <trkpt lat="43.36419" lon="5.89121">
        <ele>395.24</ele>
        <time>2026-03-27T10:24:11Z</time>
      </trkpt>
      <trkpt lat="43.36414" lon="5.89115">
        <ele>393.8</ele>
        <time>2026-03-27T10:24:21Z</time>
      </trkpt>
      <trkpt lat="43.36414" lon="5.89114">
        <ele>394.28</ele>
        <time>2026-03-27T10:24:47Z</time>
      </trkpt>
      <trkpt lat="43.36404" lon="5.89116">
        <ele>394.76</ele>
        <time>2026-03-27T10:25:19Z</time>
      </trkpt>
      <trkpt lat="43.36409" lon="5.89112">
        <ele>395.72</ele>
        <time>2026-03-27T10:25:46Z</time>
      </trkpt>
      <trkpt lat="43.36413" lon="5.89112">
        <ele>396.68</ele>
        <time>2026-03-27T10:26:23Z</time>
      </trkpt>
      <trkpt lat="43.36417" lon="5.89114">
        <ele>396.2</ele>
        <time>2026-03-27T10:26:43Z</time>
      </trkpt>
      <trkpt lat="43.36419" lon="5.89118">
        <ele>394.76</ele>
        <time>2026-03-27T10:26:58Z</time>
      </trkpt>
      <trkpt lat="43.3642" lon="5.89119">
        <ele>392.36</ele>
        <time>2026-03-27T10:27:08Z</time>
      </trkpt>
      <trkpt lat="43.36422" lon="5.89122">
        <ele>391.87</ele>
        <time>2026-03-27T10:27:11Z</time>
      </trkpt>
      <trkpt lat="43.36428" lon="5.89128">
        <ele>391.39</ele>
        <time>2026-03-27T10:27:21Z</time>
      </trkpt>
      <trkpt lat="43.36431" lon="5.89133">
        <ele>391.39</ele>
        <time>2026-03-27T10:27:27Z</time>
      </trkpt>
      <trkpt lat="43.3644" lon="5.89134">
        <ele>391.39</ele>
        <time>2026-03-27T10:27:38Z</time>
      </trkpt>
      <trkpt lat="43.36442" lon="5.89135">
        <ele>390.91</ele>
        <time>2026-03-27T10:27:41Z</time>
      </trkpt>
      <trkpt lat="43.36444" lon="5.89138">
        <ele>390.43</ele>
        <time>2026-03-27T10:27:44Z</time>
      </trkpt>
      <trkpt lat="43.36443" lon="5.89145">
        <ele>389.95</ele>
        <time>2026-03-27T10:27:55Z</time>
      </trkpt>
      <trkpt lat="43.36442" lon="5.89146">
        <ele>392.36</ele>
        <time>2026-03-27T10:28:18Z</time>
      </trkpt>
      <trkpt lat="43.36444" lon="5.89142">
        <ele>391.87</ele>
        <time>2026-03-27T10:28:25Z</time>
      </trkpt>
      <trkpt lat="43.36447" lon="5.89127">
        <ele>391.87</ele>
        <time>2026-03-27T10:28:38Z</time>
      </trkpt>
      <trkpt lat="43.36449" lon="5.89113">
        <ele>392.36</ele>
        <time>2026-03-27T10:28:50Z</time>
      </trkpt>
      <trkpt lat="43.3645" lon="5.89097">
        <ele>392.84</ele>
        <time>2026-03-27T10:29:01Z</time>
      </trkpt>
      <trkpt lat="43.36451" lon="5.89089">
        <ele>393.8</ele>
        <time>2026-03-27T10:29:08Z</time>
      </trkpt>
      <trkpt lat="43.36451" lon="5.89078">
        <ele>392.36</ele>
        <time>2026-03-27T10:29:19Z</time>
      </trkpt>
      <trkpt lat="43.36451" lon="5.89062">
        <ele>389.47</ele>
        <time>2026-03-27T10:29:31Z</time>
      </trkpt>
      <trkpt lat="43.36455" lon="5.89048">
        <ele>387.55</ele>
        <time>2026-03-27T10:29:43Z</time>
      </trkpt>
      <trkpt lat="43.36456" lon="5.89034">
        <ele>384.66</ele>
        <time>2026-03-27T10:29:55Z</time>
      </trkpt>
      <trkpt lat="43.36455" lon="5.89022">
        <ele>382.26</ele>
        <time>2026-03-27T10:30:06Z</time>
      </trkpt>
      <trkpt lat="43.36456" lon="5.89008">
        <ele>378.9</ele>
        <time>2026-03-27T10:30:20Z</time>
      </trkpt>
      <trkpt lat="43.36455" lon="5.88994">
        <ele>379.86</ele>
        <time>2026-03-27T10:30:32Z</time>
      </trkpt>
      <trkpt lat="43.36454" lon="5.88985">
        <ele>377.94</ele>
        <time>2026-03-27T10:30:43Z</time>
      </trkpt>
      <trkpt lat="43.36453" lon="5.88971">
        <ele>378.9</ele>
        <time>2026-03-27T10:30:53Z</time>
      </trkpt>
      <trkpt lat="43.3646" lon="5.88956">
        <ele>382.26</ele>
        <time>2026-03-27T10:31:05Z</time>
      </trkpt>
      <trkpt lat="43.36465" lon="5.88938">
        <ele>388.51</ele>
        <time>2026-03-27T10:31:17Z</time>
      </trkpt>
      <trkpt lat="43.36469" lon="5.88926">
        <ele>391.87</ele>
        <time>2026-03-27T10:31:26Z</time>
      </trkpt>
      <trkpt lat="43.36476" lon="5.88918">
        <ele>391.87</ele>
        <time>2026-03-27T10:31:37Z</time>
      </trkpt>
      <trkpt lat="43.36479" lon="5.88908">
        <ele>392.36</ele>
        <time>2026-03-27T10:31:47Z</time>
      </trkpt>
      <trkpt lat="43.36482" lon="5.88897">
        <ele>394.76</ele>
        <time>2026-03-27T10:31:57Z</time>
      </trkpt>
      <trkpt lat="43.36484" lon="5.88887">
        <ele>395.72</ele>
        <time>2026-03-27T10:32:08Z</time>
      </trkpt>
      <trkpt lat="43.36489" lon="5.88876">
        <ele>397.16</ele>
        <time>2026-03-27T10:32:18Z</time>
      </trkpt>
      <trkpt lat="43.36496" lon="5.88869">
        <ele>397.64</ele>
        <time>2026-03-27T10:32:29Z</time>
      </trkpt>
      <trkpt lat="43.365" lon="5.88858">
        <ele>398.12</ele>
        <time>2026-03-27T10:32:40Z</time>
      </trkpt>
      <trkpt lat="43.36507" lon="5.88846">
        <ele>398.12</ele>
        <time>2026-03-27T10:32:53Z</time>
      </trkpt>
      <trkpt lat="43.36511" lon="5.88836">
        <ele>398.6</ele>
        <time>2026-03-27T10:33:03Z</time>
      </trkpt>
      <trkpt lat="43.36518" lon="5.88829">
        <ele>399.08</ele>
        <time>2026-03-27T10:33:14Z</time>
      </trkpt>
      <trkpt lat="43.36525" lon="5.88821">
        <ele>400.05</ele>
        <time>2026-03-27T10:33:25Z</time>
      </trkpt>
      <trkpt lat="43.36531" lon="5.88811">
        <ele>402.93</ele>
        <time>2026-03-27T10:33:37Z</time>
      </trkpt>
      <trkpt lat="43.36532" lon="5.88805">
        <ele>403.89</ele>
        <time>2026-03-27T10:33:43Z</time>
      </trkpt>
      <trkpt lat="43.36535" lon="5.88799">
        <ele>403.89</ele>
        <time>2026-03-27T10:33:49Z</time>
      </trkpt>
      <trkpt lat="43.36538" lon="5.88795">
        <ele>404.37</ele>
        <time>2026-03-27T10:33:53Z</time>
      </trkpt>
      <trkpt lat="43.36541" lon="5.88784">
        <ele>403.41</ele>
        <time>2026-03-27T10:34:04Z</time>
      </trkpt>
      <trkpt lat="43.36544" lon="5.88774">
        <ele>403.89</ele>
        <time>2026-03-27T10:34:14Z</time>
      </trkpt>
      <trkpt lat="43.36549" lon="5.88764">
        <ele>403.89</ele>
        <time>2026-03-27T10:34:24Z</time>
      </trkpt>
      <trkpt lat="43.36552" lon="5.88752">
        <ele>405.33</ele>
        <time>2026-03-27T10:34:34Z</time>
      </trkpt>
      <trkpt lat="43.36556" lon="5.88741">
        <ele>405.33</ele>
        <time>2026-03-27T10:34:45Z</time>
      </trkpt>
      <trkpt lat="43.36559" lon="5.8873">
        <ele>405.81</ele>
        <time>2026-03-27T10:34:56Z</time>
      </trkpt>
      <trkpt lat="43.36564" lon="5.88718">
        <ele>404.85</ele>
        <time>2026-03-27T10:35:07Z</time>
      </trkpt>
      <trkpt lat="43.36566" lon="5.88712">
        <ele>406.29</ele>
        <time>2026-03-27T10:35:17Z</time>
      </trkpt>
      <trkpt lat="43.36567" lon="5.88699">
        <ele>407.26</ele>
        <time>2026-03-27T10:35:29Z</time>
      </trkpt>
      <trkpt lat="43.36569" lon="5.88684">
        <ele>407.26</ele>
        <time>2026-03-27T10:35:41Z</time>
      </trkpt>
      <trkpt lat="43.36568" lon="5.88673">
        <ele>406.77</ele>
        <time>2026-03-27T10:35:55Z</time>
      </trkpt>
      <trkpt lat="43.36567" lon="5.88672">
        <ele>406.29</ele>
        <time>2026-03-27T10:36:01Z</time>
      </trkpt>
      <trkpt lat="43.36567" lon="5.88659">
        <ele>407.26</ele>
        <time>2026-03-27T10:36:14Z</time>
      </trkpt>
      <trkpt lat="43.3657" lon="5.88656">
        <ele>408.7</ele>
        <time>2026-03-27T10:36:30Z</time>
      </trkpt>
      <trkpt lat="43.36573" lon="5.88646">
        <ele>408.22</ele>
        <time>2026-03-27T10:36:42Z</time>
      </trkpt>
      <trkpt lat="43.36575" lon="5.88643">
        <ele>407.26</ele>
        <time>2026-03-27T10:36:52Z</time>
      </trkpt>
      <trkpt lat="43.36579" lon="5.8863">
        <ele>407.26</ele>
        <time>2026-03-27T10:37:03Z</time>
      </trkpt>
      <trkpt lat="43.36579" lon="5.88629">
        <ele>407.26</ele>
        <time>2026-03-27T10:37:04Z</time>
      </trkpt>
      <trkpt lat="43.36582" lon="5.88626">
        <ele>407.74</ele>
        <time>2026-03-27T10:37:08Z</time>
      </trkpt>
      <trkpt lat="43.36586" lon="5.88616">
        <ele>407.74</ele>
        <time>2026-03-27T10:37:16Z</time>
      </trkpt>
      <trkpt lat="43.36594" lon="5.88602">
        <ele>407.74</ele>
        <time>2026-03-27T10:37:30Z</time>
      </trkpt>
      <trkpt lat="43.36595" lon="5.88589">
        <ele>408.7</ele>
        <time>2026-03-27T10:37:41Z</time>
      </trkpt>
      <trkpt lat="43.36598" lon="5.88574">
        <ele>409.66</ele>
        <time>2026-03-27T10:37:53Z</time>
      </trkpt>
      <trkpt lat="43.36601" lon="5.88572">
        <ele>410.14</ele>
        <time>2026-03-27T10:38:09Z</time>
      </trkpt>
      <trkpt lat="43.36605" lon="5.8856">
        <ele>409.18</ele>
        <time>2026-03-27T10:38:26Z</time>
      </trkpt>
      <trkpt lat="43.36609" lon="5.8855">
        <ele>409.18</ele>
        <time>2026-03-27T10:38:43Z</time>
      </trkpt>
      <trkpt lat="43.36612" lon="5.88537">
        <ele>410.14</ele>
        <time>2026-03-27T10:38:55Z</time>
      </trkpt>
      <trkpt lat="43.36616" lon="5.88523">
        <ele>412.54</ele>
        <time>2026-03-27T10:39:10Z</time>
      </trkpt>
      <trkpt lat="43.36619" lon="5.88521">
        <ele>413.02</ele>
        <time>2026-03-27T10:39:13Z</time>
      </trkpt>
      <trkpt lat="43.36627" lon="5.8851">
        <ele>413.98</ele>
        <time>2026-03-27T10:39:26Z</time>
      </trkpt>
      <trkpt lat="43.36633" lon="5.88499">
        <ele>413.98</ele>
        <time>2026-03-27T10:39:37Z</time>
      </trkpt>
      <trkpt lat="43.36643" lon="5.88491">
        <ele>413.98</ele>
        <time>2026-03-27T10:39:49Z</time>
      </trkpt>
      <trkpt lat="43.36647" lon="5.88487">
        <ele>413.98</ele>
        <time>2026-03-27T10:39:55Z</time>
      </trkpt>
      <trkpt lat="43.3665" lon="5.88485">
        <ele>413.5</ele>
        <time>2026-03-27T10:39:59Z</time>
      </trkpt>
      <trkpt lat="43.36653" lon="5.88483">
        <ele>413.5</ele>
        <time>2026-03-27T10:40:02Z</time>
      </trkpt>
      <trkpt lat="43.3666" lon="5.88474">
        <ele>413.02</ele>
        <time>2026-03-27T10:40:13Z</time>
      </trkpt>
      <trkpt lat="43.3666" lon="5.88473">
        <ele>412.54</ele>
        <time>2026-03-27T10:40:14Z</time>
      </trkpt>
      <trkpt lat="43.36662" lon="5.8847">
        <ele>412.54</ele>
        <time>2026-03-27T10:40:17Z</time>
      </trkpt>
      <trkpt lat="43.36665" lon="5.88466">
        <ele>412.06</ele>
        <time>2026-03-27T10:40:21Z</time>
      </trkpt>
      <trkpt lat="43.36673" lon="5.88458">
        <ele>413.02</ele>
        <time>2026-03-27T10:40:32Z</time>
      </trkpt>
      <trkpt lat="43.36679" lon="5.88446">
        <ele>413.5</ele>
        <time>2026-03-27T10:40:44Z</time>
      </trkpt>
      <trkpt lat="43.36679" lon="5.88444">
        <ele>413.5</ele>
        <time>2026-03-27T10:40:46Z</time>
      </trkpt>
      <trkpt lat="43.36686" lon="5.88431">
        <ele>413.98</ele>
        <time>2026-03-27T10:40:58Z</time>
      </trkpt>
      <trkpt lat="43.36692" lon="5.88421">
        <ele>413.5</ele>
        <time>2026-03-27T10:41:09Z</time>
      </trkpt>
      <trkpt lat="43.36698" lon="5.88411">
        <ele>413.5</ele>
        <time>2026-03-27T10:41:20Z</time>
      </trkpt>
      <trkpt lat="43.36699" lon="5.8841">
        <ele>413.5</ele>
        <time>2026-03-27T10:41:21Z</time>
      </trkpt>
      <trkpt lat="43.36703" lon="5.88407">
        <ele>412.54</ele>
        <time>2026-03-27T10:41:26Z</time>
      </trkpt>
      <trkpt lat="43.36712" lon="5.88397">
        <ele>411.58</ele>
        <time>2026-03-27T10:41:38Z</time>
      </trkpt>
      <trkpt lat="43.36716" lon="5.88398">
        <ele>413.98</ele>
        <time>2026-03-27T10:41:50Z</time>
      </trkpt>
      <trkpt lat="43.36724" lon="5.88399">
        <ele>413.98</ele>
        <time>2026-03-27T10:42:00Z</time>
      </trkpt>
      <trkpt lat="43.36732" lon="5.88407">
        <ele>413.02</ele>
        <time>2026-03-27T10:42:12Z</time>
      </trkpt>
      <trkpt lat="43.36734" lon="5.88407">
        <ele>412.06</ele>
        <time>2026-03-27T10:42:15Z</time>
      </trkpt>
      <trkpt lat="43.3674" lon="5.88402">
        <ele>411.1</ele>
        <time>2026-03-27T10:42:25Z</time>
      </trkpt>
      <trkpt lat="43.36738" lon="5.8839">
        <ele>409.18</ele>
        <time>2026-03-27T10:42:36Z</time>
      </trkpt>
      <trkpt lat="43.36737" lon="5.88376">
        <ele>407.26</ele>
        <time>2026-03-27T10:42:47Z</time>
      </trkpt>
      <trkpt lat="43.36736" lon="5.88375">
        <ele>407.26</ele>
        <time>2026-03-27T10:42:48Z</time>
      </trkpt>
      <trkpt lat="43.36735" lon="5.8837">
        <ele>406.77</ele>
        <time>2026-03-27T10:42:52Z</time>
      </trkpt>
      <trkpt lat="43.36737" lon="5.88358">
        <ele>406.29</ele>
        <time>2026-03-27T10:43:01Z</time>
      </trkpt>
      <trkpt lat="43.36738" lon="5.88354">
        <ele>406.77</ele>
        <time>2026-03-27T10:43:04Z</time>
      </trkpt>
      <trkpt lat="43.36744" lon="5.88337">
        <ele>407.74</ele>
        <time>2026-03-27T10:43:17Z</time>
      </trkpt>
      <trkpt lat="43.36754" lon="5.88336">
        <ele>407.26</ele>
        <time>2026-03-27T10:43:30Z</time>
      </trkpt>
      <trkpt lat="43.36756" lon="5.8834">
        <ele>406.77</ele>
        <time>2026-03-27T10:43:46Z</time>
      </trkpt>
      <trkpt lat="43.36756" lon="5.88338">
        <ele>405.81</ele>
        <time>2026-03-27T10:44:06Z</time>
      </trkpt>
      <trkpt lat="43.36756" lon="5.88336">
        <ele>406.29</ele>
        <time>2026-03-27T10:44:35Z</time>
      </trkpt>
      <trkpt lat="43.36755" lon="5.88338">
        <ele>407.26</ele>
        <time>2026-03-27T10:44:51Z</time>
      </trkpt>
      <trkpt lat="43.36756" lon="5.88339">
        <ele>409.18</ele>
        <time>2026-03-27T10:45:20Z</time>
      </trkpt>
      <trkpt lat="43.36759" lon="5.88334">
        <ele>407.74</ele>
        <time>2026-03-27T10:45:39Z</time>
      </trkpt>
      <trkpt lat="43.3676" lon="5.88333">
        <ele>406.77</ele>
        <time>2026-03-27T10:45:54Z</time>
      </trkpt>
      <trkpt lat="43.36761" lon="5.88335">
        <ele>406.29</ele>
        <time>2026-03-27T10:46:07Z</time>
      </trkpt>
      <trkpt lat="43.36764" lon="5.88336">
        <ele>404.37</ele>
        <time>2026-03-27T10:46:27Z</time>
      </trkpt>
      <trkpt lat="43.36768" lon="5.88336">
        <ele>405.33</ele>
        <time>2026-03-27T10:46:33Z</time>
      </trkpt>
      <trkpt lat="43.36774" lon="5.88329">
        <ele>407.74</ele>
        <time>2026-03-27T10:46:44Z</time>
      </trkpt>
      <trkpt lat="43.36774" lon="5.88327">
        <ele>408.7</ele>
        <time>2026-03-27T10:46:58Z</time>
      </trkpt>
      <trkpt lat="43.36768" lon="5.88324">
        <ele>408.22</ele>
        <time>2026-03-27T10:47:16Z</time>
      </trkpt>
      <trkpt lat="43.36764" lon="5.88318">
        <ele>408.22</ele>
        <time>2026-03-27T10:47:27Z</time>
      </trkpt>
      <trkpt lat="43.36762" lon="5.88317">
        <ele>409.18</ele>
        <time>2026-03-27T10:47:40Z</time>
      </trkpt>
      <trkpt lat="43.36759" lon="5.88312">
        <ele>409.66</ele>
        <time>2026-03-27T10:47:55Z</time>
      </trkpt>
      <trkpt lat="43.36758" lon="5.88312">
        <ele>407.74</ele>
        <time>2026-03-27T10:48:10Z</time>
      </trkpt>
      <trkpt lat="43.36753" lon="5.88303">
        <ele>407.74</ele>
        <time>2026-03-27T10:48:26Z</time>
      </trkpt>
      <trkpt lat="43.36751" lon="5.88298">
        <ele>406.77</ele>
        <time>2026-03-27T10:48:42Z</time>
      </trkpt>
      <trkpt lat="43.36752" lon="5.88294">
        <ele>408.22</ele>
        <time>2026-03-27T10:49:04Z</time>
      </trkpt>
      <trkpt lat="43.36755" lon="5.88297">
        <ele>406.77</ele>
        <time>2026-03-27T10:49:13Z</time>
      </trkpt>
      <trkpt lat="43.3676" lon="5.88304">
        <ele>406.77</ele>
        <time>2026-03-27T10:49:24Z</time>
      </trkpt>
      <trkpt lat="43.36763" lon="5.88314">
        <ele>406.29</ele>
        <time>2026-03-27T10:49:35Z</time>
      </trkpt>
      <trkpt lat="43.36757" lon="5.88312">
        <ele>404.37</ele>
        <time>2026-03-27T10:49:45Z</time>
      </trkpt>
      <trkpt lat="43.36756" lon="5.8831">
        <ele>405.33</ele>
        <time>2026-03-27T10:50:00Z</time>
      </trkpt>
      <trkpt lat="43.36755" lon="5.8831">
        <ele>405.33</ele>
        <time>2026-03-27T10:50:24Z</time>
      </trkpt>
      <trkpt lat="43.36757" lon="5.88311">
        <ele>404.85</ele>
        <time>2026-03-27T10:50:41Z</time>
      </trkpt>
      <trkpt lat="43.36758" lon="5.88313">
        <ele>404.85</ele>
        <time>2026-03-27T10:50:44Z</time>
      </trkpt>
      <trkpt lat="43.36759" lon="5.88308">
        <ele>405.81</ele>
        <time>2026-03-27T10:50:55Z</time>
      </trkpt>
      <trkpt lat="43.36757" lon="5.88307">
        <ele>405.81</ele>
        <time>2026-03-27T10:50:58Z</time>
      </trkpt>
      <trkpt lat="43.36752" lon="5.88299">
        <ele>406.29</ele>
        <time>2026-03-27T10:51:11Z</time>
      </trkpt>
      <trkpt lat="43.3675" lon="5.88294">
        <ele>407.26</ele>
        <time>2026-03-27T10:51:25Z</time>
      </trkpt>
      <trkpt lat="43.36748" lon="5.88283">
        <ele>407.74</ele>
        <time>2026-03-27T10:51:37Z</time>
      </trkpt>
      <trkpt lat="43.36744" lon="5.88272">
        <ele>408.22</ele>
        <time>2026-03-27T10:51:48Z</time>
      </trkpt>
      <trkpt lat="43.36737" lon="5.88261">
        <ele>407.26</ele>
        <time>2026-03-27T10:52:01Z</time>
      </trkpt>
      <trkpt lat="43.36732" lon="5.88247">
        <ele>405.81</ele>
        <time>2026-03-27T10:52:13Z</time>
      </trkpt>
      <trkpt lat="43.36726" lon="5.88234">
        <ele>406.77</ele>
        <time>2026-03-27T10:52:25Z</time>
      </trkpt>
      <trkpt lat="43.36721" lon="5.88223">
        <ele>408.22</ele>
        <time>2026-03-27T10:52:36Z</time>
      </trkpt>
      <trkpt lat="43.36714" lon="5.8821">
        <ele>408.7</ele>
        <time>2026-03-27T10:52:48Z</time>
      </trkpt>
      <trkpt lat="43.36709" lon="5.88202">
        <ele>409.18</ele>
        <time>2026-03-27T10:53:00Z</time>
      </trkpt>
      <trkpt lat="43.36705" lon="5.88189">
        <ele>407.26</ele>
        <time>2026-03-27T10:53:11Z</time>
      </trkpt>
      <trkpt lat="43.36705" lon="5.88178">
        <ele>407.74</ele>
        <time>2026-03-27T10:53:25Z</time>
      </trkpt>
      <trkpt lat="43.36703" lon="5.88168">
        <ele>407.74</ele>
        <time>2026-03-27T10:53:40Z</time>
      </trkpt>
      <trkpt lat="43.36702" lon="5.88164">
        <ele>407.26</ele>
        <time>2026-03-27T10:53:45Z</time>
      </trkpt>
      <trkpt lat="43.36701" lon="5.88158">
        <ele>407.74</ele>
        <time>2026-03-27T10:53:50Z</time>
      </trkpt>
      <trkpt lat="43.36698" lon="5.88151">
        <ele>407.74</ele>
        <time>2026-03-27T10:53:57Z</time>
      </trkpt>
      <trkpt lat="43.36693" lon="5.88144">
        <ele>406.77</ele>
        <time>2026-03-27T10:54:05Z</time>
      </trkpt>
      <trkpt lat="43.36689" lon="5.88129">
        <ele>407.26</ele>
        <time>2026-03-27T10:54:17Z</time>
      </trkpt>
      <trkpt lat="43.36683" lon="5.88119">
        <ele>408.7</ele>
        <time>2026-03-27T10:54:27Z</time>
      </trkpt>
      <trkpt lat="43.36677" lon="5.88108">
        <ele>408.22</ele>
        <time>2026-03-27T10:54:39Z</time>
      </trkpt>
      <trkpt lat="43.36674" lon="5.88094">
        <ele>409.18</ele>
        <time>2026-03-27T10:54:51Z</time>
      </trkpt>
      <trkpt lat="43.3667" lon="5.88082">
        <ele>409.66</ele>
        <time>2026-03-27T10:55:03Z</time>
      </trkpt>
      <trkpt lat="43.36663" lon="5.88068">
        <ele>408.7</ele>
        <time>2026-03-27T10:55:16Z</time>
      </trkpt>
      <trkpt lat="43.36662" lon="5.88066">
        <ele>409.18</ele>
        <time>2026-03-27T10:55:18Z</time>
      </trkpt>
      <trkpt lat="43.36659" lon="5.8806">
        <ele>409.18</ele>
        <time>2026-03-27T10:55:24Z</time>
      </trkpt>
      <trkpt lat="43.36654" lon="5.88042">
        <ele>410.62</ele>
        <time>2026-03-27T10:55:38Z</time>
      </trkpt>
      <trkpt lat="43.36649" lon="5.88032">
        <ele>413.02</ele>
        <time>2026-03-27T10:55:50Z</time>
      </trkpt>
      <trkpt lat="43.36645" lon="5.88017">
        <ele>410.62</ele>
        <time>2026-03-27T10:56:02Z</time>
      </trkpt>
      <trkpt lat="43.3664" lon="5.88003">
        <ele>408.7</ele>
        <time>2026-03-27T10:56:14Z</time>
      </trkpt>
      <trkpt lat="43.36638" lon="5.87987">
        <ele>407.74</ele>
        <time>2026-03-27T10:56:25Z</time>
      </trkpt>
      <trkpt lat="43.36635" lon="5.87977">
        <ele>408.22</ele>
        <time>2026-03-27T10:56:34Z</time>
      </trkpt>
      <trkpt lat="43.36632" lon="5.87962">
        <ele>407.26</ele>
        <time>2026-03-27T10:56:46Z</time>
      </trkpt>
      <trkpt lat="43.3663" lon="5.87952">
        <ele>406.29</ele>
        <time>2026-03-27T10:57:03Z</time>
      </trkpt>
      <trkpt lat="43.36627" lon="5.87943">
        <ele>405.33</ele>
        <time>2026-03-27T10:57:11Z</time>
      </trkpt>
      <trkpt lat="43.36631" lon="5.87924">
        <ele>407.26</ele>
        <time>2026-03-27T10:57:24Z</time>
      </trkpt>
      <trkpt lat="43.36632" lon="5.87917">
        <ele>407.74</ele>
        <time>2026-03-27T10:57:30Z</time>
      </trkpt>
      <trkpt lat="43.36629" lon="5.87903">
        <ele>407.26</ele>
        <time>2026-03-27T10:57:42Z</time>
      </trkpt>
      <trkpt lat="43.36627" lon="5.87896">
        <ele>408.7</ele>
        <time>2026-03-27T10:57:49Z</time>
      </trkpt>
      <trkpt lat="43.36621" lon="5.87883">
        <ele>409.66</ele>
        <time>2026-03-27T10:58:01Z</time>
      </trkpt>
      <trkpt lat="43.36618" lon="5.87871">
        <ele>410.14</ele>
        <time>2026-03-27T10:58:10Z</time>
      </trkpt>
      <trkpt lat="43.36616" lon="5.87856">
        <ele>409.66</ele>
        <time>2026-03-27T10:58:21Z</time>
      </trkpt>
      <trkpt lat="43.36616" lon="5.87841">
        <ele>409.66</ele>
        <time>2026-03-27T10:58:33Z</time>
      </trkpt>
      <trkpt lat="43.36614" lon="5.87828">
        <ele>408.7</ele>
        <time>2026-03-27T10:58:43Z</time>
      </trkpt>
      <trkpt lat="43.36612" lon="5.87814">
        <ele>407.26</ele>
        <time>2026-03-27T10:58:54Z</time>
      </trkpt>
      <trkpt lat="43.3661" lon="5.87801">
        <ele>407.26</ele>
        <time>2026-03-27T10:59:04Z</time>
      </trkpt>
      <trkpt lat="43.36608" lon="5.87794">
        <ele>408.7</ele>
        <time>2026-03-27T10:59:15Z</time>
      </trkpt>
      <trkpt lat="43.36608" lon="5.87794">
        <ele>412.54</ele>
        <time>2026-03-27T10:59:34Z</time>
      </trkpt>
      <trkpt lat="43.36609" lon="5.87785">
        <ele>413.98</ele>
        <time>2026-03-27T10:59:49Z</time>
      </trkpt>
      <trkpt lat="43.36611" lon="5.87781">
        <ele>413.5</ele>
        <time>2026-03-27T10:59:54Z</time>
      </trkpt>
      <trkpt lat="43.36618" lon="5.87768">
        <ele>413.02</ele>
        <time>2026-03-27T11:00:07Z</time>
      </trkpt>
      <trkpt lat="43.36621" lon="5.87755">
        <ele>411.58</ele>
        <time>2026-03-27T11:00:18Z</time>
      </trkpt>
      <trkpt lat="43.36623" lon="5.87741">
        <ele>409.66</ele>
        <time>2026-03-27T11:00:30Z</time>
      </trkpt>
      <trkpt lat="43.36625" lon="5.87734">
        <ele>409.18</ele>
        <time>2026-03-27T11:00:37Z</time>
      </trkpt>
      <trkpt lat="43.36626" lon="5.87721">
        <ele>411.1</ele>
        <time>2026-03-27T11:00:48Z</time>
      </trkpt>
      <trkpt lat="43.36627" lon="5.87713">
        <ele>411.58</ele>
        <time>2026-03-27T11:00:55Z</time>
      </trkpt>
      <trkpt lat="43.36628" lon="5.8771">
        <ele>411.1</ele>
        <time>2026-03-27T11:00:58Z</time>
      </trkpt>
      <trkpt lat="43.36633" lon="5.87697">
        <ele>411.58</ele>
        <time>2026-03-27T11:01:10Z</time>
      </trkpt>
      <trkpt lat="43.36637" lon="5.87684">
        <ele>412.06</ele>
        <time>2026-03-27T11:01:22Z</time>
      </trkpt>
      <trkpt lat="43.36638" lon="5.87679">
        <ele>412.06</ele>
        <time>2026-03-27T11:01:28Z</time>
      </trkpt>
      <trkpt lat="43.36636" lon="5.87663">
        <ele>412.06</ele>
        <time>2026-03-27T11:01:40Z</time>
      </trkpt>
      <trkpt lat="43.36634" lon="5.87651">
        <ele>412.54</ele>
        <time>2026-03-27T11:01:52Z</time>
      </trkpt>
      <trkpt lat="43.36632" lon="5.87639">
        <ele>412.54</ele>
        <time>2026-03-27T11:02:03Z</time>
      </trkpt>
      <trkpt lat="43.3663" lon="5.87625">
        <ele>411.58</ele>
        <time>2026-03-27T11:02:15Z</time>
      </trkpt>
      <trkpt lat="43.36628" lon="5.8761">
        <ele>410.62</ele>
        <time>2026-03-27T11:02:27Z</time>
      </trkpt>
      <trkpt lat="43.36628" lon="5.87596">
        <ele>410.62</ele>
        <time>2026-03-27T11:02:37Z</time>
      </trkpt>
      <trkpt lat="43.36629" lon="5.87584">
        <ele>410.14</ele>
        <time>2026-03-27T11:02:47Z</time>
      </trkpt>
      <trkpt lat="43.36629" lon="5.87571">
        <ele>409.66</ele>
        <time>2026-03-27T11:02:57Z</time>
      </trkpt>
      <trkpt lat="43.36627" lon="5.87558">
        <ele>412.06</ele>
        <time>2026-03-27T11:03:07Z</time>
      </trkpt>
      <trkpt lat="43.36626" lon="5.87557">
        <ele>412.06</ele>
        <time>2026-03-27T11:03:08Z</time>
      </trkpt>
      <trkpt lat="43.36625" lon="5.87554">
        <ele>412.54</ele>
        <time>2026-03-27T11:03:12Z</time>
      </trkpt>
      <trkpt lat="43.36623" lon="5.87544">
        <ele>412.54</ele>
        <time>2026-03-27T11:03:20Z</time>
      </trkpt>
      <trkpt lat="43.36621" lon="5.87537">
        <ele>413.02</ele>
        <time>2026-03-27T11:03:27Z</time>
      </trkpt>
      <trkpt lat="43.3662" lon="5.87522">
        <ele>412.06</ele>
        <time>2026-03-27T11:03:38Z</time>
      </trkpt>
      <trkpt lat="43.36619" lon="5.87509">
        <ele>412.06</ele>
        <time>2026-03-27T11:03:49Z</time>
      </trkpt>
      <trkpt lat="43.3662" lon="5.87496">
        <ele>411.58</ele>
        <time>2026-03-27T11:03:58Z</time>
      </trkpt>
      <trkpt lat="43.36617" lon="5.87488">
        <ele>412.54</ele>
        <time>2026-03-27T11:04:13Z</time>
      </trkpt>
      <trkpt lat="43.36614" lon="5.87482">
        <ele>413.5</ele>
        <time>2026-03-27T11:04:33Z</time>
      </trkpt>
      <trkpt lat="43.36611" lon="5.87473">
        <ele>413.98</ele>
        <time>2026-03-27T11:04:43Z</time>
      </trkpt>
      <trkpt lat="43.36611" lon="5.8747">
        <ele>413.98</ele>
        <time>2026-03-27T11:04:46Z</time>
      </trkpt>
      <trkpt lat="43.3661" lon="5.87454">
        <ele>413.5</ele>
        <time>2026-03-27T11:04:58Z</time>
      </trkpt>
      <trkpt lat="43.3661" lon="5.87443">
        <ele>414.47</ele>
        <time>2026-03-27T11:05:08Z</time>
      </trkpt>
      <trkpt lat="43.36611" lon="5.87436">
        <ele>413.5</ele>
        <time>2026-03-27T11:05:14Z</time>
      </trkpt>
      <trkpt lat="43.36605" lon="5.87426">
        <ele>413.02</ele>
        <time>2026-03-27T11:05:27Z</time>
      </trkpt>
      <trkpt lat="43.36597" lon="5.87426">
        <ele>413.5</ele>
        <time>2026-03-27T11:05:39Z</time>
      </trkpt>
      <trkpt lat="43.36588" lon="5.87422">
        <ele>412.54</ele>
        <time>2026-03-27T11:05:55Z</time>
      </trkpt>
      <trkpt lat="43.3658" lon="5.87419">
        <ele>412.06</ele>
        <time>2026-03-27T11:06:10Z</time>
      </trkpt>
      <trkpt lat="43.36582" lon="5.8742">
        <ele>412.06</ele>
        <time>2026-03-27T11:06:23Z</time>
      </trkpt>
      <trkpt lat="43.36586" lon="5.87419">
        <ele>414.47</ele>
        <time>2026-03-27T11:06:41Z</time>
      </trkpt>
      <trkpt lat="43.36587" lon="5.87421">
        <ele>413.02</ele>
        <time>2026-03-27T11:07:03Z</time>
      </trkpt>
      <trkpt lat="43.36589" lon="5.8742">
        <ele>413.98</ele>
        <time>2026-03-27T11:07:27Z</time>
      </trkpt>
      <trkpt lat="43.36593" lon="5.87424">
        <ele>413.5</ele>
        <time>2026-03-27T11:07:38Z</time>
      </trkpt>
      <trkpt lat="43.36598" lon="5.87426">
        <ele>413.5</ele>
        <time>2026-03-27T11:07:51Z</time>
      </trkpt>
      <trkpt lat="43.36601" lon="5.87423">
        <ele>412.54</ele>
        <time>2026-03-27T11:07:59Z</time>
      </trkpt>
      <trkpt lat="43.366" lon="5.87415">
        <ele>413.5</ele>
        <time>2026-03-27T11:08:06Z</time>
      </trkpt>
      <trkpt lat="43.366" lon="5.87403">
        <ele>413.02</ele>
        <time>2026-03-27T11:08:17Z</time>
      </trkpt>
      <trkpt lat="43.36598" lon="5.87401">
        <ele>413.5</ele>
        <time>2026-03-27T11:08:20Z</time>
      </trkpt>
      <trkpt lat="43.36593" lon="5.87393">
        <ele>413.98</ele>
        <time>2026-03-27T11:08:32Z</time>
      </trkpt>
      <trkpt lat="43.36588" lon="5.87386">
        <ele>415.43</ele>
        <time>2026-03-27T11:08:42Z</time>
      </trkpt>
      <trkpt lat="43.36582" lon="5.87379">
        <ele>414.47</ele>
        <time>2026-03-27T11:08:53Z</time>
      </trkpt>
      <trkpt lat="43.36577" lon="5.8738">
        <ele>413.5</ele>
        <time>2026-03-27T11:09:04Z</time>
      </trkpt>
      <trkpt lat="43.36577" lon="5.8738">
        <ele>413.5</ele>
        <time>2026-03-27T11:09:05Z</time>
      </trkpt>
      <trkpt lat="43.36576" lon="5.87383">
        <ele>413.5</ele>
        <time>2026-03-27T11:09:08Z</time>
      </trkpt>
      <trkpt lat="43.36575" lon="5.87384">
        <ele>413.98</ele>
        <time>2026-03-27T11:09:11Z</time>
      </trkpt>
      <trkpt lat="43.36571" lon="5.87389">
        <ele>413.5</ele>
        <time>2026-03-27T11:09:23Z</time>
      </trkpt>
      <trkpt lat="43.36568" lon="5.8739">
        <ele>413.98</ele>
        <time>2026-03-27T11:09:43Z</time>
      </trkpt>
      <trkpt lat="43.36566" lon="5.87388">
        <ele>414.47</ele>
        <time>2026-03-27T11:10:01Z</time>
      </trkpt>
      <trkpt lat="43.36566" lon="5.87389">
        <ele>416.39</ele>
        <time>2026-03-27T11:10:20Z</time>
      </trkpt>
      <trkpt lat="43.36565" lon="5.87386">
        <ele>413.98</ele>
        <time>2026-03-27T11:10:45Z</time>
      </trkpt>
      <trkpt lat="43.36567" lon="5.87387">
        <ele>414.95</ele>
        <time>2026-03-27T11:11:07Z</time>
      </trkpt>
      <trkpt lat="43.3657" lon="5.87386">
        <ele>412.54</ele>
        <time>2026-03-27T11:11:23Z</time>
      </trkpt>
      <trkpt lat="43.36574" lon="5.87384">
        <ele>413.02</ele>
        <time>2026-03-27T11:11:35Z</time>
      </trkpt>
      <trkpt lat="43.36576" lon="5.87381">
        <ele>412.06</ele>
        <time>2026-03-27T11:11:40Z</time>
      </trkpt>
      <trkpt lat="43.36577" lon="5.87375">
        <ele>411.1</ele>
        <time>2026-03-27T11:11:49Z</time>
      </trkpt>
      <trkpt lat="43.36574" lon="5.87368">
        <ele>411.1</ele>
        <time>2026-03-27T11:11:58Z</time>
      </trkpt>
      <trkpt lat="43.36567" lon="5.87368">
        <ele>412.06</ele>
        <time>2026-03-27T11:12:12Z</time>
      </trkpt>
      <trkpt lat="43.36564" lon="5.87369">
        <ele>413.98</ele>
        <time>2026-03-27T11:12:30Z</time>
      </trkpt>
      <trkpt lat="43.36563" lon="5.87369">
        <ele>414.95</ele>
        <time>2026-03-27T11:12:49Z</time>
      </trkpt>
      <trkpt lat="43.36566" lon="5.87372">
        <ele>414.95</ele>
        <time>2026-03-27T11:13:02Z</time>
      </trkpt>
      <trkpt lat="43.36567" lon="5.87374">
        <ele>414.47</ele>
        <time>2026-03-27T11:13:20Z</time>
      </trkpt>
      <trkpt lat="43.36564" lon="5.87376">
        <ele>415.43</ele>
        <time>2026-03-27T11:13:46Z</time>
      </trkpt>
      <trkpt lat="43.36563" lon="5.87376">
        <ele>416.39</ele>
        <time>2026-03-27T11:14:12Z</time>
      </trkpt>
      <trkpt lat="43.36561" lon="5.87377">
        <ele>418.31</ele>
        <time>2026-03-27T11:14:41Z</time>
      </trkpt>
      <trkpt lat="43.36561" lon="5.87377">
        <ele>419.75</ele>
        <time>2026-03-27T11:15:13Z</time>
      </trkpt>
      <trkpt lat="43.36559" lon="5.87382">
        <ele>423.6</ele>
        <time>2026-03-27T11:15:52Z</time>
      </trkpt>
      <trkpt lat="43.36562" lon="5.87375">
        <ele>423.12</ele>
        <time>2026-03-27T11:16:27Z</time>
      </trkpt>
      <trkpt lat="43.36563" lon="5.87375">
        <ele>415.91</ele>
        <time>2026-03-27T11:16:59Z</time>
      </trkpt>
      <trkpt lat="43.3656" lon="5.87379">
        <ele>418.31</ele>
        <time>2026-03-27T11:17:37Z</time>
      </trkpt>
      <trkpt lat="43.3656" lon="5.87375">
        <ele>423.6</ele>
        <time>2026-03-27T11:18:11Z</time>
      </trkpt>
      <trkpt lat="43.36562" lon="5.87375">
        <ele>423.6</ele>
        <time>2026-03-27T11:18:56Z</time>
      </trkpt>
      <trkpt lat="43.36565" lon="5.87376">
        <ele>423.12</ele>
        <time>2026-03-27T11:19:33Z</time>
      </trkpt>
      <trkpt lat="43.36561" lon="5.87373">
        <ele>421.19</ele>
        <time>2026-03-27T11:20:00Z</time>
      </trkpt>
      <trkpt lat="43.36563" lon="5.87373">
        <ele>419.75</ele>
        <time>2026-03-27T11:20:27Z</time>
      </trkpt>
      <trkpt lat="43.36563" lon="5.87374">
        <ele>418.79</ele>
        <time>2026-03-27T11:21:12Z</time>
      </trkpt>
      <trkpt lat="43.36567" lon="5.87376">
        <ele>413.98</ele>
        <time>2026-03-27T11:21:52Z</time>
      </trkpt>
      <trkpt lat="43.36564" lon="5.8737">
        <ele>417.35</ele>
        <time>2026-03-27T11:22:29Z</time>
      </trkpt>
      <trkpt lat="43.36566" lon="5.87374">
        <ele>418.31</ele>
        <time>2026-03-27T11:23:10Z</time>
      </trkpt>
      <trkpt lat="43.36568" lon="5.87373">
        <ele>410.14</ele>
        <time>2026-03-27T11:23:56Z</time>
      </trkpt>
      <trkpt lat="43.36565" lon="5.87373">
        <ele>411.58</ele>
        <time>2026-03-27T11:24:41Z</time>
      </trkpt>
      <trkpt lat="43.36562" lon="5.87375">
        <ele>414.95</ele>
        <time>2026-03-27T11:25:27Z</time>
      </trkpt>
      <trkpt lat="43.36561" lon="5.87379">
        <ele>420.23</ele>
        <time>2026-03-27T11:26:13Z</time>
      </trkpt>
      <trkpt lat="43.36563" lon="5.87377">
        <ele>421.68</ele>
        <time>2026-03-27T11:26:57Z</time>
      </trkpt>
      <trkpt lat="43.36562" lon="5.87377">
        <ele>419.27</ele>
        <time>2026-03-27T11:27:41Z</time>
      </trkpt>
      <trkpt lat="43.36558" lon="5.87376">
        <ele>421.68</ele>
        <time>2026-03-27T11:28:22Z</time>
      </trkpt>
      <trkpt lat="43.36562" lon="5.87376">
        <ele>415.91</ele>
        <time>2026-03-27T11:29:06Z</time>
      </trkpt>
      <trkpt lat="43.36562" lon="5.87379">
        <ele>412.54</ele>
        <time>2026-03-27T11:29:43Z</time>
      </trkpt>
      <trkpt lat="43.36562" lon="5.87375">
        <ele>416.39</ele>
        <time>2026-03-27T11:30:24Z</time>
      </trkpt>
      <trkpt lat="43.36562" lon="5.87373">
        <ele>420.71</ele>
        <time>2026-03-27T11:31:03Z</time>
      </trkpt>
      <trkpt lat="43.36564" lon="5.87379">
        <ele>417.83</ele>
        <time>2026-03-27T11:31:45Z</time>
      </trkpt>
      <trkpt lat="43.36562" lon="5.87374">
        <ele>417.83</ele>
        <time>2026-03-27T11:32:28Z</time>
      </trkpt>
      <trkpt lat="43.36564" lon="5.87375">
        <ele>420.71</ele>
        <time>2026-03-27T11:33:08Z</time>
      </trkpt>
      <trkpt lat="43.36565" lon="5.87374">
        <ele>420.71</ele>
        <time>2026-03-27T11:33:44Z</time>
      </trkpt>
      <trkpt lat="43.36564" lon="5.87372">
        <ele>421.19</ele>
        <time>2026-03-27T11:34:12Z</time>
      </trkpt>
      <trkpt lat="43.3656" lon="5.87372">
        <ele>423.6</ele>
        <time>2026-03-27T11:34:44Z</time>
      </trkpt>
      <trkpt lat="43.36561" lon="5.87375">
        <ele>426.48</ele>
        <time>2026-03-27T11:35:19Z</time>
      </trkpt>
      <trkpt lat="43.3656" lon="5.87374">
        <ele>426.48</ele>
        <time>2026-03-27T11:35:58Z</time>
      </trkpt>
      <trkpt lat="43.3656" lon="5.87367">
        <ele>426.48</ele>
        <time>2026-03-27T11:36:31Z</time>
      </trkpt>
      <trkpt lat="43.3656" lon="5.87375">
        <ele>421.68</ele>
        <time>2026-03-27T11:37:09Z</time>
      </trkpt>
      <trkpt lat="43.36562" lon="5.87378">
        <ele>420.71</ele>
        <time>2026-03-27T11:37:43Z</time>
      </trkpt>
      <trkpt lat="43.36561" lon="5.87375">
        <ele>419.75</ele>
        <time>2026-03-27T11:38:16Z</time>
      </trkpt>
      <trkpt lat="43.36563" lon="5.87378">
        <ele>421.68</ele>
        <time>2026-03-27T11:38:52Z</time>
      </trkpt>
      <trkpt lat="43.36565" lon="5.87373">
        <ele>419.75</ele>
        <time>2026-03-27T11:39:22Z</time>
      </trkpt>
      <trkpt lat="43.36563" lon="5.87371">
        <ele>416.39</ele>
        <time>2026-03-27T11:40:01Z</time>
      </trkpt>
      <trkpt lat="43.36564" lon="5.87379">
        <ele>419.27</ele>
        <time>2026-03-27T11:40:30Z</time>
      </trkpt>
      <trkpt lat="43.36568" lon="5.87372">
        <ele>415.91</ele>
        <time>2026-03-27T11:40:58Z</time>
      </trkpt>
      <trkpt lat="43.36575" lon="5.87379">
        <ele>417.35</ele>
        <time>2026-03-27T11:41:25Z</time>
      </trkpt>
      <trkpt lat="43.36561" lon="5.87375">
        <ele>417.83</ele>
        <time>2026-03-27T11:41:56Z</time>
      </trkpt>
      <trkpt lat="43.36564" lon="5.87375">
        <ele>421.19</ele>
        <time>2026-03-27T11:42:27Z</time>
      </trkpt>
      <trkpt lat="43.36563" lon="5.87373">
        <ele>416.87</ele>
        <time>2026-03-27T11:43:05Z</time>
      </trkpt>
      <trkpt lat="43.36565" lon="5.8738">
        <ele>418.79</ele>
        <time>2026-03-27T11:43:41Z</time>
      </trkpt>
      <trkpt lat="43.36566" lon="5.87369">
        <ele>416.87</ele>
        <time>2026-03-27T11:44:21Z</time>
      </trkpt>
      <trkpt lat="43.36564" lon="5.87374">
        <ele>421.68</ele>
        <time>2026-03-27T11:45:01Z</time>
      </trkpt>
      <trkpt lat="43.36565" lon="5.87375">
        <ele>419.27</ele>
        <time>2026-03-27T11:45:39Z</time>
      </trkpt>
      <trkpt lat="43.36562" lon="5.87371">
        <ele>415.43</ele>
        <time>2026-03-27T11:46:18Z</time>
      </trkpt>
      <trkpt lat="43.36567" lon="5.87371">
        <ele>414.47</ele>
        <time>2026-03-27T11:46:53Z</time>
      </trkpt>
      <trkpt lat="43.3657" lon="5.87375">
        <ele>412.06</ele>
        <time>2026-03-27T11:47:16Z</time>
      </trkpt>
      <trkpt lat="43.36568" lon="5.87371">
        <ele>408.22</ele>
        <time>2026-03-27T11:47:50Z</time>
      </trkpt>
      <trkpt lat="43.36567" lon="5.87375">
        <ele>412.54</ele>
        <time>2026-03-27T11:48:30Z</time>
      </trkpt>
      <trkpt lat="43.36568" lon="5.87379">
        <ele>414.95</ele>
        <time>2026-03-27T11:49:13Z</time>
      </trkpt>
      <trkpt lat="43.36563" lon="5.87378">
        <ele>419.75</ele>
        <time>2026-03-27T11:49:54Z</time>
      </trkpt>
      <trkpt lat="43.3656" lon="5.87375">
        <ele>423.12</ele>
        <time>2026-03-27T11:50:40Z</time>
      </trkpt>
      <trkpt lat="43.36567" lon="5.87378">
        <ele>415.91</ele>
        <time>2026-03-27T11:51:20Z</time>
      </trkpt>
      <trkpt lat="43.36567" lon="5.87379">
        <ele>412.54</ele>
        <time>2026-03-27T11:51:53Z</time>
      </trkpt>
      <trkpt lat="43.36567" lon="5.8738">
        <ele>412.54</ele>
        <time>2026-03-27T11:52:24Z</time>
      </trkpt>
      <trkpt lat="43.36566" lon="5.87375">
        <ele>414.47</ele>
        <time>2026-03-27T11:52:58Z</time>
      </trkpt>
      <trkpt lat="43.36564" lon="5.87376">
        <ele>417.83</ele>
        <time>2026-03-27T11:53:29Z</time>
      </trkpt>
      <trkpt lat="43.36564" lon="5.8738">
        <ele>418.79</ele>
        <time>2026-03-27T11:53:57Z</time>
      </trkpt>
      <trkpt lat="43.36562" lon="5.8738">
        <ele>420.71</ele>
        <time>2026-03-27T11:54:34Z</time>
      </trkpt>
      <trkpt lat="43.36564" lon="5.87385">
        <ele>423.12</ele>
        <time>2026-03-27T11:55:14Z</time>
      </trkpt>
      <trkpt lat="43.36564" lon="5.87383">
        <ele>419.27</ele>
        <time>2026-03-27T11:55:48Z</time>
      </trkpt>
      <trkpt lat="43.36562" lon="5.87383">
        <ele>426</ele>
        <time>2026-03-27T11:56:16Z</time>
      </trkpt>
      <trkpt lat="43.36563" lon="5.87384">
        <ele>427.44</ele>
        <time>2026-03-27T11:56:54Z</time>
      </trkpt>
      <trkpt lat="43.36564" lon="5.87385">
        <ele>427.44</ele>
        <time>2026-03-27T11:57:18Z</time>
      </trkpt>
      <trkpt lat="43.36565" lon="5.87386">
        <ele>426</ele>
        <time>2026-03-27T11:57:43Z</time>
      </trkpt>
      <trkpt lat="43.36564" lon="5.87386">
        <ele>428.4</ele>
        <time>2026-03-27T11:58:13Z</time>
      </trkpt>
      <trkpt lat="43.36566" lon="5.87383">
        <ele>423.6</ele>
        <time>2026-03-27T11:58:41Z</time>
      </trkpt>
      <trkpt lat="43.36565" lon="5.87384">
        <ele>421.68</ele>
        <time>2026-03-27T11:59:08Z</time>
      </trkpt>
      <trkpt lat="43.36567" lon="5.8738">
        <ele>424.56</ele>
        <time>2026-03-27T11:59:42Z</time>
      </trkpt>
      <trkpt lat="43.36566" lon="5.8738">
        <ele>430.33</ele>
        <time>2026-03-27T12:00:11Z</time>
      </trkpt>
      <trkpt lat="43.36565" lon="5.8738">
        <ele>432.25</ele>
        <time>2026-03-27T12:00:42Z</time>
      </trkpt>
      <trkpt lat="43.36568" lon="5.87378">
        <ele>426</ele>
        <time>2026-03-27T12:01:04Z</time>
      </trkpt>
      <trkpt lat="43.36567" lon="5.87373">
        <ele>421.19</ele>
        <time>2026-03-27T12:01:27Z</time>
      </trkpt>
      <trkpt lat="43.36565" lon="5.87369">
        <ele>421.68</ele>
        <time>2026-03-27T12:01:51Z</time>
      </trkpt>
      <trkpt lat="43.36562" lon="5.87365">
        <ele>424.56</ele>
        <time>2026-03-27T12:02:13Z</time>
      </trkpt>
      <trkpt lat="43.36563" lon="5.87368">
        <ele>422.16</ele>
        <time>2026-03-27T12:02:38Z</time>
      </trkpt>
      <trkpt lat="43.36563" lon="5.87368">
        <ele>422.16</ele>
        <time>2026-03-27T12:03:01Z</time>
      </trkpt>
      <trkpt lat="43.36563" lon="5.87372">
        <ele>419.75</ele>
        <time>2026-03-27T12:03:17Z</time>
      </trkpt>
      <trkpt lat="43.36563" lon="5.8737">
        <ele>421.19</ele>
        <time>2026-03-27T12:03:34Z</time>
      </trkpt>
      <trkpt lat="43.36566" lon="5.87367">
        <ele>419.75</ele>
        <time>2026-03-27T12:03:49Z</time>
      </trkpt>
      <trkpt lat="43.36568" lon="5.87365">
        <ele>419.75</ele>
        <time>2026-03-27T12:04:05Z</time>
      </trkpt>
      <trkpt lat="43.36574" lon="5.87358">
        <ele>419.27</ele>
        <time>2026-03-27T12:04:21Z</time>
      </trkpt>
      <trkpt lat="43.36575" lon="5.87355">
        <ele>418.79</ele>
        <time>2026-03-27T12:04:36Z</time>
      </trkpt>
      <trkpt lat="43.36571" lon="5.87346">
        <ele>419.75</ele>
        <time>2026-03-27T12:04:53Z</time>
      </trkpt>
      <trkpt lat="43.36567" lon="5.87339">
        <ele>419.75</ele>
        <time>2026-03-27T12:05:13Z</time>
      </trkpt>
      <trkpt lat="43.36564" lon="5.87327">
        <ele>421.19</ele>
        <time>2026-03-27T12:05:27Z</time>
      </trkpt>
      <trkpt lat="43.36561" lon="5.8731">
        <ele>423.12</ele>
        <time>2026-03-27T12:05:42Z</time>
      </trkpt>
      <trkpt lat="43.36558" lon="5.87292">
        <ele>424.08</ele>
        <time>2026-03-27T12:06:01Z</time>
      </trkpt>
      <trkpt lat="43.36556" lon="5.87285">
        <ele>425.04</ele>
        <time>2026-03-27T12:06:22Z</time>
      </trkpt>
      <trkpt lat="43.36554" lon="5.87284">
        <ele>424.56</ele>
        <time>2026-03-27T12:06:34Z</time>
      </trkpt>
      <trkpt lat="43.36552" lon="5.87274">
        <ele>422.64</ele>
        <time>2026-03-27T12:06:43Z</time>
      </trkpt>
      <trkpt lat="43.3655" lon="5.87273">
        <ele>422.16</ele>
        <time>2026-03-27T12:06:45Z</time>
      </trkpt>
      <trkpt lat="43.36546" lon="5.87259">
        <ele>420.71</ele>
        <time>2026-03-27T12:06:56Z</time>
      </trkpt>
      <trkpt lat="43.36544" lon="5.87252">
        <ele>421.19</ele>
        <time>2026-03-27T12:07:03Z</time>
      </trkpt>
      <trkpt lat="43.36535" lon="5.87241">
        <ele>421.68</ele>
        <time>2026-03-27T12:07:16Z</time>
      </trkpt>
      <trkpt lat="43.36531" lon="5.87237">
        <ele>423.6</ele>
        <time>2026-03-27T12:07:27Z</time>
      </trkpt>
      <trkpt lat="43.36522" lon="5.8723">
        <ele>422.16</ele>
        <time>2026-03-27T12:07:43Z</time>
      </trkpt>
      <trkpt lat="43.36514" lon="5.8722">
        <ele>421.68</ele>
        <time>2026-03-27T12:07:57Z</time>
      </trkpt>
      <trkpt lat="43.36507" lon="5.87204">
        <ele>421.68</ele>
        <time>2026-03-27T12:08:13Z</time>
      </trkpt>
      <trkpt lat="43.36501" lon="5.87192">
        <ele>422.16</ele>
        <time>2026-03-27T12:08:28Z</time>
      </trkpt>
      <trkpt lat="43.36495" lon="5.8718">
        <ele>423.6</ele>
        <time>2026-03-27T12:08:43Z</time>
      </trkpt>
      <trkpt lat="43.36486" lon="5.87166">
        <ele>424.08</ele>
        <time>2026-03-27T12:08:58Z</time>
      </trkpt>
      <trkpt lat="43.36477" lon="5.87151">
        <ele>423.6</ele>
        <time>2026-03-27T12:09:15Z</time>
      </trkpt>
      <trkpt lat="43.36463" lon="5.87135">
        <ele>425.04</ele>
        <time>2026-03-27T12:09:33Z</time>
      </trkpt>
      <trkpt lat="43.36451" lon="5.87124">
        <ele>426</ele>
        <time>2026-03-27T12:09:48Z</time>
      </trkpt>
      <trkpt lat="43.36438" lon="5.87113">
        <ele>425.52</ele>
        <time>2026-03-27T12:10:04Z</time>
      </trkpt>
      <trkpt lat="43.36437" lon="5.87112">
        <ele>425.52</ele>
        <time>2026-03-27T12:10:05Z</time>
      </trkpt>
      <trkpt lat="43.36426" lon="5.87103">
        <ele>424.56</ele>
        <time>2026-03-27T12:10:21Z</time>
      </trkpt>
      <trkpt lat="43.36416" lon="5.87091">
        <ele>426</ele>
        <time>2026-03-27T12:10:37Z</time>
      </trkpt>
      <trkpt lat="43.36413" lon="5.87088">
        <ele>426.48</ele>
        <time>2026-03-27T12:10:41Z</time>
      </trkpt>
      <trkpt lat="43.36401" lon="5.87077">
        <ele>427.44</ele>
        <time>2026-03-27T12:10:58Z</time>
      </trkpt>
      <trkpt lat="43.36393" lon="5.87066">
        <ele>428.4</ele>
        <time>2026-03-27T12:11:12Z</time>
      </trkpt>
      <trkpt lat="43.36397" lon="5.87056">
        <ele>427.92</ele>
        <time>2026-03-27T12:11:29Z</time>
      </trkpt>
      <trkpt lat="43.36413" lon="5.87042">
        <ele>426</ele>
        <time>2026-03-27T12:11:49Z</time>
      </trkpt>
      <trkpt lat="43.36421" lon="5.87031">
        <ele>425.04</ele>
        <time>2026-03-27T12:12:04Z</time>
      </trkpt>
      <trkpt lat="43.36423" lon="5.87023">
        <ele>424.56</ele>
        <time>2026-03-27T12:12:14Z</time>
      </trkpt>
      <trkpt lat="43.36427" lon="5.87012">
        <ele>426.48</ele>
        <time>2026-03-27T12:12:26Z</time>
      </trkpt>
      <trkpt lat="43.3643" lon="5.87">
        <ele>430.81</ele>
        <time>2026-03-27T12:12:40Z</time>
      </trkpt>
      <trkpt lat="43.36436" lon="5.86989">
        <ele>431.77</ele>
        <time>2026-03-27T12:12:53Z</time>
      </trkpt>
      <trkpt lat="43.36442" lon="5.86974">
        <ele>431.29</ele>
        <time>2026-03-27T12:13:07Z</time>
      </trkpt>
      <trkpt lat="43.36445" lon="5.86964">
        <ele>432.25</ele>
        <time>2026-03-27T12:13:17Z</time>
      </trkpt>
      <trkpt lat="43.36447" lon="5.8696">
        <ele>432.25</ele>
        <time>2026-03-27T12:13:21Z</time>
      </trkpt>
      <trkpt lat="43.36449" lon="5.86949">
        <ele>432.73</ele>
        <time>2026-03-27T12:13:32Z</time>
      </trkpt>
      <trkpt lat="43.36449" lon="5.86946">
        <ele>432.25</ele>
        <time>2026-03-27T12:13:35Z</time>
      </trkpt>
      <trkpt lat="43.36449" lon="5.86934">
        <ele>433.69</ele>
        <time>2026-03-27T12:13:46Z</time>
      </trkpt>
      <trkpt lat="43.36449" lon="5.8692">
        <ele>435.61</ele>
        <time>2026-03-27T12:13:59Z</time>
      </trkpt>
      <trkpt lat="43.36449" lon="5.8691">
        <ele>436.58</ele>
        <time>2026-03-27T12:14:09Z</time>
      </trkpt>
      <trkpt lat="43.36451" lon="5.86898">
        <ele>437.06</ele>
        <time>2026-03-27T12:14:22Z</time>
      </trkpt>
      <trkpt lat="43.36452" lon="5.86886">
        <ele>438.02</ele>
        <time>2026-03-27T12:14:35Z</time>
      </trkpt>
      <trkpt lat="43.36453" lon="5.86873">
        <ele>439.46</ele>
        <time>2026-03-27T12:14:49Z</time>
      </trkpt>
      <trkpt lat="43.36455" lon="5.86861">
        <ele>439.46</ele>
        <time>2026-03-27T12:15:01Z</time>
      </trkpt>
      <trkpt lat="43.36455" lon="5.86852">
        <ele>440.9</ele>
        <time>2026-03-27T12:15:13Z</time>
      </trkpt>
      <trkpt lat="43.36455" lon="5.8684">
        <ele>443.31</ele>
        <time>2026-03-27T12:15:28Z</time>
      </trkpt>
      <trkpt lat="43.36457" lon="5.86829">
        <ele>444.27</ele>
        <time>2026-03-27T12:15:43Z</time>
      </trkpt>
      <trkpt lat="43.36457" lon="5.86815">
        <ele>445.23</ele>
        <time>2026-03-27T12:15:57Z</time>
      </trkpt>
      <trkpt lat="43.36457" lon="5.86803">
        <ele>446.67</ele>
        <time>2026-03-27T12:16:10Z</time>
      </trkpt>
      <trkpt lat="43.36459" lon="5.86791">
        <ele>449.55</ele>
        <time>2026-03-27T12:16:24Z</time>
      </trkpt>
      <trkpt lat="43.36461" lon="5.86783">
        <ele>450.03</ele>
        <time>2026-03-27T12:16:37Z</time>
      </trkpt>
      <trkpt lat="43.36462" lon="5.86774">
        <ele>451</ele>
        <time>2026-03-27T12:16:49Z</time>
      </trkpt>
      <trkpt lat="43.36462" lon="5.86764">
        <ele>451.96</ele>
        <time>2026-03-27T12:17:00Z</time>
      </trkpt>
      <trkpt lat="43.36459" lon="5.86758">
        <ele>453.88</ele>
        <time>2026-03-27T12:17:14Z</time>
      </trkpt>
      <trkpt lat="43.36459" lon="5.86755">
        <ele>452.92</ele>
        <time>2026-03-27T12:17:46Z</time>
      </trkpt>
      <trkpt lat="43.36457" lon="5.86747">
        <ele>452.92</ele>
        <time>2026-03-27T12:18:01Z</time>
      </trkpt>
      <trkpt lat="43.36456" lon="5.86737">
        <ele>453.4</ele>
        <time>2026-03-27T12:18:14Z</time>
      </trkpt>
      <trkpt lat="43.36458" lon="5.86729">
        <ele>456.76</ele>
        <time>2026-03-27T12:18:28Z</time>
      </trkpt>
      <trkpt lat="43.36464" lon="5.86723">
        <ele>458.69</ele>
        <time>2026-03-27T12:18:40Z</time>
      </trkpt>
      <trkpt lat="43.36466" lon="5.8672">
        <ele>459.17</ele>
        <time>2026-03-27T12:18:45Z</time>
      </trkpt>
      <trkpt lat="43.36474" lon="5.86718">
        <ele>458.21</ele>
        <time>2026-03-27T12:18:59Z</time>
      </trkpt>
      <trkpt lat="43.3648" lon="5.86716">
        <ele>457.24</ele>
        <time>2026-03-27T12:19:11Z</time>
      </trkpt>
      <trkpt lat="43.36487" lon="5.86716">
        <ele>456.28</ele>
        <time>2026-03-27T12:19:23Z</time>
      </trkpt>
      <trkpt lat="43.36494" lon="5.86715">
        <ele>455.32</ele>
        <time>2026-03-27T12:19:34Z</time>
      </trkpt>
      <trkpt lat="43.365" lon="5.86713">
        <ele>454.84</ele>
        <time>2026-03-27T12:19:46Z</time>
      </trkpt>
      <trkpt lat="43.36505" lon="5.86711">
        <ele>453.4</ele>
        <time>2026-03-27T12:19:56Z</time>
      </trkpt>
      <trkpt lat="43.36512" lon="5.86706">
        <ele>452.92</ele>
        <time>2026-03-27T12:20:07Z</time>
      </trkpt>
      <trkpt lat="43.36517" lon="5.86701">
        <ele>453.88</ele>
        <time>2026-03-27T12:20:18Z</time>
      </trkpt>
      <trkpt lat="43.36522" lon="5.86703">
        <ele>455.32</ele>
        <time>2026-03-27T12:20:36Z</time>
      </trkpt>
      <trkpt lat="43.36522" lon="5.86702">
        <ele>455.32</ele>
        <time>2026-03-27T12:20:55Z</time>
      </trkpt>
      <trkpt lat="43.36525" lon="5.86693">
        <ele>455.32</ele>
        <time>2026-03-27T12:21:10Z</time>
      </trkpt>
      <trkpt lat="43.36529" lon="5.86683">
        <ele>457.24</ele>
        <time>2026-03-27T12:21:20Z</time>
      </trkpt>
      <trkpt lat="43.36533" lon="5.86673">
        <ele>458.69</ele>
        <time>2026-03-27T12:21:33Z</time>
      </trkpt>
      <trkpt lat="43.36535" lon="5.86669">
        <ele>460.61</ele>
        <time>2026-03-27T12:21:51Z</time>
      </trkpt>
      <trkpt lat="43.36536" lon="5.8666">
        <ele>462.05</ele>
        <time>2026-03-27T12:22:04Z</time>
      </trkpt>
      <trkpt lat="43.36537" lon="5.86652">
        <ele>462.05</ele>
        <time>2026-03-27T12:22:15Z</time>
      </trkpt>
      <trkpt lat="43.36538" lon="5.86639">
        <ele>462.05</ele>
        <time>2026-03-27T12:22:31Z</time>
      </trkpt>
      <trkpt lat="43.36537" lon="5.86629">
        <ele>462.05</ele>
        <time>2026-03-27T12:22:42Z</time>
      </trkpt>
      <trkpt lat="43.36537" lon="5.86619">
        <ele>462.53</ele>
        <time>2026-03-27T12:22:53Z</time>
      </trkpt>
      <trkpt lat="43.36536" lon="5.86614">
        <ele>462.53</ele>
        <time>2026-03-27T12:23:12Z</time>
      </trkpt>
      <trkpt lat="43.36536" lon="5.86605">
        <ele>461.09</ele>
        <time>2026-03-27T12:23:24Z</time>
      </trkpt>
      <trkpt lat="43.36536" lon="5.86594">
        <ele>463.01</ele>
        <time>2026-03-27T12:23:37Z</time>
      </trkpt>
      <trkpt lat="43.36537" lon="5.86586">
        <ele>464.45</ele>
        <time>2026-03-27T12:23:55Z</time>
      </trkpt>
      <trkpt lat="43.36538" lon="5.86577">
        <ele>464.45</ele>
        <time>2026-03-27T12:24:06Z</time>
      </trkpt>
      <trkpt lat="43.36537" lon="5.86568">
        <ele>463.97</ele>
        <time>2026-03-27T12:24:17Z</time>
      </trkpt>
      <trkpt lat="43.36538" lon="5.86556">
        <ele>465.9</ele>
        <time>2026-03-27T12:24:31Z</time>
      </trkpt>
      <trkpt lat="43.36537" lon="5.86547">
        <ele>466.86</ele>
        <time>2026-03-27T12:24:41Z</time>
      </trkpt>
      <trkpt lat="43.36536" lon="5.86539">
        <ele>469.26</ele>
        <time>2026-03-27T12:24:58Z</time>
      </trkpt>
      <trkpt lat="43.36536" lon="5.86532">
        <ele>470.7</ele>
        <time>2026-03-27T12:25:13Z</time>
      </trkpt>
      <trkpt lat="43.36534" lon="5.86524">
        <ele>471.18</ele>
        <time>2026-03-27T12:25:24Z</time>
      </trkpt>
      <trkpt lat="43.36534" lon="5.86517">
        <ele>474.55</ele>
        <time>2026-03-27T12:25:36Z</time>
      </trkpt>
      <trkpt lat="43.36535" lon="5.86508">
        <ele>477.91</ele>
        <time>2026-03-27T12:25:50Z</time>
      </trkpt>
      <trkpt lat="43.36535" lon="5.86495">
        <ele>480.32</ele>
        <time>2026-03-27T12:26:07Z</time>
      </trkpt>
      <trkpt lat="43.36535" lon="5.86481">
        <ele>481.28</ele>
        <time>2026-03-27T12:26:24Z</time>
      </trkpt>
      <trkpt lat="43.36535" lon="5.86471">
        <ele>481.76</ele>
        <time>2026-03-27T12:26:37Z</time>
      </trkpt>
      <trkpt lat="43.36535" lon="5.86461">
        <ele>482.24</ele>
        <time>2026-03-27T12:26:50Z</time>
      </trkpt>
      <trkpt lat="43.36535" lon="5.86451">
        <ele>480.8</ele>
        <time>2026-03-27T12:27:03Z</time>
      </trkpt>
      <trkpt lat="43.36534" lon="5.86443">
        <ele>479.84</ele>
        <time>2026-03-27T12:27:14Z</time>
      </trkpt>
      <trkpt lat="43.36534" lon="5.86429">
        <ele>478.87</ele>
        <time>2026-03-27T12:27:29Z</time>
      </trkpt>
      <trkpt lat="43.36534" lon="5.86423">
        <ele>479.35</ele>
        <time>2026-03-27T12:27:38Z</time>
      </trkpt>
      <trkpt lat="43.36534" lon="5.86418">
        <ele>479.84</ele>
        <time>2026-03-27T12:27:53Z</time>
      </trkpt>
      <trkpt lat="43.36537" lon="5.86408">
        <ele>476.95</ele>
        <time>2026-03-27T12:28:06Z</time>
      </trkpt>
      <trkpt lat="43.36538" lon="5.86398">
        <ele>477.43</ele>
        <time>2026-03-27T12:28:19Z</time>
      </trkpt>
      <trkpt lat="43.36539" lon="5.86387">
        <ele>478.39</ele>
        <time>2026-03-27T12:28:32Z</time>
      </trkpt>
      <trkpt lat="43.36539" lon="5.86378">
        <ele>478.39</ele>
        <time>2026-03-27T12:28:44Z</time>
      </trkpt>
      <trkpt lat="43.36539" lon="5.86368">
        <ele>477.91</ele>
        <time>2026-03-27T12:28:57Z</time>
      </trkpt>
      <trkpt lat="43.36539" lon="5.86357">
        <ele>477.43</ele>
        <time>2026-03-27T12:29:11Z</time>
      </trkpt>
      <trkpt lat="43.36539" lon="5.86349">
        <ele>478.87</ele>
        <time>2026-03-27T12:29:23Z</time>
      </trkpt>
      <trkpt lat="43.3654" lon="5.86344">
        <ele>479.84</ele>
        <time>2026-03-27T12:29:38Z</time>
      </trkpt>
      <trkpt lat="43.36541" lon="5.86337">
        <ele>478.39</ele>
        <time>2026-03-27T12:29:52Z</time>
      </trkpt>
      <trkpt lat="43.3654" lon="5.86337">
        <ele>478.87</ele>
        <time>2026-03-27T12:30:09Z</time>
      </trkpt>
      <trkpt lat="43.3654" lon="5.86338">
        <ele>477.43</ele>
        <time>2026-03-27T12:30:35Z</time>
      </trkpt>
      <trkpt lat="43.36541" lon="5.86334">
        <ele>477.43</ele>
        <time>2026-03-27T12:30:56Z</time>
      </trkpt>
      <trkpt lat="43.36541" lon="5.8633">
        <ele>479.35</ele>
        <time>2026-03-27T12:31:21Z</time>
      </trkpt>
      <trkpt lat="43.36539" lon="5.86328">
        <ele>479.84</ele>
        <time>2026-03-27T12:31:58Z</time>
      </trkpt>
      <trkpt lat="43.3654" lon="5.86324">
        <ele>478.87</ele>
        <time>2026-03-27T12:32:12Z</time>
      </trkpt>
      <trkpt lat="43.36537" lon="5.86311">
        <ele>477.91</ele>
        <time>2026-03-27T12:32:23Z</time>
      </trkpt>
      <trkpt lat="43.36535" lon="5.863">
        <ele>477.43</ele>
        <time>2026-03-27T12:32:35Z</time>
      </trkpt>
      <trkpt lat="43.36532" lon="5.86291">
        <ele>476.95</ele>
        <time>2026-03-27T12:32:47Z</time>
      </trkpt>
      <trkpt lat="43.3653" lon="5.86276">
        <ele>477.43</ele>
        <time>2026-03-27T12:33:01Z</time>
      </trkpt>
      <trkpt lat="43.36529" lon="5.86267">
        <ele>476.95</ele>
        <time>2026-03-27T12:33:13Z</time>
      </trkpt>
      <trkpt lat="43.36526" lon="5.86258">
        <ele>477.91</ele>
        <time>2026-03-27T12:33:24Z</time>
      </trkpt>
      <trkpt lat="43.36521" lon="5.86248">
        <ele>480.32</ele>
        <time>2026-03-27T12:33:38Z</time>
      </trkpt>
      <trkpt lat="43.36519" lon="5.86246">
        <ele>480.8</ele>
        <time>2026-03-27T12:33:43Z</time>
      </trkpt>
      <trkpt lat="43.36514" lon="5.86237">
        <ele>480.8</ele>
        <time>2026-03-27T12:33:54Z</time>
      </trkpt>
      <trkpt lat="43.36513" lon="5.86225">
        <ele>482.72</ele>
        <time>2026-03-27T12:34:08Z</time>
      </trkpt>
      <trkpt lat="43.36512" lon="5.86218">
        <ele>484.16</ele>
        <time>2026-03-27T12:34:20Z</time>
      </trkpt>
      <trkpt lat="43.36509" lon="5.86207">
        <ele>485.12</ele>
        <time>2026-03-27T12:34:34Z</time>
      </trkpt>
      <trkpt lat="43.36508" lon="5.86198">
        <ele>484.64</ele>
        <time>2026-03-27T12:34:45Z</time>
      </trkpt>
      <trkpt lat="43.36507" lon="5.86197">
        <ele>484.64</ele>
        <time>2026-03-27T12:35:06Z</time>
      </trkpt>
      <trkpt lat="43.36507" lon="5.86197">
        <ele>482.24</ele>
        <time>2026-03-27T12:35:35Z</time>
      </trkpt>
      <trkpt lat="43.36506" lon="5.86186">
        <ele>484.16</ele>
        <time>2026-03-27T12:35:50Z</time>
      </trkpt>
      <trkpt lat="43.36505" lon="5.86178">
        <ele>484.16</ele>
        <time>2026-03-27T12:35:59Z</time>
      </trkpt>
      <trkpt lat="43.36504" lon="5.86171">
        <ele>485.6</ele>
        <time>2026-03-27T12:36:10Z</time>
      </trkpt>
      <trkpt lat="43.36503" lon="5.86162">
        <ele>487.05</ele>
        <time>2026-03-27T12:36:25Z</time>
      </trkpt>
      <trkpt lat="43.36501" lon="5.86149">
        <ele>489.93</ele>
        <time>2026-03-27T12:36:41Z</time>
      </trkpt>
      <trkpt lat="43.36501" lon="5.8614">
        <ele>491.37</ele>
        <time>2026-03-27T12:36:53Z</time>
      </trkpt>
      <trkpt lat="43.36499" lon="5.86133">
        <ele>490.89</ele>
        <time>2026-03-27T12:37:03Z</time>
      </trkpt>
      <trkpt lat="43.36499" lon="5.8613">
        <ele>490.89</ele>
        <time>2026-03-27T12:37:17Z</time>
      </trkpt>
      <trkpt lat="43.36499" lon="5.86125">
        <ele>490.41</ele>
        <time>2026-03-27T12:37:31Z</time>
      </trkpt>
      <trkpt lat="43.36499" lon="5.86122">
        <ele>491.85</ele>
        <time>2026-03-27T12:37:59Z</time>
      </trkpt>
      <trkpt lat="43.36497" lon="5.86119">
        <ele>491.85</ele>
        <time>2026-03-27T12:38:33Z</time>
      </trkpt>
      <trkpt lat="43.36498" lon="5.86116">
        <ele>490.89</ele>
        <time>2026-03-27T12:38:52Z</time>
      </trkpt>
      <trkpt lat="43.36495" lon="5.86109">
        <ele>490.89</ele>
        <time>2026-03-27T12:39:07Z</time>
      </trkpt>
      <trkpt lat="43.3649" lon="5.86104">
        <ele>489.93</ele>
        <time>2026-03-27T12:39:14Z</time>
      </trkpt>
      <trkpt lat="43.36486" lon="5.86092">
        <ele>489.45</ele>
        <time>2026-03-27T12:39:29Z</time>
      </trkpt>
      <trkpt lat="43.36483" lon="5.86082">
        <ele>490.89</ele>
        <time>2026-03-27T12:39:43Z</time>
      </trkpt>
      <trkpt lat="43.36478" lon="5.86076">
        <ele>491.37</ele>
        <time>2026-03-27T12:39:55Z</time>
      </trkpt>
      <trkpt lat="43.36477" lon="5.86075">
        <ele>491.37</ele>
        <time>2026-03-27T12:39:57Z</time>
      </trkpt>
      <trkpt lat="43.36471" lon="5.86067">
        <ele>491.37</ele>
        <time>2026-03-27T12:40:09Z</time>
      </trkpt>
      <trkpt lat="43.36467" lon="5.86056">
        <ele>491.85</ele>
        <time>2026-03-27T12:40:23Z</time>
      </trkpt>
      <trkpt lat="43.36465" lon="5.86046">
        <ele>493.77</ele>
        <time>2026-03-27T12:40:36Z</time>
      </trkpt>
      <trkpt lat="43.36463" lon="5.86036">
        <ele>491.37</ele>
        <time>2026-03-27T12:40:46Z</time>
      </trkpt>
      <trkpt lat="43.36463" lon="5.86026">
        <ele>492.81</ele>
        <time>2026-03-27T12:40:58Z</time>
      </trkpt>
      <trkpt lat="43.36461" lon="5.8602">
        <ele>493.29</ele>
        <time>2026-03-27T12:41:26Z</time>
      </trkpt>
      <trkpt lat="43.36456" lon="5.8602">
        <ele>495.22</ele>
        <time>2026-03-27T12:41:38Z</time>
      </trkpt>
      <trkpt lat="43.36456" lon="5.86021">
        <ele>496.66</ele>
        <time>2026-03-27T12:42:05Z</time>
      </trkpt>
      <trkpt lat="43.36458" lon="5.8602">
        <ele>496.66</ele>
        <time>2026-03-27T12:42:22Z</time>
      </trkpt>
      <trkpt lat="43.36455" lon="5.86014">
        <ele>493.77</ele>
        <time>2026-03-27T12:42:37Z</time>
      </trkpt>
      <trkpt lat="43.36455" lon="5.86">
        <ele>494.26</ele>
        <time>2026-03-27T12:42:50Z</time>
      </trkpt>
      <trkpt lat="43.36453" lon="5.85988">
        <ele>496.66</ele>
        <time>2026-03-27T12:43:03Z</time>
      </trkpt>
      <trkpt lat="43.36454" lon="5.85978">
        <ele>496.66</ele>
        <time>2026-03-27T12:43:18Z</time>
      </trkpt>
      <trkpt lat="43.36455" lon="5.85962">
        <ele>496.66</ele>
        <time>2026-03-27T12:43:33Z</time>
      </trkpt>
      <trkpt lat="43.36456" lon="5.85949">
        <ele>496.18</ele>
        <time>2026-03-27T12:43:45Z</time>
      </trkpt>
      <trkpt lat="43.36454" lon="5.8594">
        <ele>496.18</ele>
        <time>2026-03-27T12:43:58Z</time>
      </trkpt>
      <trkpt lat="43.36457" lon="5.85925">
        <ele>498.1</ele>
        <time>2026-03-27T12:44:10Z</time>
      </trkpt>
      <trkpt lat="43.36463" lon="5.85915">
        <ele>498.58</ele>
        <time>2026-03-27T12:44:22Z</time>
      </trkpt>
      <trkpt lat="43.36461" lon="5.85909">
        <ele>498.1</ele>
        <time>2026-03-27T12:44:34Z</time>
      </trkpt>
      <trkpt lat="43.36462" lon="5.85897">
        <ele>497.14</ele>
        <time>2026-03-27T12:44:45Z</time>
      </trkpt>
      <trkpt lat="43.3646" lon="5.8589">
        <ele>498.58</ele>
        <time>2026-03-27T12:44:57Z</time>
      </trkpt>
      <trkpt lat="43.36452" lon="5.85884">
        <ele>500.98</ele>
        <time>2026-03-27T12:45:13Z</time>
      </trkpt>
      <trkpt lat="43.36443" lon="5.85879">
        <ele>500.5</ele>
        <time>2026-03-27T12:45:25Z</time>
      </trkpt>
      <trkpt lat="43.36441" lon="5.85869">
        <ele>500.5</ele>
        <time>2026-03-27T12:45:38Z</time>
      </trkpt>
      <trkpt lat="43.36442" lon="5.85859">
        <ele>500.5</ele>
        <time>2026-03-27T12:45:50Z</time>
      </trkpt>
      <trkpt lat="43.36443" lon="5.85854">
        <ele>503.39</ele>
        <time>2026-03-27T12:46:13Z</time>
      </trkpt>
      <trkpt lat="43.36447" lon="5.8585">
        <ele>502.91</ele>
        <time>2026-03-27T12:46:30Z</time>
      </trkpt>
      <trkpt lat="43.36458" lon="5.8585">
        <ele>500.02</ele>
        <time>2026-03-27T12:46:43Z</time>
      </trkpt>
      <trkpt lat="43.36467" lon="5.85845">
        <ele>498.58</ele>
        <time>2026-03-27T12:46:55Z</time>
      </trkpt>
      <trkpt lat="43.36468" lon="5.85845">
        <ele>498.1</ele>
        <time>2026-03-27T12:46:56Z</time>
      </trkpt>
      <trkpt lat="43.36475" lon="5.85835">
        <ele>500.02</ele>
        <time>2026-03-27T12:47:08Z</time>
      </trkpt>
      <trkpt lat="43.36476" lon="5.85835">
        <ele>500.02</ele>
        <time>2026-03-27T12:47:09Z</time>
      </trkpt>
      <trkpt lat="43.36479" lon="5.85837">
        <ele>500.5</ele>
        <time>2026-03-27T12:47:12Z</time>
      </trkpt>
      <trkpt lat="43.36487" lon="5.85846">
        <ele>500.02</ele>
        <time>2026-03-27T12:47:23Z</time>
      </trkpt>
      <trkpt lat="43.36491" lon="5.85851">
        <ele>501.46</ele>
        <time>2026-03-27T12:47:35Z</time>
      </trkpt>
      <trkpt lat="43.36497" lon="5.85858">
        <ele>502.43</ele>
        <time>2026-03-27T12:47:46Z</time>
      </trkpt>
      <trkpt lat="43.36502" lon="5.85864">
        <ele>501.95</ele>
        <time>2026-03-27T12:47:58Z</time>
      </trkpt>
      <trkpt lat="43.36507" lon="5.85873">
        <ele>501.46</ele>
        <time>2026-03-27T12:48:12Z</time>
      </trkpt>
      <trkpt lat="43.3651" lon="5.85876">
        <ele>501.46</ele>
        <time>2026-03-27T12:48:28Z</time>
      </trkpt>
      <trkpt lat="43.36508" lon="5.85875">
        <ele>502.43</ele>
        <time>2026-03-27T12:48:53Z</time>
      </trkpt>
      <trkpt lat="43.36507" lon="5.85879">
        <ele>502.43</ele>
        <time>2026-03-27T12:49:02Z</time>
      </trkpt>
      <trkpt lat="43.36509" lon="5.85876">
        <ele>501.46</ele>
        <time>2026-03-27T12:51:20Z</time>
      </trkpt>
      <trkpt lat="43.36507" lon="5.85875">
        <ele>505.31</ele>
        <time>2026-03-27T12:51:49Z</time>
      </trkpt>
      <trkpt lat="43.36507" lon="5.85876">
        <ele>504.83</ele>
        <time>2026-03-27T12:52:09Z</time>
      </trkpt>
      <trkpt lat="43.36503" lon="5.85873">
        <ele>508.19</ele>
        <time>2026-03-27T12:52:27Z</time>
      </trkpt>
      <trkpt lat="43.365" lon="5.85875">
        <ele>506.27</ele>
        <time>2026-03-27T12:52:42Z</time>
      </trkpt>
      <trkpt lat="43.36497" lon="5.85868">
        <ele>502.91</ele>
        <time>2026-03-27T12:52:57Z</time>
      </trkpt>
      <trkpt lat="43.36492" lon="5.85863">
        <ele>501.95</ele>
        <time>2026-03-27T12:53:09Z</time>
      </trkpt>
      <trkpt lat="43.36485" lon="5.85853">
        <ele>499.54</ele>
        <time>2026-03-27T12:53:21Z</time>
      </trkpt>
      <trkpt lat="43.36482" lon="5.85851">
        <ele>499.06</ele>
        <time>2026-03-27T12:53:26Z</time>
      </trkpt>
      <trkpt lat="43.36478" lon="5.85843">
        <ele>499.06</ele>
        <time>2026-03-27T12:53:37Z</time>
      </trkpt>
      <trkpt lat="43.36476" lon="5.85839">
        <ele>501.46</ele>
        <time>2026-03-27T12:53:51Z</time>
      </trkpt>
      <trkpt lat="43.36478" lon="5.85837">
        <ele>502.43</ele>
        <time>2026-03-27T12:54:14Z</time>
      </trkpt>
      <trkpt lat="43.36478" lon="5.85843">
        <ele>499.54</ele>
        <time>2026-03-27T12:54:38Z</time>
      </trkpt>
      <trkpt lat="43.3648" lon="5.85837">
        <ele>501.95</ele>
        <time>2026-03-27T12:55:03Z</time>
      </trkpt>
      <trkpt lat="43.36484" lon="5.8584">
        <ele>503.87</ele>
        <time>2026-03-27T12:55:30Z</time>
      </trkpt>
      <trkpt lat="43.36479" lon="5.85839">
        <ele>504.35</ele>
        <time>2026-03-27T12:55:56Z</time>
      </trkpt>
      <trkpt lat="43.36479" lon="5.85833">
        <ele>502.43</ele>
        <time>2026-03-27T12:56:08Z</time>
      </trkpt>
      <trkpt lat="43.36479" lon="5.85839">
        <ele>499.54</ele>
        <time>2026-03-27T12:56:27Z</time>
      </trkpt>
      <trkpt lat="43.36478" lon="5.85846">
        <ele>498.58</ele>
        <time>2026-03-27T12:56:59Z</time>
      </trkpt>
      <trkpt lat="43.36477" lon="5.85839">
        <ele>500.5</ele>
        <time>2026-03-27T12:57:26Z</time>
      </trkpt>
      <trkpt lat="43.36476" lon="5.85841">
        <ele>499.54</ele>
        <time>2026-03-27T12:57:39Z</time>
      </trkpt>
      <trkpt lat="43.36475" lon="5.85839">
        <ele>501.46</ele>
        <time>2026-03-27T12:58:11Z</time>
      </trkpt>
      <trkpt lat="43.36474" lon="5.85837">
        <ele>500.98</ele>
        <time>2026-03-27T12:58:37Z</time>
      </trkpt>
      <trkpt lat="43.36473" lon="5.85838">
        <ele>497.62</ele>
        <time>2026-03-27T12:59:04Z</time>
      </trkpt>
      <trkpt lat="43.36474" lon="5.8584">
        <ele>497.14</ele>
        <time>2026-03-27T12:59:34Z</time>
      </trkpt>
      <trkpt lat="43.36476" lon="5.85838">
        <ele>502.43</ele>
        <time>2026-03-27T13:00:04Z</time>
      </trkpt>
      <trkpt lat="43.36476" lon="5.85839">
        <ele>503.39</ele>
        <time>2026-03-27T13:00:28Z</time>
      </trkpt>
      <trkpt lat="43.36473" lon="5.85839">
        <ele>500.98</ele>
        <time>2026-03-27T13:00:59Z</time>
      </trkpt>
      <trkpt lat="43.36475" lon="5.85839">
        <ele>499.06</ele>
        <time>2026-03-27T13:01:32Z</time>
      </trkpt>
      <trkpt lat="43.36475" lon="5.85838">
        <ele>498.58</ele>
        <time>2026-03-27T13:02:04Z</time>
      </trkpt>
      <trkpt lat="43.36474" lon="5.85837">
        <ele>499.54</ele>
        <time>2026-03-27T13:02:39Z</time>
      </trkpt>
      <trkpt lat="43.36474" lon="5.85838">
        <ele>501.46</ele>
        <time>2026-03-27T13:03:12Z</time>
      </trkpt>
      <trkpt lat="43.36478" lon="5.85839">
        <ele>501.46</ele>
        <time>2026-03-27T13:03:36Z</time>
      </trkpt>
      <trkpt lat="43.36477" lon="5.85846">
        <ele>500.98</ele>
        <time>2026-03-27T13:03:50Z</time>
      </trkpt>
      <trkpt lat="43.36472" lon="5.85851">
        <ele>499.54</ele>
        <time>2026-03-27T13:04:05Z</time>
      </trkpt>
      <trkpt lat="43.36463" lon="5.85855">
        <ele>495.7</ele>
        <time>2026-03-27T13:04:19Z</time>
      </trkpt>
      <trkpt lat="43.36456" lon="5.85856">
        <ele>494.74</ele>
        <time>2026-03-27T13:04:31Z</time>
      </trkpt>
      <trkpt lat="43.36448" lon="5.85857">
        <ele>495.7</ele>
        <time>2026-03-27T13:04:44Z</time>
      </trkpt>
      <trkpt lat="43.36443" lon="5.85858">
        <ele>494.74</ele>
        <time>2026-03-27T13:04:59Z</time>
      </trkpt>
      <trkpt lat="43.36433" lon="5.85859">
        <ele>495.22</ele>
        <time>2026-03-27T13:05:15Z</time>
      </trkpt>
      <trkpt lat="43.36422" lon="5.85854">
        <ele>495.22</ele>
        <time>2026-03-27T13:05:31Z</time>
      </trkpt>
      <trkpt lat="43.36414" lon="5.85852">
        <ele>499.06</ele>
        <time>2026-03-27T13:05:44Z</time>
      </trkpt>
      <trkpt lat="43.36407" lon="5.85856">
        <ele>498.58</ele>
        <time>2026-03-27T13:05:58Z</time>
      </trkpt>
      <trkpt lat="43.36398" lon="5.85857">
        <ele>500.02</ele>
        <time>2026-03-27T13:06:11Z</time>
      </trkpt>
      <trkpt lat="43.36389" lon="5.85861">
        <ele>500.98</ele>
        <time>2026-03-27T13:06:23Z</time>
      </trkpt>
      <trkpt lat="43.36379" lon="5.85862">
        <ele>500.98</ele>
        <time>2026-03-27T13:06:36Z</time>
      </trkpt>
      <trkpt lat="43.36371" lon="5.85861">
        <ele>499.06</ele>
        <time>2026-03-27T13:06:47Z</time>
      </trkpt>
      <trkpt lat="43.36368" lon="5.85861">
        <ele>498.1</ele>
        <time>2026-03-27T13:06:51Z</time>
      </trkpt>
      <trkpt lat="43.3636" lon="5.85863">
        <ele>496.66</ele>
        <time>2026-03-27T13:07:02Z</time>
      </trkpt>
      <trkpt lat="43.36354" lon="5.85867">
        <ele>495.7</ele>
        <time>2026-03-27T13:07:13Z</time>
      </trkpt>
      <trkpt lat="43.36349" lon="5.85872">
        <ele>493.77</ele>
        <time>2026-03-27T13:07:26Z</time>
      </trkpt>
      <trkpt lat="43.36344" lon="5.85874">
        <ele>493.29</ele>
        <time>2026-03-27T13:07:39Z</time>
      </trkpt>
      <trkpt lat="43.36337" lon="5.85879">
        <ele>491.37</ele>
        <time>2026-03-27T13:07:51Z</time>
      </trkpt>
      <trkpt lat="43.36332" lon="5.85882">
        <ele>490.41</ele>
        <time>2026-03-27T13:08:01Z</time>
      </trkpt>
      <trkpt lat="43.36326" lon="5.85886">
        <ele>490.41</ele>
        <time>2026-03-27T13:08:16Z</time>
      </trkpt>
      <trkpt lat="43.36328" lon="5.85884">
        <ele>492.33</ele>
        <time>2026-03-27T13:08:32Z</time>
      </trkpt>
      <trkpt lat="43.36326" lon="5.85887">
        <ele>492.33</ele>
        <time>2026-03-27T13:08:55Z</time>
      </trkpt>
      <trkpt lat="43.36321" lon="5.85888">
        <ele>490.41</ele>
        <time>2026-03-27T13:09:08Z</time>
      </trkpt>
      <trkpt lat="43.36313" lon="5.85889">
        <ele>489.93</ele>
        <time>2026-03-27T13:09:21Z</time>
      </trkpt>
      <trkpt lat="43.36306" lon="5.85891">
        <ele>491.85</ele>
        <time>2026-03-27T13:09:33Z</time>
      </trkpt>
      <trkpt lat="43.36298" lon="5.85891">
        <ele>492.33</ele>
        <time>2026-03-27T13:09:48Z</time>
      </trkpt>
      <trkpt lat="43.36294" lon="5.85896">
        <ele>490.41</ele>
        <time>2026-03-27T13:10:03Z</time>
      </trkpt>
      <trkpt lat="43.36284" lon="5.85898">
        <ele>488.01</ele>
        <time>2026-03-27T13:10:15Z</time>
      </trkpt>
      <trkpt lat="43.36277" lon="5.85904">
        <ele>487.53</ele>
        <time>2026-03-27T13:10:26Z</time>
      </trkpt>
      <trkpt lat="43.36276" lon="5.85911">
        <ele>488.01</ele>
        <time>2026-03-27T13:10:38Z</time>
      </trkpt>
      <trkpt lat="43.36272" lon="5.8592">
        <ele>488.01</ele>
        <time>2026-03-27T13:10:50Z</time>
      </trkpt>
      <trkpt lat="43.36265" lon="5.85925">
        <ele>486.56</ele>
        <time>2026-03-27T13:11:01Z</time>
      </trkpt>
      <trkpt lat="43.36263" lon="5.85933">
        <ele>484.64</ele>
        <time>2026-03-27T13:11:13Z</time>
      </trkpt>
      <trkpt lat="43.36259" lon="5.85942">
        <ele>484.64</ele>
        <time>2026-03-27T13:11:25Z</time>
      </trkpt>
      <trkpt lat="43.36255" lon="5.8595">
        <ele>485.6</ele>
        <time>2026-03-27T13:11:38Z</time>
      </trkpt>
      <trkpt lat="43.36253" lon="5.85961">
        <ele>485.6</ele>
        <time>2026-03-27T13:11:49Z</time>
      </trkpt>
      <trkpt lat="43.36252" lon="5.85962">
        <ele>486.08</ele>
        <time>2026-03-27T13:11:51Z</time>
      </trkpt>
      <trkpt lat="43.36248" lon="5.85973">
        <ele>487.05</ele>
        <time>2026-03-27T13:12:04Z</time>
      </trkpt>
      <trkpt lat="43.36247" lon="5.85974">
        <ele>487.05</ele>
        <time>2026-03-27T13:12:06Z</time>
      </trkpt>
      <trkpt lat="43.36243" lon="5.85982">
        <ele>486.08</ele>
        <time>2026-03-27T13:12:18Z</time>
      </trkpt>
      <trkpt lat="43.36238" lon="5.8599">
        <ele>485.6</ele>
        <time>2026-03-27T13:12:30Z</time>
      </trkpt>
      <trkpt lat="43.36234" lon="5.85997">
        <ele>485.6</ele>
        <time>2026-03-27T13:12:39Z</time>
      </trkpt>
      <trkpt lat="43.36229" lon="5.86006">
        <ele>486.08</ele>
        <time>2026-03-27T13:12:51Z</time>
      </trkpt>
      <trkpt lat="43.36227" lon="5.86014">
        <ele>487.53</ele>
        <time>2026-03-27T13:13:02Z</time>
      </trkpt>
      <trkpt lat="43.36224" lon="5.86024">
        <ele>488.97</ele>
        <time>2026-03-27T13:13:14Z</time>
      </trkpt>
      <trkpt lat="43.3622" lon="5.86035">
        <ele>489.93</ele>
        <time>2026-03-27T13:13:28Z</time>
      </trkpt>
      <trkpt lat="43.36215" lon="5.86042">
        <ele>490.41</ele>
        <time>2026-03-27T13:13:42Z</time>
      </trkpt>
      <trkpt lat="43.3621" lon="5.86054">
        <ele>488.97</ele>
        <time>2026-03-27T13:13:57Z</time>
      </trkpt>
      <trkpt lat="43.36205" lon="5.86066">
        <ele>487.05</ele>
        <time>2026-03-27T13:14:12Z</time>
      </trkpt>
      <trkpt lat="43.36199" lon="5.86077">
        <ele>485.12</ele>
        <time>2026-03-27T13:14:23Z</time>
      </trkpt>
      <trkpt lat="43.36197" lon="5.86085">
        <ele>484.64</ele>
        <time>2026-03-27T13:14:34Z</time>
      </trkpt>
      <trkpt lat="43.36193" lon="5.86095">
        <ele>484.16</ele>
        <time>2026-03-27T13:14:48Z</time>
      </trkpt>
      <trkpt lat="43.36192" lon="5.86105">
        <ele>481.76</ele>
        <time>2026-03-27T13:15:01Z</time>
      </trkpt>
      <trkpt lat="43.36193" lon="5.86114">
        <ele>479.84</ele>
        <time>2026-03-27T13:15:13Z</time>
      </trkpt>
      <trkpt lat="43.36193" lon="5.86115">
        <ele>479.84</ele>
        <time>2026-03-27T13:15:14Z</time>
      </trkpt>
      <trkpt lat="43.36196" lon="5.86128">
        <ele>477.91</ele>
        <time>2026-03-27T13:15:27Z</time>
      </trkpt>
      <trkpt lat="43.36195" lon="5.86134">
        <ele>476.47</ele>
        <time>2026-03-27T13:15:37Z</time>
      </trkpt>
      <trkpt lat="43.36196" lon="5.86141">
        <ele>476.47</ele>
        <time>2026-03-27T13:15:48Z</time>
      </trkpt>
      <trkpt lat="43.36198" lon="5.8615">
        <ele>475.99</ele>
        <time>2026-03-27T13:16:03Z</time>
      </trkpt>
      <trkpt lat="43.362" lon="5.86159">
        <ele>475.99</ele>
        <time>2026-03-27T13:16:18Z</time>
      </trkpt>
      <trkpt lat="43.36194" lon="5.86169">
        <ele>474.55</ele>
        <time>2026-03-27T13:16:33Z</time>
      </trkpt>
      <trkpt lat="43.3619" lon="5.86176">
        <ele>474.55</ele>
        <time>2026-03-27T13:16:50Z</time>
      </trkpt>
      <trkpt lat="43.36188" lon="5.86181">
        <ele>473.11</ele>
        <time>2026-03-27T13:17:11Z</time>
      </trkpt>
      <trkpt lat="43.36185" lon="5.86191">
        <ele>472.63</ele>
        <time>2026-03-27T13:17:26Z</time>
      </trkpt>
      <trkpt lat="43.3618" lon="5.862">
        <ele>472.63</ele>
        <time>2026-03-27T13:17:39Z</time>
      </trkpt>
      <trkpt lat="43.36176" lon="5.86207">
        <ele>472.63</ele>
        <time>2026-03-27T13:17:52Z</time>
      </trkpt>
      <trkpt lat="43.36172" lon="5.86215">
        <ele>471.18</ele>
        <time>2026-03-27T13:18:06Z</time>
      </trkpt>
      <trkpt lat="43.36171" lon="5.86221">
        <ele>470.22</ele>
        <time>2026-03-27T13:18:18Z</time>
      </trkpt>
      <trkpt lat="43.36172" lon="5.86229">
        <ele>468.3</ele>
        <time>2026-03-27T13:18:30Z</time>
      </trkpt>
      <trkpt lat="43.36175" lon="5.86235">
        <ele>466.38</ele>
        <time>2026-03-27T13:18:44Z</time>
      </trkpt>
      <trkpt lat="43.36179" lon="5.86246">
        <ele>465.9</ele>
        <time>2026-03-27T13:18:58Z</time>
      </trkpt>
      <trkpt lat="43.36178" lon="5.86249">
        <ele>465.9</ele>
        <time>2026-03-27T13:19:01Z</time>
      </trkpt>
      <trkpt lat="43.36176" lon="5.86253">
        <ele>465.9</ele>
        <time>2026-03-27T13:19:04Z</time>
      </trkpt>
      <trkpt lat="43.36173" lon="5.86258">
        <ele>465.42</ele>
        <time>2026-03-27T13:19:16Z</time>
      </trkpt>
      <trkpt lat="43.36171" lon="5.86268">
        <ele>463.97</ele>
        <time>2026-03-27T13:19:28Z</time>
      </trkpt>
      <trkpt lat="43.36169" lon="5.8627">
        <ele>461.57</ele>
        <time>2026-03-27T13:19:45Z</time>
      </trkpt>
      <trkpt lat="43.36168" lon="5.8628">
        <ele>463.01</ele>
        <time>2026-03-27T13:19:57Z</time>
      </trkpt>
      <trkpt lat="43.36165" lon="5.86292">
        <ele>462.53</ele>
        <time>2026-03-27T13:20:10Z</time>
      </trkpt>
      <trkpt lat="43.36161" lon="5.86304">
        <ele>461.09</ele>
        <time>2026-03-27T13:20:22Z</time>
      </trkpt>
      <trkpt lat="43.36157" lon="5.86314">
        <ele>461.09</ele>
        <time>2026-03-27T13:20:34Z</time>
      </trkpt>
      <trkpt lat="43.36149" lon="5.86323">
        <ele>460.13</ele>
        <time>2026-03-27T13:20:47Z</time>
      </trkpt>
      <trkpt lat="43.3614" lon="5.86332">
        <ele>458.69</ele>
        <time>2026-03-27T13:21:00Z</time>
      </trkpt>
      <trkpt lat="43.36133" lon="5.86338">
        <ele>457.24</ele>
        <time>2026-03-27T13:21:12Z</time>
      </trkpt>
      <trkpt lat="43.36127" lon="5.86343">
        <ele>458.21</ele>
        <time>2026-03-27T13:21:26Z</time>
      </trkpt>
      <trkpt lat="43.36125" lon="5.86346">
        <ele>458.69</ele>
        <time>2026-03-27T13:21:30Z</time>
      </trkpt>
      <trkpt lat="43.36121" lon="5.86355">
        <ele>458.21</ele>
        <time>2026-03-27T13:21:41Z</time>
      </trkpt>
      <trkpt lat="43.36119" lon="5.86364">
        <ele>457.72</ele>
        <time>2026-03-27T13:21:54Z</time>
      </trkpt>
      <trkpt lat="43.36119" lon="5.86365">
        <ele>457.72</ele>
        <time>2026-03-27T13:21:55Z</time>
      </trkpt>
      <trkpt lat="43.3612" lon="5.86373">
        <ele>457.24</ele>
        <time>2026-03-27T13:22:04Z</time>
      </trkpt>
      <trkpt lat="43.36123" lon="5.86383">
        <ele>455.32</ele>
        <time>2026-03-27T13:22:16Z</time>
      </trkpt>
      <trkpt lat="43.36124" lon="5.86394">
        <ele>453.88</ele>
        <time>2026-03-27T13:22:29Z</time>
      </trkpt>
      <trkpt lat="43.36126" lon="5.86404">
        <ele>453.4</ele>
        <time>2026-03-27T13:22:38Z</time>
      </trkpt>
      <trkpt lat="43.36126" lon="5.86415">
        <ele>452.44</ele>
        <time>2026-03-27T13:22:50Z</time>
      </trkpt>
      <trkpt lat="43.36125" lon="5.86423">
        <ele>451.96</ele>
        <time>2026-03-27T13:23:03Z</time>
      </trkpt>
      <trkpt lat="43.36121" lon="5.86434">
        <ele>451.48</ele>
        <time>2026-03-27T13:23:16Z</time>
      </trkpt>
      <trkpt lat="43.36115" lon="5.86443">
        <ele>450.52</ele>
        <time>2026-03-27T13:23:29Z</time>
      </trkpt>
      <trkpt lat="43.36111" lon="5.8645">
        <ele>449.55</ele>
        <time>2026-03-27T13:23:40Z</time>
      </trkpt>
      <trkpt lat="43.36107" lon="5.86459">
        <ele>449.07</ele>
        <time>2026-03-27T13:23:54Z</time>
      </trkpt>
      <trkpt lat="43.36106" lon="5.86462">
        <ele>448.59</ele>
        <time>2026-03-27T13:23:58Z</time>
      </trkpt>
      <trkpt lat="43.36105" lon="5.86473">
        <ele>447.63</ele>
        <time>2026-03-27T13:24:11Z</time>
      </trkpt>
      <trkpt lat="43.36104" lon="5.86483">
        <ele>447.63</ele>
        <time>2026-03-27T13:24:26Z</time>
      </trkpt>
      <trkpt lat="43.36103" lon="5.86484">
        <ele>447.63</ele>
        <time>2026-03-27T13:24:43Z</time>
      </trkpt>
      <trkpt lat="43.36099" lon="5.86497">
        <ele>445.71</ele>
        <time>2026-03-27T13:24:58Z</time>
      </trkpt>
      <trkpt lat="43.36096" lon="5.86506">
        <ele>444.75</ele>
        <time>2026-03-27T13:25:09Z</time>
      </trkpt>
      <trkpt lat="43.36094" lon="5.86512">
        <ele>443.79</ele>
        <time>2026-03-27T13:25:16Z</time>
      </trkpt>
      <trkpt lat="43.36093" lon="5.86522">
        <ele>443.31</ele>
        <time>2026-03-27T13:25:28Z</time>
      </trkpt>
      <trkpt lat="43.36091" lon="5.8653">
        <ele>442.34</ele>
        <time>2026-03-27T13:25:36Z</time>
      </trkpt>
      <trkpt lat="43.3609" lon="5.86542">
        <ele>442.82</ele>
        <time>2026-03-27T13:25:48Z</time>
      </trkpt>
      <trkpt lat="43.36089" lon="5.8655">
        <ele>442.34</ele>
        <time>2026-03-27T13:26:00Z</time>
      </trkpt>
      <trkpt lat="43.36087" lon="5.86558">
        <ele>441.38</ele>
        <time>2026-03-27T13:26:11Z</time>
      </trkpt>
      <trkpt lat="43.36086" lon="5.86563">
        <ele>440.9</ele>
        <time>2026-03-27T13:26:17Z</time>
      </trkpt>
      <trkpt lat="43.36083" lon="5.86574">
        <ele>438.02</ele>
        <time>2026-03-27T13:26:32Z</time>
      </trkpt>
      <trkpt lat="43.36081" lon="5.86583">
        <ele>438.5</ele>
        <time>2026-03-27T13:26:43Z</time>
      </trkpt>
      <trkpt lat="43.36079" lon="5.86593">
        <ele>438.02</ele>
        <time>2026-03-27T13:26:58Z</time>
      </trkpt>
      <trkpt lat="43.36076" lon="5.86601">
        <ele>437.06</ele>
        <time>2026-03-27T13:27:09Z</time>
      </trkpt>
      <trkpt lat="43.36074" lon="5.8661">
        <ele>435.61</ele>
        <time>2026-03-27T13:27:23Z</time>
      </trkpt>
      <trkpt lat="43.36075" lon="5.86617">
        <ele>435.13</ele>
        <time>2026-03-27T13:27:37Z</time>
      </trkpt>
      <trkpt lat="43.36077" lon="5.86625">
        <ele>433.69</ele>
        <time>2026-03-27T13:27:49Z</time>
      </trkpt>
      <trkpt lat="43.36077" lon="5.86635">
        <ele>431.77</ele>
        <time>2026-03-27T13:28:03Z</time>
      </trkpt>
      <trkpt lat="43.36077" lon="5.86646">
        <ele>431.29</ele>
        <time>2026-03-27T13:28:16Z</time>
      </trkpt>
      <trkpt lat="43.36077" lon="5.86653">
        <ele>432.73</ele>
        <time>2026-03-27T13:28:31Z</time>
      </trkpt>
      <trkpt lat="43.36077" lon="5.86657">
        <ele>433.69</ele>
        <time>2026-03-27T13:28:56Z</time>
      </trkpt>
      <trkpt lat="43.36082" lon="5.86664">
        <ele>432.73</ele>
        <time>2026-03-27T13:29:11Z</time>
      </trkpt>
      <trkpt lat="43.36086" lon="5.86674">
        <ele>430.33</ele>
        <time>2026-03-27T13:29:26Z</time>
      </trkpt>
      <trkpt lat="43.36084" lon="5.8668">
        <ele>429.85</ele>
        <time>2026-03-27T13:29:40Z</time>
      </trkpt>
      <trkpt lat="43.36081" lon="5.86679">
        <ele>429.85</ele>
        <time>2026-03-27T13:29:43Z</time>
      </trkpt>
      <trkpt lat="43.36071" lon="5.86675">
        <ele>429.37</ele>
        <time>2026-03-27T13:29:56Z</time>
      </trkpt>
      <trkpt lat="43.36067" lon="5.86672">
        <ele>428.89</ele>
        <time>2026-03-27T13:30:01Z</time>
      </trkpt>
      <trkpt lat="43.36061" lon="5.86663">
        <ele>428.4</ele>
        <time>2026-03-27T13:30:11Z</time>
      </trkpt>
      <trkpt lat="43.36059" lon="5.86653">
        <ele>426.96</ele>
        <time>2026-03-27T13:30:18Z</time>
      </trkpt>
      <trkpt lat="43.36052" lon="5.86647">
        <ele>428.89</ele>
        <time>2026-03-27T13:30:31Z</time>
      </trkpt>
      <trkpt lat="43.36042" lon="5.86643">
        <ele>428.4</ele>
        <time>2026-03-27T13:30:44Z</time>
      </trkpt>
      <trkpt lat="43.36038" lon="5.86632">
        <ele>428.4</ele>
        <time>2026-03-27T13:30:54Z</time>
      </trkpt>
      <trkpt lat="43.36035" lon="5.86616">
        <ele>428.4</ele>
        <time>2026-03-27T13:31:07Z</time>
      </trkpt>
      <trkpt lat="43.36033" lon="5.86603">
        <ele>428.4</ele>
        <time>2026-03-27T13:31:19Z</time>
      </trkpt>
      <trkpt lat="43.36032" lon="5.86597">
        <ele>427.92</ele>
        <time>2026-03-27T13:31:24Z</time>
      </trkpt>
      <trkpt lat="43.36031" lon="5.86586">
        <ele>426.48</ele>
        <time>2026-03-27T13:31:35Z</time>
      </trkpt>
      <trkpt lat="43.36028" lon="5.86576">
        <ele>423.12</ele>
        <time>2026-03-27T13:31:48Z</time>
      </trkpt>
      <trkpt lat="43.36026" lon="5.86568">
        <ele>422.16</ele>
        <time>2026-03-27T13:31:58Z</time>
      </trkpt>
      <trkpt lat="43.36025" lon="5.86558">
        <ele>419.75</ele>
        <time>2026-03-27T13:32:10Z</time>
      </trkpt>
      <trkpt lat="43.36025" lon="5.8655">
        <ele>417.35</ele>
        <time>2026-03-27T13:32:20Z</time>
      </trkpt>
      <trkpt lat="43.3602" lon="5.86536">
        <ele>416.39</ele>
        <time>2026-03-27T13:32:34Z</time>
      </trkpt>
      <trkpt lat="43.36019" lon="5.86524">
        <ele>414.95</ele>
        <time>2026-03-27T13:32:46Z</time>
      </trkpt>
      <trkpt lat="43.36017" lon="5.86518">
        <ele>414.95</ele>
        <time>2026-03-27T13:32:52Z</time>
      </trkpt>
      <trkpt lat="43.36014" lon="5.86507">
        <ele>413.02</ele>
        <time>2026-03-27T13:33:05Z</time>
      </trkpt>
      <trkpt lat="43.36009" lon="5.86494">
        <ele>419.27</ele>
        <time>2026-03-27T13:33:18Z</time>
      </trkpt>
      <trkpt lat="43.36006" lon="5.86484">
        <ele>424.56</ele>
        <time>2026-03-27T13:33:35Z</time>
      </trkpt>
      <trkpt lat="43.36008" lon="5.86471">
        <ele>425.04</ele>
        <time>2026-03-27T13:33:48Z</time>
      </trkpt>
      <trkpt lat="43.36007" lon="5.86459">
        <ele>425.04</ele>
        <time>2026-03-27T13:34:00Z</time>
      </trkpt>
      <trkpt lat="43.36004" lon="5.86452">
        <ele>426</ele>
        <time>2026-03-27T13:34:13Z</time>
      </trkpt>
      <trkpt lat="43.36006" lon="5.86447">
        <ele>428.4</ele>
        <time>2026-03-27T13:34:24Z</time>
      </trkpt>
      <trkpt lat="43.36008" lon="5.86443">
        <ele>432.73</ele>
        <time>2026-03-27T13:34:43Z</time>
      </trkpt>
      <trkpt lat="43.36005" lon="5.86439">
        <ele>434.17</ele>
        <time>2026-03-27T13:34:58Z</time>
      </trkpt>
      <trkpt lat="43.36" lon="5.86432">
        <ele>435.61</ele>
        <time>2026-03-27T13:35:10Z</time>
      </trkpt>
      <trkpt lat="43.35998" lon="5.86428">
        <ele>436.1</ele>
        <time>2026-03-27T13:35:24Z</time>
      </trkpt>
      <trkpt lat="43.35999" lon="5.86417">
        <ele>434.65</ele>
        <time>2026-03-27T13:35:38Z</time>
      </trkpt>
      <trkpt lat="43.35999" lon="5.86408">
        <ele>433.69</ele>
        <time>2026-03-27T13:35:50Z</time>
      </trkpt>
      <trkpt lat="43.36002" lon="5.86397">
        <ele>433.69</ele>
        <time>2026-03-27T13:36:03Z</time>
      </trkpt>
      <trkpt lat="43.36001" lon="5.86395">
        <ele>438.98</ele>
        <time>2026-03-27T13:36:21Z</time>
      </trkpt>
      <trkpt lat="43.35997" lon="5.86385">
        <ele>438.98</ele>
        <time>2026-03-27T13:36:35Z</time>
      </trkpt>
      <trkpt lat="43.35995" lon="5.86374">
        <ele>437.54</ele>
        <time>2026-03-27T13:36:47Z</time>
      </trkpt>
      <trkpt lat="43.35993" lon="5.86367">
        <ele>437.06</ele>
        <time>2026-03-27T13:36:58Z</time>
      </trkpt>
      <trkpt lat="43.3599" lon="5.86366">
        <ele>437.06</ele>
        <time>2026-03-27T13:37:06Z</time>
      </trkpt>
      <trkpt lat="43.35985" lon="5.8636">
        <ele>438.02</ele>
        <time>2026-03-27T13:37:18Z</time>
      </trkpt>
      <trkpt lat="43.3598" lon="5.86352">
        <ele>438.02</ele>
        <time>2026-03-27T13:37:31Z</time>
      </trkpt>
      <trkpt lat="43.35979" lon="5.86345">
        <ele>436.1</ele>
        <time>2026-03-27T13:37:56Z</time>
      </trkpt>
      <trkpt lat="43.35976" lon="5.86333">
        <ele>434.65</ele>
        <time>2026-03-27T13:38:08Z</time>
      </trkpt>
      <trkpt lat="43.35972" lon="5.86325">
        <ele>436.58</ele>
        <time>2026-03-27T13:38:21Z</time>
      </trkpt>
      <trkpt lat="43.3597" lon="5.86319">
        <ele>438.02</ele>
        <time>2026-03-27T13:38:34Z</time>
      </trkpt>
      <trkpt lat="43.35968" lon="5.86313">
        <ele>438.98</ele>
        <time>2026-03-27T13:38:49Z</time>
      </trkpt>
      <trkpt lat="43.35963" lon="5.86309">
        <ele>438.5</ele>
        <time>2026-03-27T13:39:02Z</time>
      </trkpt>
      <trkpt lat="43.35961" lon="5.86309">
        <ele>438.5</ele>
        <time>2026-03-27T13:39:06Z</time>
      </trkpt>
      <trkpt lat="43.35958" lon="5.86305">
        <ele>438.98</ele>
        <time>2026-03-27T13:39:19Z</time>
      </trkpt>
      <trkpt lat="43.35955" lon="5.86301">
        <ele>441.38</ele>
        <time>2026-03-27T13:39:32Z</time>
      </trkpt>
      <trkpt lat="43.3595" lon="5.86298">
        <ele>440.42</ele>
        <time>2026-03-27T13:39:44Z</time>
      </trkpt>
      <trkpt lat="43.35947" lon="5.86296">
        <ele>439.94</ele>
        <time>2026-03-27T13:40:03Z</time>
      </trkpt>
      <trkpt lat="43.35945" lon="5.86292">
        <ele>441.38</ele>
        <time>2026-03-27T13:40:17Z</time>
      </trkpt>
      <trkpt lat="43.3594" lon="5.86292">
        <ele>442.82</ele>
        <time>2026-03-27T13:40:41Z</time>
      </trkpt>
      <trkpt lat="43.35942" lon="5.86297">
        <ele>444.27</ele>
        <time>2026-03-27T13:41:03Z</time>
      </trkpt>
      <trkpt lat="43.35944" lon="5.86288">
        <ele>443.79</ele>
        <time>2026-03-27T13:41:21Z</time>
      </trkpt>
      <trkpt lat="43.35945" lon="5.8629">
        <ele>443.31</ele>
        <time>2026-03-27T13:41:35Z</time>
      </trkpt>
      <trkpt lat="43.3594" lon="5.86292">
        <ele>439.46</ele>
        <time>2026-03-27T13:42:00Z</time>
      </trkpt>
      <trkpt lat="43.35939" lon="5.86295">
        <ele>437.06</ele>
        <time>2026-03-27T13:42:29Z</time>
      </trkpt>
      <trkpt lat="43.35943" lon="5.86292">
        <ele>436.1</ele>
        <time>2026-03-27T13:42:55Z</time>
      </trkpt>
      <trkpt lat="43.35939" lon="5.86297">
        <ele>436.58</ele>
        <time>2026-03-27T13:43:06Z</time>
      </trkpt>
      <trkpt lat="43.35941" lon="5.863">
        <ele>438.98</ele>
        <time>2026-03-27T13:43:17Z</time>
      </trkpt>
      <trkpt lat="43.35939" lon="5.86302">
        <ele>442.34</ele>
        <time>2026-03-27T13:43:31Z</time>
      </trkpt>
      <trkpt lat="43.35935" lon="5.86303">
        <ele>441.86</ele>
        <time>2026-03-27T13:43:47Z</time>
      </trkpt>
      <trkpt lat="43.35929" lon="5.86303">
        <ele>442.34</ele>
        <time>2026-03-27T13:44:03Z</time>
      </trkpt>
      <trkpt lat="43.35921" lon="5.86301">
        <ele>445.23</ele>
        <time>2026-03-27T13:44:15Z</time>
      </trkpt>
      <trkpt lat="43.35916" lon="5.86294">
        <ele>445.71</ele>
        <time>2026-03-27T13:44:29Z</time>
      </trkpt>
      <trkpt lat="43.35908" lon="5.86293">
        <ele>447.63</ele>
        <time>2026-03-27T13:44:39Z</time>
      </trkpt>
      <trkpt lat="43.35901" lon="5.86292">
        <ele>449.55</ele>
        <time>2026-03-27T13:44:50Z</time>
      </trkpt>
      <trkpt lat="43.35897" lon="5.86291">
        <ele>451.48</ele>
        <time>2026-03-27T13:45:04Z</time>
      </trkpt>
      <trkpt lat="43.35892" lon="5.86291">
        <ele>453.4</ele>
        <time>2026-03-27T13:45:14Z</time>
      </trkpt>
      <trkpt lat="43.35889" lon="5.86291">
        <ele>455.8</ele>
        <time>2026-03-27T13:45:28Z</time>
      </trkpt>
      <trkpt lat="43.35883" lon="5.86285">
        <ele>456.28</ele>
        <time>2026-03-27T13:45:42Z</time>
      </trkpt>
      <trkpt lat="43.35879" lon="5.8628">
        <ele>454.36</ele>
        <time>2026-03-27T13:45:56Z</time>
      </trkpt>
      <trkpt lat="43.35877" lon="5.86274">
        <ele>452.92</ele>
        <time>2026-03-27T13:46:19Z</time>
      </trkpt>
      <trkpt lat="43.35874" lon="5.86272">
        <ele>451.48</ele>
        <time>2026-03-27T13:46:43Z</time>
      </trkpt>
      <trkpt lat="43.35873" lon="5.86271">
        <ele>450.52</ele>
        <time>2026-03-27T13:46:53Z</time>
      </trkpt>
      <trkpt lat="43.3587" lon="5.86269">
        <ele>452.44</ele>
        <time>2026-03-27T13:47:07Z</time>
      </trkpt>
      <trkpt lat="43.35873" lon="5.86264">
        <ele>457.72</ele>
        <time>2026-03-27T13:47:29Z</time>
      </trkpt>
      <trkpt lat="43.35877" lon="5.86268">
        <ele>458.69</ele>
        <time>2026-03-27T13:47:41Z</time>
      </trkpt>
      <trkpt lat="43.35878" lon="5.86275">
        <ele>459.17</ele>
        <time>2026-03-27T13:48:01Z</time>
      </trkpt>
      <trkpt lat="43.35882" lon="5.86275">
        <ele>460.61</ele>
        <time>2026-03-27T13:48:18Z</time>
      </trkpt>
      <trkpt lat="43.35883" lon="5.86274">
        <ele>462.53</ele>
        <time>2026-03-27T13:48:34Z</time>
      </trkpt>
      <trkpt lat="43.35882" lon="5.86269">
        <ele>463.49</ele>
        <time>2026-03-27T13:48:49Z</time>
      </trkpt>
      <trkpt lat="43.3588" lon="5.86271">
        <ele>460.13</ele>
        <time>2026-03-27T13:49:04Z</time>
      </trkpt>
      <trkpt lat="43.35878" lon="5.86269">
        <ele>458.69</ele>
        <time>2026-03-27T13:49:21Z</time>
      </trkpt>
      <trkpt lat="43.35875" lon="5.86261">
        <ele>458.69</ele>
        <time>2026-03-27T13:49:39Z</time>
      </trkpt>
      <trkpt lat="43.35877" lon="5.86269">
        <ele>454.36</ele>
        <time>2026-03-27T13:49:55Z</time>
      </trkpt>
      <trkpt lat="43.35876" lon="5.86277">
        <ele>456.28</ele>
        <time>2026-03-27T13:50:24Z</time>
      </trkpt>
      <trkpt lat="43.35878" lon="5.86274">
        <ele>454.84</ele>
        <time>2026-03-27T13:50:51Z</time>
      </trkpt>
      <trkpt lat="43.3588" lon="5.86267">
        <ele>452.92</ele>
        <time>2026-03-27T13:51:06Z</time>
      </trkpt>
      <trkpt lat="43.35881" lon="5.8626">
        <ele>449.55</ele>
        <time>2026-03-27T13:51:25Z</time>
      </trkpt>
      <trkpt lat="43.35887" lon="5.86261">
        <ele>451.48</ele>
        <time>2026-03-27T13:51:46Z</time>
      </trkpt>
      <trkpt lat="43.35889" lon="5.86264">
        <ele>450.52</ele>
        <time>2026-03-27T13:51:58Z</time>
      </trkpt>
      <trkpt lat="43.35887" lon="5.86266">
        <ele>447.63</ele>
        <time>2026-03-27T13:52:14Z</time>
      </trkpt>
      <trkpt lat="43.35889" lon="5.86266">
        <ele>449.55</ele>
        <time>2026-03-27T13:52:29Z</time>
      </trkpt>
      <trkpt lat="43.35885" lon="5.86272">
        <ele>449.55</ele>
        <time>2026-03-27T13:52:46Z</time>
      </trkpt>
      <trkpt lat="43.35888" lon="5.86277">
        <ele>450.03</ele>
        <time>2026-03-27T13:52:57Z</time>
      </trkpt>
      <trkpt lat="43.3589" lon="5.86278">
        <ele>450.52</ele>
        <time>2026-03-27T13:53:10Z</time>
      </trkpt>
      <trkpt lat="43.35895" lon="5.8628">
        <ele>448.59</ele>
        <time>2026-03-27T13:53:27Z</time>
      </trkpt>
      <trkpt lat="43.359" lon="5.86282">
        <ele>447.63</ele>
        <time>2026-03-27T13:53:42Z</time>
      </trkpt>
      <trkpt lat="43.359" lon="5.86281">
        <ele>449.07</ele>
        <time>2026-03-27T13:53:56Z</time>
      </trkpt>
      <trkpt lat="43.35904" lon="5.86283">
        <ele>449.07</ele>
        <time>2026-03-27T13:54:09Z</time>
      </trkpt>
      <trkpt lat="43.359" lon="5.86286">
        <ele>452.92</ele>
        <time>2026-03-27T13:54:29Z</time>
      </trkpt>
      <trkpt lat="43.359" lon="5.86291">
        <ele>455.8</ele>
        <time>2026-03-27T13:54:43Z</time>
      </trkpt>
      <trkpt lat="43.35898" lon="5.86288">
        <ele>452.44</ele>
        <time>2026-03-27T13:54:54Z</time>
      </trkpt>
      <trkpt lat="43.35895" lon="5.86288">
        <ele>449.55</ele>
        <time>2026-03-27T13:55:10Z</time>
      </trkpt>
      <trkpt lat="43.35894" lon="5.86281">
        <ele>447.63</ele>
        <time>2026-03-27T13:55:26Z</time>
      </trkpt>
      <trkpt lat="43.35884" lon="5.86278">
        <ele>449.55</ele>
        <time>2026-03-27T13:55:52Z</time>
      </trkpt>
      <trkpt lat="43.35891" lon="5.86279">
        <ele>450.03</ele>
        <time>2026-03-27T13:56:07Z</time>
      </trkpt>
      <trkpt lat="43.35898" lon="5.86282">
        <ele>449.55</ele>
        <time>2026-03-27T13:56:20Z</time>
      </trkpt>
      <trkpt lat="43.35901" lon="5.86285">
        <ele>448.59</ele>
        <time>2026-03-27T13:56:35Z</time>
      </trkpt>
      <trkpt lat="43.359" lon="5.86281">
        <ele>449.55</ele>
        <time>2026-03-27T13:56:58Z</time>
      </trkpt>
      <trkpt lat="43.35904" lon="5.86279">
        <ele>453.88</ele>
        <time>2026-03-27T13:57:17Z</time>
      </trkpt>
      <trkpt lat="43.35907" lon="5.86278">
        <ele>456.76</ele>
        <time>2026-03-27T13:57:33Z</time>
      </trkpt>
      <trkpt lat="43.35915" lon="5.86284">
        <ele>453.88</ele>
        <time>2026-03-27T13:57:46Z</time>
      </trkpt>
      <trkpt lat="43.35926" lon="5.8629">
        <ele>447.15</ele>
        <time>2026-03-27T13:58:02Z</time>
      </trkpt>
      <trkpt lat="43.35931" lon="5.86289">
        <ele>445.23</ele>
        <time>2026-03-27T13:58:12Z</time>
      </trkpt>
      <trkpt lat="43.35935" lon="5.86289">
        <ele>443.79</ele>
        <time>2026-03-27T13:58:25Z</time>
      </trkpt>
      <trkpt lat="43.35935" lon="5.86288">
        <ele>444.75</ele>
        <time>2026-03-27T13:58:41Z</time>
      </trkpt>
      <trkpt lat="43.35934" lon="5.86286">
        <ele>444.75</ele>
        <time>2026-03-27T13:58:46Z</time>
      </trkpt>
      <trkpt lat="43.35937" lon="5.86281">
        <ele>444.75</ele>
        <time>2026-03-27T13:58:51Z</time>
      </trkpt>
      <trkpt lat="43.35941" lon="5.86281">
        <ele>444.27</ele>
        <time>2026-03-27T13:59:04Z</time>
      </trkpt>
      <trkpt lat="43.35945" lon="5.86285">
        <ele>443.79</ele>
        <time>2026-03-27T13:59:27Z</time>
      </trkpt>
      <trkpt lat="43.3595" lon="5.8629">
        <ele>441.38</ele>
        <time>2026-03-27T13:59:53Z</time>
      </trkpt>
      <trkpt lat="43.35945" lon="5.86289">
        <ele>438.5</ele>
        <time>2026-03-27T14:00:05Z</time>
      </trkpt>
      <trkpt lat="43.35946" lon="5.86285">
        <ele>437.06</ele>
        <time>2026-03-27T14:00:24Z</time>
      </trkpt>
      <trkpt lat="43.35949" lon="5.86285">
        <ele>437.54</ele>
        <time>2026-03-27T14:00:39Z</time>
      </trkpt>
      <trkpt lat="43.3595" lon="5.86289">
        <ele>441.38</ele>
        <time>2026-03-27T14:01:07Z</time>
      </trkpt>
      <trkpt lat="43.35945" lon="5.86288">
        <ele>437.54</ele>
        <time>2026-03-27T14:01:19Z</time>
      </trkpt>
      <trkpt lat="43.35944" lon="5.8629">
        <ele>437.06</ele>
        <time>2026-03-27T14:01:35Z</time>
      </trkpt>
      <trkpt lat="43.35947" lon="5.86289">
        <ele>435.61</ele>
        <time>2026-03-27T14:01:52Z</time>
      </trkpt>
      <trkpt lat="43.35942" lon="5.86295">
        <ele>435.61</ele>
        <time>2026-03-27T14:02:09Z</time>
      </trkpt>
      <trkpt lat="43.35946" lon="5.8629">
        <ele>435.13</ele>
        <time>2026-03-27T14:02:27Z</time>
      </trkpt>
      <trkpt lat="43.35946" lon="5.86286">
        <ele>434.65</ele>
        <time>2026-03-27T14:02:47Z</time>
      </trkpt>
      <trkpt lat="43.35945" lon="5.86289">
        <ele>435.61</ele>
        <time>2026-03-27T14:03:08Z</time>
      </trkpt>
      <trkpt lat="43.35947" lon="5.86285">
        <ele>438.5</ele>
        <time>2026-03-27T14:03:27Z</time>
      </trkpt>
      <trkpt lat="43.35946" lon="5.86281">
        <ele>437.06</ele>
        <time>2026-03-27T14:03:36Z</time>
      </trkpt>
      <trkpt lat="43.35941" lon="5.86282">
        <ele>436.1</ele>
        <time>2026-03-27T14:03:46Z</time>
      </trkpt>
      <trkpt lat="43.35932" lon="5.86288">
        <ele>437.06</ele>
        <time>2026-03-27T14:03:59Z</time>
      </trkpt>
      <trkpt lat="43.35929" lon="5.86286">
        <ele>438.98</ele>
        <time>2026-03-27T14:04:12Z</time>
      </trkpt>
      <trkpt lat="43.3593" lon="5.86277">
        <ele>440.42</ele>
        <time>2026-03-27T14:04:31Z</time>
      </trkpt>
      <trkpt lat="43.35932" lon="5.86276">
        <ele>440.9</ele>
        <time>2026-03-27T14:05:00Z</time>
      </trkpt>
      <trkpt lat="43.35936" lon="5.86272">
        <ele>441.38</ele>
        <time>2026-03-27T14:05:14Z</time>
      </trkpt>
      <trkpt lat="43.35937" lon="5.86271">
        <ele>442.82</ele>
        <time>2026-03-27T14:05:26Z</time>
      </trkpt>
      <trkpt lat="43.35938" lon="5.86272">
        <ele>443.31</ele>
        <time>2026-03-27T14:05:39Z</time>
      </trkpt>
      <trkpt lat="43.35943" lon="5.86273">
        <ele>442.82</ele>
        <time>2026-03-27T14:05:53Z</time>
      </trkpt>
      <trkpt lat="43.35947" lon="5.86277">
        <ele>441.86</ele>
        <time>2026-03-27T14:06:04Z</time>
      </trkpt>
      <trkpt lat="43.35949" lon="5.8628">
        <ele>441.38</ele>
        <time>2026-03-27T14:06:28Z</time>
      </trkpt>
      <trkpt lat="43.35953" lon="5.86283">
        <ele>440.42</ele>
        <time>2026-03-27T14:06:39Z</time>
      </trkpt>
      <trkpt lat="43.35958" lon="5.86285">
        <ele>443.31</ele>
        <time>2026-03-27T14:06:58Z</time>
      </trkpt>
      <trkpt lat="43.35958" lon="5.86287">
        <ele>442.82</ele>
        <time>2026-03-27T14:07:17Z</time>
      </trkpt>
      <trkpt lat="43.35962" lon="5.8629">
        <ele>441.38</ele>
        <time>2026-03-27T14:07:29Z</time>
      </trkpt>
      <trkpt lat="43.35962" lon="5.86293">
        <ele>440.42</ele>
        <time>2026-03-27T14:07:42Z</time>
      </trkpt>
      <trkpt lat="43.35964" lon="5.86298">
        <ele>439.46</ele>
        <time>2026-03-27T14:07:48Z</time>
      </trkpt>
      <trkpt lat="43.35967" lon="5.86299">
        <ele>438.98</ele>
        <time>2026-03-27T14:07:51Z</time>
      </trkpt>
      <trkpt lat="43.35972" lon="5.86304">
        <ele>440.42</ele>
        <time>2026-03-27T14:08:03Z</time>
      </trkpt>
      <trkpt lat="43.35974" lon="5.86309">
        <ele>440.9</ele>
        <time>2026-03-27T14:08:09Z</time>
      </trkpt>
      <trkpt lat="43.35976" lon="5.86316">
        <ele>440.9</ele>
        <time>2026-03-27T14:08:19Z</time>
      </trkpt>
      <trkpt lat="43.35978" lon="5.86318">
        <ele>440.9</ele>
        <time>2026-03-27T14:08:22Z</time>
      </trkpt>
      <trkpt lat="43.35981" lon="5.86324">
        <ele>441.38</ele>
        <time>2026-03-27T14:08:32Z</time>
      </trkpt>
      <trkpt lat="43.35982" lon="5.86332">
        <ele>440.42</ele>
        <time>2026-03-27T14:08:45Z</time>
      </trkpt>
      <trkpt lat="43.35985" lon="5.8634">
        <ele>438.98</ele>
        <time>2026-03-27T14:08:55Z</time>
      </trkpt>
      <trkpt lat="43.3599" lon="5.8635">
        <ele>437.54</ele>
        <time>2026-03-27T14:09:08Z</time>
      </trkpt>
      <trkpt lat="43.35992" lon="5.86358">
        <ele>437.06</ele>
        <time>2026-03-27T14:09:21Z</time>
      </trkpt>
      <trkpt lat="43.35997" lon="5.8636">
        <ele>436.1</ele>
        <time>2026-03-27T14:09:36Z</time>
      </trkpt>
      <trkpt lat="43.36004" lon="5.86366">
        <ele>435.13</ele>
        <time>2026-03-27T14:09:51Z</time>
      </trkpt>
      <trkpt lat="43.36006" lon="5.86372">
        <ele>436.1</ele>
        <time>2026-03-27T14:10:02Z</time>
      </trkpt>
      <trkpt lat="43.36008" lon="5.86383">
        <ele>434.65</ele>
        <time>2026-03-27T14:10:15Z</time>
      </trkpt>
      <trkpt lat="43.36008" lon="5.86392">
        <ele>435.61</ele>
        <time>2026-03-27T14:10:27Z</time>
      </trkpt>
      <trkpt lat="43.36008" lon="5.86403">
        <ele>435.13</ele>
        <time>2026-03-27T14:10:39Z</time>
      </trkpt>
      <trkpt lat="43.36008" lon="5.86413">
        <ele>434.17</ele>
        <time>2026-03-27T14:10:52Z</time>
      </trkpt>
      <trkpt lat="43.36008" lon="5.86419">
        <ele>433.21</ele>
        <time>2026-03-27T14:10:58Z</time>
      </trkpt>
      <trkpt lat="43.36008" lon="5.86429">
        <ele>432.73</ele>
        <time>2026-03-27T14:11:09Z</time>
      </trkpt>
      <trkpt lat="43.3601" lon="5.86439">
        <ele>432.73</ele>
        <time>2026-03-27T14:11:22Z</time>
      </trkpt>
      <trkpt lat="43.36014" lon="5.86444">
        <ele>433.69</ele>
        <time>2026-03-27T14:11:35Z</time>
      </trkpt>
      <trkpt lat="43.36014" lon="5.86444">
        <ele>433.69</ele>
        <time>2026-03-27T14:11:36Z</time>
      </trkpt>
      <trkpt lat="43.36016" lon="5.86447">
        <ele>433.69</ele>
        <time>2026-03-27T14:11:42Z</time>
      </trkpt>
      <trkpt lat="43.36017" lon="5.86458">
        <ele>433.69</ele>
        <time>2026-03-27T14:11:53Z</time>
      </trkpt>
      <trkpt lat="43.36014" lon="5.86471">
        <ele>433.21</ele>
        <time>2026-03-27T14:12:05Z</time>
      </trkpt>
      <trkpt lat="43.36017" lon="5.86484">
        <ele>431.77</ele>
        <time>2026-03-27T14:12:16Z</time>
      </trkpt>
      <trkpt lat="43.36018" lon="5.86488">
        <ele>431.29</ele>
        <time>2026-03-27T14:12:19Z</time>
      </trkpt>
      <trkpt lat="43.3602" lon="5.86503">
        <ele>430.81</ele>
        <time>2026-03-27T14:12:30Z</time>
      </trkpt>
      <trkpt lat="43.36022" lon="5.86518">
        <ele>429.37</ele>
        <time>2026-03-27T14:12:41Z</time>
      </trkpt>
      <trkpt lat="43.36025" lon="5.86529">
        <ele>429.85</ele>
        <time>2026-03-27T14:12:51Z</time>
      </trkpt>
      <trkpt lat="43.36026" lon="5.86542">
        <ele>429.37</ele>
        <time>2026-03-27T14:13:02Z</time>
      </trkpt>
      <trkpt lat="43.36026" lon="5.86543">
        <ele>428.89</ele>
        <time>2026-03-27T14:13:04Z</time>
      </trkpt>
      <trkpt lat="43.36028" lon="5.86554">
        <ele>429.37</ele>
        <time>2026-03-27T14:13:14Z</time>
      </trkpt>
      <trkpt lat="43.36029" lon="5.86562">
        <ele>429.37</ele>
        <time>2026-03-27T14:13:21Z</time>
      </trkpt>
      <trkpt lat="43.3603" lon="5.86567">
        <ele>429.37</ele>
        <time>2026-03-27T14:13:25Z</time>
      </trkpt>
      <trkpt lat="43.36033" lon="5.86578">
        <ele>429.37</ele>
        <time>2026-03-27T14:13:35Z</time>
      </trkpt>
      <trkpt lat="43.36035" lon="5.86591">
        <ele>428.89</ele>
        <time>2026-03-27T14:13:46Z</time>
      </trkpt>
      <trkpt lat="43.36036" lon="5.86597">
        <ele>426.96</ele>
        <time>2026-03-27T14:13:53Z</time>
      </trkpt>
      <trkpt lat="43.36037" lon="5.86613">
        <ele>428.4</ele>
        <time>2026-03-27T14:14:05Z</time>
      </trkpt>
      <trkpt lat="43.36042" lon="5.86625">
        <ele>428.89</ele>
        <time>2026-03-27T14:14:15Z</time>
      </trkpt>
      <trkpt lat="43.36048" lon="5.86635">
        <ele>426.96</ele>
        <time>2026-03-27T14:14:26Z</time>
      </trkpt>
      <trkpt lat="43.3605" lon="5.86639">
        <ele>426.48</ele>
        <time>2026-03-27T14:14:30Z</time>
      </trkpt>
      <trkpt lat="43.36059" lon="5.86646">
        <ele>427.44</ele>
        <time>2026-03-27T14:14:39Z</time>
      </trkpt>
      <trkpt lat="43.36064" lon="5.86659">
        <ele>428.4</ele>
        <time>2026-03-27T14:14:50Z</time>
      </trkpt>
      <trkpt lat="43.36066" lon="5.86663">
        <ele>428.4</ele>
        <time>2026-03-27T14:14:55Z</time>
      </trkpt>
      <trkpt lat="43.36072" lon="5.86671">
        <ele>429.37</ele>
        <time>2026-03-27T14:15:05Z</time>
      </trkpt>
      <trkpt lat="43.36076" lon="5.86674">
        <ele>430.81</ele>
        <time>2026-03-27T14:15:20Z</time>
      </trkpt>
      <trkpt lat="43.36077" lon="5.86675">
        <ele>429.85</ele>
        <time>2026-03-27T14:15:41Z</time>
      </trkpt>
      <trkpt lat="43.3608" lon="5.86674">
        <ele>427.44</ele>
        <time>2026-03-27T14:16:10Z</time>
      </trkpt>
      <trkpt lat="43.36083" lon="5.86679">
        <ele>430.33</ele>
        <time>2026-03-27T14:16:23Z</time>
      </trkpt>
      <trkpt lat="43.36092" lon="5.86685">
        <ele>429.85</ele>
        <time>2026-03-27T14:16:33Z</time>
      </trkpt>
      <trkpt lat="43.36095" lon="5.86689">
        <ele>430.81</ele>
        <time>2026-03-27T14:16:38Z</time>
      </trkpt>
      <trkpt lat="43.36095" lon="5.86695">
        <ele>431.29</ele>
        <time>2026-03-27T14:16:42Z</time>
      </trkpt>
      <trkpt lat="43.36101" lon="5.86701">
        <ele>430.81</ele>
        <time>2026-03-27T14:16:48Z</time>
      </trkpt>
      <trkpt lat="43.36105" lon="5.86711">
        <ele>426.96</ele>
        <time>2026-03-27T14:16:57Z</time>
      </trkpt>
      <trkpt lat="43.36112" lon="5.86723">
        <ele>426.48</ele>
        <time>2026-03-27T14:17:08Z</time>
      </trkpt>
      <trkpt lat="43.36114" lon="5.86725">
        <ele>426.48</ele>
        <time>2026-03-27T14:17:11Z</time>
      </trkpt>
      <trkpt lat="43.36117" lon="5.8673">
        <ele>426.48</ele>
        <time>2026-03-27T14:17:16Z</time>
      </trkpt>
      <trkpt lat="43.36123" lon="5.86741">
        <ele>429.37</ele>
        <time>2026-03-27T14:17:30Z</time>
      </trkpt>
      <trkpt lat="43.36128" lon="5.86749">
        <ele>429.85</ele>
        <time>2026-03-27T14:17:44Z</time>
      </trkpt>
      <trkpt lat="43.36136" lon="5.86756">
        <ele>428.4</ele>
        <time>2026-03-27T14:17:53Z</time>
      </trkpt>
      <trkpt lat="43.36139" lon="5.8676">
        <ele>427.92</ele>
        <time>2026-03-27T14:17:57Z</time>
      </trkpt>
      <trkpt lat="43.36146" lon="5.86765">
        <ele>428.4</ele>
        <time>2026-03-27T14:18:04Z</time>
      </trkpt>
      <trkpt lat="43.36151" lon="5.86772">
        <ele>428.4</ele>
        <time>2026-03-27T14:18:10Z</time>
      </trkpt>
      <trkpt lat="43.36156" lon="5.86778">
        <ele>427.92</ele>
        <time>2026-03-27T14:18:18Z</time>
      </trkpt>
      <trkpt lat="43.36159" lon="5.86787">
        <ele>427.92</ele>
        <time>2026-03-27T14:18:25Z</time>
      </trkpt>
      <trkpt lat="43.36167" lon="5.86799">
        <ele>427.92</ele>
        <time>2026-03-27T14:18:38Z</time>
      </trkpt>
      <trkpt lat="43.36173" lon="5.86805">
        <ele>428.4</ele>
        <time>2026-03-27T14:18:46Z</time>
      </trkpt>
      <trkpt lat="43.36181" lon="5.86816">
        <ele>428.89</ele>
        <time>2026-03-27T14:18:59Z</time>
      </trkpt>
      <trkpt lat="43.3619" lon="5.86824">
        <ele>428.89</ele>
        <time>2026-03-27T14:19:10Z</time>
      </trkpt>
      <trkpt lat="43.36191" lon="5.86835">
        <ele>429.85</ele>
        <time>2026-03-27T14:19:23Z</time>
      </trkpt>
      <trkpt lat="43.36188" lon="5.86841">
        <ele>428.4</ele>
        <time>2026-03-27T14:19:39Z</time>
      </trkpt>
      <trkpt lat="43.36183" lon="5.86849">
        <ele>426.48</ele>
        <time>2026-03-27T14:19:48Z</time>
      </trkpt>
      <trkpt lat="43.36178" lon="5.8686">
        <ele>425.04</ele>
        <time>2026-03-27T14:20:00Z</time>
      </trkpt>
      <trkpt lat="43.36173" lon="5.86868">
        <ele>424.08</ele>
        <time>2026-03-27T14:20:14Z</time>
      </trkpt>
      <trkpt lat="43.36174" lon="5.86872">
        <ele>425.52</ele>
        <time>2026-03-27T14:20:36Z</time>
      </trkpt>
      <trkpt lat="43.36177" lon="5.86864">
        <ele>425.04</ele>
        <time>2026-03-27T14:21:05Z</time>
      </trkpt>
      <trkpt lat="43.36173" lon="5.8687">
        <ele>424.56</ele>
        <time>2026-03-27T14:21:28Z</time>
      </trkpt>
      <trkpt lat="43.36168" lon="5.86877">
        <ele>425.04</ele>
        <time>2026-03-27T14:21:40Z</time>
      </trkpt>
      <trkpt lat="43.36166" lon="5.86875">
        <ele>426</ele>
        <time>2026-03-27T14:21:52Z</time>
      </trkpt>
      <trkpt lat="43.36165" lon="5.86868">
        <ele>426</ele>
        <time>2026-03-27T14:22:01Z</time>
      </trkpt>
      <trkpt lat="43.3617" lon="5.86873">
        <ele>426.48</ele>
        <time>2026-03-27T14:22:22Z</time>
      </trkpt>
      <trkpt lat="43.3617" lon="5.86874">
        <ele>426.96</ele>
        <time>2026-03-27T14:22:23Z</time>
      </trkpt>
      <trkpt lat="43.36165" lon="5.86887">
        <ele>426.96</ele>
        <time>2026-03-27T14:22:35Z</time>
      </trkpt>
      <trkpt lat="43.36166" lon="5.86892">
        <ele>428.4</ele>
        <time>2026-03-27T14:22:41Z</time>
      </trkpt>
      <trkpt lat="43.3617" lon="5.869">
        <ele>426.48</ele>
        <time>2026-03-27T14:22:52Z</time>
      </trkpt>
      <trkpt lat="43.36172" lon="5.86908">
        <ele>426</ele>
        <time>2026-03-27T14:23:04Z</time>
      </trkpt>
      <trkpt lat="43.36174" lon="5.86908">
        <ele>427.92</ele>
        <time>2026-03-27T14:23:19Z</time>
      </trkpt>
      <trkpt lat="43.3617" lon="5.86903">
        <ele>424.08</ele>
        <time>2026-03-27T14:23:29Z</time>
      </trkpt>
      <trkpt lat="43.36159" lon="5.86897">
        <ele>422.64</ele>
        <time>2026-03-27T14:23:39Z</time>
      </trkpt>
      <trkpt lat="43.36159" lon="5.86896">
        <ele>422.64</ele>
        <time>2026-03-27T14:23:40Z</time>
      </trkpt>
      <trkpt lat="43.36156" lon="5.86895">
        <ele>424.56</ele>
        <time>2026-03-27T14:23:47Z</time>
      </trkpt>
      <trkpt lat="43.36153" lon="5.86901">
        <ele>427.44</ele>
        <time>2026-03-27T14:23:59Z</time>
      </trkpt>
      <trkpt lat="43.36148" lon="5.86904">
        <ele>429.37</ele>
        <time>2026-03-27T14:24:10Z</time>
      </trkpt>
      <trkpt lat="43.36142" lon="5.86911">
        <ele>430.33</ele>
        <time>2026-03-27T14:24:21Z</time>
      </trkpt>
      <trkpt lat="43.36138" lon="5.86919">
        <ele>432.25</ele>
        <time>2026-03-27T14:24:31Z</time>
      </trkpt>
      <trkpt lat="43.36138" lon="5.86918">
        <ele>432.25</ele>
        <time>2026-03-27T14:24:44Z</time>
      </trkpt>
      <trkpt lat="43.36138" lon="5.86923">
        <ele>432.25</ele>
        <time>2026-03-27T14:24:51Z</time>
      </trkpt>
      <trkpt lat="43.36143" lon="5.86935">
        <ele>431.29</ele>
        <time>2026-03-27T14:25:02Z</time>
      </trkpt>
      <trkpt lat="43.36146" lon="5.86937">
        <ele>430.33</ele>
        <time>2026-03-27T14:25:07Z</time>
      </trkpt>
      <trkpt lat="43.3615" lon="5.86946">
        <ele>429.37</ele>
        <time>2026-03-27T14:25:19Z</time>
      </trkpt>
      <trkpt lat="43.36159" lon="5.86954">
        <ele>427.44</ele>
        <time>2026-03-27T14:25:33Z</time>
      </trkpt>
      <trkpt lat="43.36167" lon="5.86959">
        <ele>425.04</ele>
        <time>2026-03-27T14:25:43Z</time>
      </trkpt>
      <trkpt lat="43.36172" lon="5.86967">
        <ele>423.12</ele>
        <time>2026-03-27T14:25:53Z</time>
      </trkpt>
      <trkpt lat="43.36174" lon="5.86975">
        <ele>421.68</ele>
        <time>2026-03-27T14:26:00Z</time>
      </trkpt>
      <trkpt lat="43.3618" lon="5.86988">
        <ele>421.19</ele>
        <time>2026-03-27T14:26:11Z</time>
      </trkpt>
      <trkpt lat="43.36183" lon="5.86995">
        <ele>421.19</ele>
        <time>2026-03-27T14:26:21Z</time>
      </trkpt>
      <trkpt lat="43.36189" lon="5.86998">
        <ele>420.71</ele>
        <time>2026-03-27T14:26:40Z</time>
      </trkpt>
      <trkpt lat="43.36195" lon="5.87002">
        <ele>422.16</ele>
        <time>2026-03-27T14:26:55Z</time>
      </trkpt>
      <trkpt lat="43.36197" lon="5.87005">
        <ele>422.16</ele>
        <time>2026-03-27T14:26:58Z</time>
      </trkpt>
      <trkpt lat="43.36204" lon="5.87009">
        <ele>423.12</ele>
        <time>2026-03-27T14:27:06Z</time>
      </trkpt>
      <trkpt lat="43.36208" lon="5.87019">
        <ele>425.52</ele>
        <time>2026-03-27T14:27:15Z</time>
      </trkpt>
      <trkpt lat="43.36211" lon="5.87026">
        <ele>425.04</ele>
        <time>2026-03-27T14:27:22Z</time>
      </trkpt>
      <trkpt lat="43.3622" lon="5.87035">
        <ele>424.08</ele>
        <time>2026-03-27T14:27:33Z</time>
      </trkpt>
      <trkpt lat="43.36221" lon="5.87036">
        <ele>424.56</ele>
        <time>2026-03-27T14:27:35Z</time>
      </trkpt>
      <trkpt lat="43.36224" lon="5.8704">
        <ele>424.08</ele>
        <time>2026-03-27T14:27:40Z</time>
      </trkpt>
      <trkpt lat="43.36223" lon="5.87041">
        <ele>423.6</ele>
        <time>2026-03-27T14:27:44Z</time>
      </trkpt>
      <trkpt lat="43.36223" lon="5.87036">
        <ele>423.12</ele>
        <time>2026-03-27T14:27:56Z</time>
      </trkpt>
      <trkpt lat="43.36224" lon="5.87038">
        <ele>424.56</ele>
        <time>2026-03-27T14:28:09Z</time>
      </trkpt>
      <trkpt lat="43.36226" lon="5.87047">
        <ele>423.6</ele>
        <time>2026-03-27T14:28:16Z</time>
      </trkpt>
      <trkpt lat="43.3623" lon="5.87062">
        <ele>426</ele>
        <time>2026-03-27T14:28:29Z</time>
      </trkpt>
      <trkpt lat="43.36232" lon="5.87069">
        <ele>427.92</ele>
        <time>2026-03-27T14:28:38Z</time>
      </trkpt>
      <trkpt lat="43.36241" lon="5.87082">
        <ele>425.52</ele>
        <time>2026-03-27T14:28:54Z</time>
      </trkpt>
      <trkpt lat="43.36242" lon="5.87083">
        <ele>425.04</ele>
        <time>2026-03-27T14:28:55Z</time>
      </trkpt>
      <trkpt lat="43.36251" lon="5.87091">
        <ele>425.52</ele>
        <time>2026-03-27T14:29:06Z</time>
      </trkpt>
      <trkpt lat="43.36262" lon="5.87099">
        <ele>425.52</ele>
        <time>2026-03-27T14:29:17Z</time>
      </trkpt>
      <trkpt lat="43.36269" lon="5.87107">
        <ele>425.52</ele>
        <time>2026-03-27T14:29:30Z</time>
      </trkpt>
      <trkpt lat="43.36274" lon="5.87113">
        <ele>423.6</ele>
        <time>2026-03-27T14:29:41Z</time>
      </trkpt>
      <trkpt lat="43.36282" lon="5.87119">
        <ele>421.68</ele>
        <time>2026-03-27T14:29:52Z</time>
      </trkpt>
      <trkpt lat="43.36288" lon="5.87126">
        <ele>421.19</ele>
        <time>2026-03-27T14:30:02Z</time>
      </trkpt>
      <trkpt lat="43.36295" lon="5.87138">
        <ele>420.23</ele>
        <time>2026-03-27T14:30:13Z</time>
      </trkpt>
      <trkpt lat="43.36299" lon="5.87145">
        <ele>419.75</ele>
        <time>2026-03-27T14:30:20Z</time>
      </trkpt>
      <trkpt lat="43.36305" lon="5.87159">
        <ele>421.68</ele>
        <time>2026-03-27T14:30:33Z</time>
      </trkpt>
      <trkpt lat="43.36305" lon="5.87162">
        <ele>421.19</ele>
        <time>2026-03-27T14:30:50Z</time>
      </trkpt>
      <trkpt lat="43.36311" lon="5.87179">
        <ele>425.52</ele>
        <time>2026-03-27T14:31:06Z</time>
      </trkpt>
      <trkpt lat="43.36321" lon="5.87192">
        <ele>424.56</ele>
        <time>2026-03-27T14:31:17Z</time>
      </trkpt>
      <trkpt lat="43.36326" lon="5.87198">
        <ele>423.12</ele>
        <time>2026-03-27T14:31:24Z</time>
      </trkpt>
      <trkpt lat="43.36333" lon="5.87208">
        <ele>424.08</ele>
        <time>2026-03-27T14:31:34Z</time>
      </trkpt>
      <trkpt lat="43.3634" lon="5.8722">
        <ele>426.48</ele>
        <time>2026-03-27T14:31:45Z</time>
      </trkpt>
      <trkpt lat="43.3634" lon="5.8722">
        <ele>426.96</ele>
        <time>2026-03-27T14:31:46Z</time>
      </trkpt>
      <trkpt lat="43.36344" lon="5.87225">
        <ele>426.48</ele>
        <time>2026-03-27T14:31:51Z</time>
      </trkpt>
      <trkpt lat="43.36348" lon="5.87227">
        <ele>426.48</ele>
        <time>2026-03-27T14:31:55Z</time>
      </trkpt>
      <trkpt lat="43.36351" lon="5.87244">
        <ele>426.48</ele>
        <time>2026-03-27T14:32:06Z</time>
      </trkpt>
      <trkpt lat="43.36352" lon="5.87245">
        <ele>426</ele>
        <time>2026-03-27T14:32:08Z</time>
      </trkpt>
      <trkpt lat="43.36351" lon="5.87265">
        <ele>427.92</ele>
        <time>2026-03-27T14:32:21Z</time>
      </trkpt>
      <trkpt lat="43.36354" lon="5.87282">
        <ele>427.44</ele>
        <time>2026-03-27T14:32:37Z</time>
      </trkpt>
      <trkpt lat="43.36356" lon="5.87292">
        <ele>427.44</ele>
        <time>2026-03-27T14:32:57Z</time>
      </trkpt>
      <trkpt lat="43.36357" lon="5.87299">
        <ele>426.48</ele>
        <time>2026-03-27T14:33:06Z</time>
      </trkpt>
      <trkpt lat="43.36362" lon="5.87316">
        <ele>426</ele>
        <time>2026-03-27T14:33:21Z</time>
      </trkpt>
      <trkpt lat="43.36362" lon="5.87325">
        <ele>425.52</ele>
        <time>2026-03-27T14:33:34Z</time>
      </trkpt>
      <trkpt lat="43.36354" lon="5.87322">
        <ele>425.52</ele>
        <time>2026-03-27T14:33:47Z</time>
      </trkpt>
      <trkpt lat="43.36353" lon="5.87323">
        <ele>425.52</ele>
        <time>2026-03-27T14:33:49Z</time>
      </trkpt>
      <trkpt lat="43.36355" lon="5.87325">
        <ele>425.52</ele>
        <time>2026-03-27T14:34:03Z</time>
      </trkpt>
      <trkpt lat="43.36357" lon="5.87343">
        <ele>424.56</ele>
        <time>2026-03-27T14:34:19Z</time>
      </trkpt>
      <trkpt lat="43.36359" lon="5.8736">
        <ele>424.08</ele>
        <time>2026-03-27T14:34:34Z</time>
      </trkpt>
      <trkpt lat="43.36358" lon="5.87366">
        <ele>422.64</ele>
        <time>2026-03-27T14:34:50Z</time>
      </trkpt>
      <trkpt lat="43.36353" lon="5.87367">
        <ele>422.16</ele>
        <time>2026-03-27T14:35:13Z</time>
      </trkpt>
      <trkpt lat="43.36343" lon="5.8737">
        <ele>424.56</ele>
        <time>2026-03-27T14:35:31Z</time>
      </trkpt>
      <trkpt lat="43.36341" lon="5.87368">
        <ele>427.92</ele>
        <time>2026-03-27T14:35:53Z</time>
      </trkpt>
      <trkpt lat="43.3634" lon="5.87368">
        <ele>428.4</ele>
        <time>2026-03-27T14:36:06Z</time>
      </trkpt>
      <trkpt lat="43.36339" lon="5.87368">
        <ele>429.37</ele>
        <time>2026-03-27T14:36:23Z</time>
      </trkpt>
      <trkpt lat="43.36333" lon="5.87373">
        <ele>430.33</ele>
        <time>2026-03-27T14:36:39Z</time>
      </trkpt>
      <trkpt lat="43.3633" lon="5.87368">
        <ele>432.73</ele>
        <time>2026-03-27T14:36:58Z</time>
      </trkpt>
      <trkpt lat="43.36331" lon="5.8737">
        <ele>433.69</ele>
        <time>2026-03-27T14:37:28Z</time>
      </trkpt>
      <trkpt lat="43.36332" lon="5.87375">
        <ele>430.81</ele>
        <time>2026-03-27T14:37:40Z</time>
      </trkpt>
      <trkpt lat="43.3633" lon="5.87381">
        <ele>430.81</ele>
        <time>2026-03-27T14:37:52Z</time>
      </trkpt>
      <trkpt lat="43.36321" lon="5.87385">
        <ele>432.73</ele>
        <time>2026-03-27T14:38:05Z</time>
      </trkpt>
      <trkpt lat="43.36315" lon="5.87387">
        <ele>435.61</ele>
        <time>2026-03-27T14:38:19Z</time>
      </trkpt>
      <trkpt lat="43.3631" lon="5.87384">
        <ele>435.13</ele>
        <time>2026-03-27T14:38:38Z</time>
      </trkpt>
      <trkpt lat="43.36308" lon="5.87388">
        <ele>437.54</ele>
        <time>2026-03-27T14:39:02Z</time>
      </trkpt>
      <trkpt lat="43.36301" lon="5.87391">
        <ele>437.54</ele>
        <time>2026-03-27T14:39:15Z</time>
      </trkpt>
      <trkpt lat="43.36294" lon="5.87391">
        <ele>441.38</ele>
        <time>2026-03-27T14:39:29Z</time>
      </trkpt>
      <trkpt lat="43.36294" lon="5.87389">
        <ele>441.86</ele>
        <time>2026-03-27T14:39:33Z</time>
      </trkpt>
      <trkpt lat="43.36288" lon="5.87391">
        <ele>439.94</ele>
        <time>2026-03-27T14:39:45Z</time>
      </trkpt>
      <trkpt lat="43.36285" lon="5.87396">
        <ele>444.27</ele>
        <time>2026-03-27T14:39:58Z</time>
      </trkpt>
      <trkpt lat="43.36281" lon="5.874">
        <ele>445.71</ele>
        <time>2026-03-27T14:40:10Z</time>
      </trkpt>
      <trkpt lat="43.36275" lon="5.874">
        <ele>445.71</ele>
        <time>2026-03-27T14:40:23Z</time>
      </trkpt>
      <trkpt lat="43.36269" lon="5.87401">
        <ele>445.71</ele>
        <time>2026-03-27T14:40:35Z</time>
      </trkpt>
      <trkpt lat="43.36262" lon="5.87399">
        <ele>447.63</ele>
        <time>2026-03-27T14:40:52Z</time>
      </trkpt>
      <trkpt lat="43.36267" lon="5.87392">
        <ele>446.67</ele>
        <time>2026-03-27T14:41:16Z</time>
      </trkpt>
      <trkpt lat="43.36261" lon="5.87396">
        <ele>445.71</ele>
        <time>2026-03-27T14:41:35Z</time>
      </trkpt>
      <trkpt lat="43.36258" lon="5.87399">
        <ele>445.23</ele>
        <time>2026-03-27T14:41:40Z</time>
      </trkpt>
      <trkpt lat="43.3625" lon="5.87395">
        <ele>448.11</ele>
        <time>2026-03-27T14:41:53Z</time>
      </trkpt>
      <trkpt lat="43.36245" lon="5.87383">
        <ele>449.07</ele>
        <time>2026-03-27T14:42:06Z</time>
      </trkpt>
      <trkpt lat="43.36243" lon="5.87379">
        <ele>451.48</ele>
        <time>2026-03-27T14:42:19Z</time>
      </trkpt>
      <trkpt lat="43.36241" lon="5.87373">
        <ele>452.92</ele>
        <time>2026-03-27T14:42:33Z</time>
      </trkpt>
      <trkpt lat="43.36242" lon="5.87372">
        <ele>454.36</ele>
        <time>2026-03-27T14:42:48Z</time>
      </trkpt>
      <trkpt lat="43.3624" lon="5.87372">
        <ele>453.4</ele>
        <time>2026-03-27T14:43:04Z</time>
      </trkpt>
      <trkpt lat="43.36237" lon="5.8737">
        <ele>451.48</ele>
        <time>2026-03-27T14:43:32Z</time>
      </trkpt>
      <trkpt lat="43.36235" lon="5.87371">
        <ele>452.44</ele>
        <time>2026-03-27T14:43:50Z</time>
      </trkpt>
      <trkpt lat="43.36232" lon="5.87364">
        <ele>455.8</ele>
        <time>2026-03-27T14:44:03Z</time>
      </trkpt>
      <trkpt lat="43.36229" lon="5.87359">
        <ele>453.4</ele>
        <time>2026-03-27T14:44:24Z</time>
      </trkpt>
      <trkpt lat="43.36228" lon="5.8736">
        <ele>454.36</ele>
        <time>2026-03-27T14:45:05Z</time>
      </trkpt>
      <trkpt lat="43.36229" lon="5.87355">
        <ele>460.13</ele>
        <time>2026-03-27T14:45:31Z</time>
      </trkpt>
      <trkpt lat="43.36229" lon="5.87353">
        <ele>458.21</ele>
        <time>2026-03-27T14:45:52Z</time>
      </trkpt>
      <trkpt lat="43.36228" lon="5.87351">
        <ele>454.36</ele>
        <time>2026-03-27T14:46:15Z</time>
      </trkpt>
      <trkpt lat="43.36228" lon="5.87353">
        <ele>455.8</ele>
        <time>2026-03-27T14:46:39Z</time>
      </trkpt>
      <trkpt lat="43.36227" lon="5.87353">
        <ele>456.28</ele>
        <time>2026-03-27T14:46:42Z</time>
      </trkpt>
      <trkpt lat="43.36221" lon="5.87346">
        <ele>455.8</ele>
        <time>2026-03-27T14:46:55Z</time>
      </trkpt>
      <trkpt lat="43.36214" lon="5.87335">
        <ele>456.28</ele>
        <time>2026-03-27T14:47:08Z</time>
      </trkpt>
      <trkpt lat="43.36208" lon="5.87328">
        <ele>455.8</ele>
        <time>2026-03-27T14:47:19Z</time>
      </trkpt>
      <trkpt lat="43.36201" lon="5.87324">
        <ele>456.28</ele>
        <time>2026-03-27T14:47:29Z</time>
      </trkpt>
      <trkpt lat="43.36194" lon="5.87324">
        <ele>456.28</ele>
        <time>2026-03-27T14:47:41Z</time>
      </trkpt>
      <trkpt lat="43.36185" lon="5.87319">
        <ele>456.28</ele>
        <time>2026-03-27T14:47:52Z</time>
      </trkpt>
      <trkpt lat="43.36176" lon="5.87312">
        <ele>456.76</ele>
        <time>2026-03-27T14:48:04Z</time>
      </trkpt>
      <trkpt lat="43.36168" lon="5.87308">
        <ele>456.76</ele>
        <time>2026-03-27T14:48:14Z</time>
      </trkpt>
      <trkpt lat="43.3616" lon="5.87306">
        <ele>456.76</ele>
        <time>2026-03-27T14:48:23Z</time>
      </trkpt>
      <trkpt lat="43.36153" lon="5.87298">
        <ele>455.32</ele>
        <time>2026-03-27T14:48:33Z</time>
      </trkpt>
      <trkpt lat="43.36141" lon="5.87296">
        <ele>454.84</ele>
        <time>2026-03-27T14:48:45Z</time>
      </trkpt>
      <trkpt lat="43.36132" lon="5.87294">
        <ele>452.44</ele>
        <time>2026-03-27T14:48:55Z</time>
      </trkpt>
      <trkpt lat="43.36123" lon="5.87294">
        <ele>452.92</ele>
        <time>2026-03-27T14:49:06Z</time>
      </trkpt>
      <trkpt lat="43.36111" lon="5.87299">
        <ele>454.36</ele>
        <time>2026-03-27T14:49:20Z</time>
      </trkpt>
      <trkpt lat="43.361" lon="5.87297">
        <ele>454.36</ele>
        <time>2026-03-27T14:49:32Z</time>
      </trkpt>
      <trkpt lat="43.36089" lon="5.87298">
        <ele>453.88</ele>
        <time>2026-03-27T14:49:44Z</time>
      </trkpt>
      <trkpt lat="43.36078" lon="5.873">
        <ele>453.4</ele>
        <time>2026-03-27T14:49:55Z</time>
      </trkpt>
      <trkpt lat="43.36076" lon="5.87301">
        <ele>453.4</ele>
        <time>2026-03-27T14:49:57Z</time>
      </trkpt>
      <trkpt lat="43.36069" lon="5.8731">
        <ele>453.88</ele>
        <time>2026-03-27T14:50:10Z</time>
      </trkpt>
      <trkpt lat="43.36064" lon="5.87319">
        <ele>453.88</ele>
        <time>2026-03-27T14:50:22Z</time>
      </trkpt>
      <trkpt lat="43.36063" lon="5.87328">
        <ele>454.84</ele>
        <time>2026-03-27T14:50:35Z</time>
      </trkpt>
      <trkpt lat="43.36063" lon="5.87334">
        <ele>455.32</ele>
        <time>2026-03-27T14:50:47Z</time>
      </trkpt>
      <trkpt lat="43.36064" lon="5.87339">
        <ele>456.28</ele>
        <time>2026-03-27T14:51:00Z</time>
      </trkpt>
      <trkpt lat="43.36068" lon="5.87353">
        <ele>456.28</ele>
        <time>2026-03-27T14:51:13Z</time>
      </trkpt>
      <trkpt lat="43.36072" lon="5.87367">
        <ele>455.32</ele>
        <time>2026-03-27T14:51:25Z</time>
      </trkpt>
      <trkpt lat="43.36074" lon="5.87381">
        <ele>457.24</ele>
        <time>2026-03-27T14:51:40Z</time>
      </trkpt>
      <trkpt lat="43.36075" lon="5.87386">
        <ele>457.24</ele>
        <time>2026-03-27T14:51:44Z</time>
      </trkpt>
      <trkpt lat="43.36081" lon="5.874">
        <ele>454.84</ele>
        <time>2026-03-27T14:51:56Z</time>
      </trkpt>
      <trkpt lat="43.36087" lon="5.8741">
        <ele>454.84</ele>
        <time>2026-03-27T14:52:06Z</time>
      </trkpt>
      <trkpt lat="43.36092" lon="5.87422">
        <ele>455.8</ele>
        <time>2026-03-27T14:52:17Z</time>
      </trkpt>
      <trkpt lat="43.36094" lon="5.87439">
        <ele>456.28</ele>
        <time>2026-03-27T14:52:29Z</time>
      </trkpt>
      <trkpt lat="43.36098" lon="5.87455">
        <ele>454.84</ele>
        <time>2026-03-27T14:52:42Z</time>
      </trkpt>
      <trkpt lat="43.361" lon="5.8746">
        <ele>454.84</ele>
        <time>2026-03-27T14:52:46Z</time>
      </trkpt>
      <trkpt lat="43.36105" lon="5.87471">
        <ele>453.88</ele>
        <time>2026-03-27T14:52:58Z</time>
      </trkpt>
      <trkpt lat="43.36108" lon="5.87485">
        <ele>453.4</ele>
        <time>2026-03-27T14:53:10Z</time>
      </trkpt>
      <trkpt lat="43.36112" lon="5.87498">
        <ele>452.92</ele>
        <time>2026-03-27T14:53:21Z</time>
      </trkpt>
      <trkpt lat="43.36114" lon="5.8751">
        <ele>452.92</ele>
        <time>2026-03-27T14:53:31Z</time>
      </trkpt>
      <trkpt lat="43.36116" lon="5.87521">
        <ele>451.96</ele>
        <time>2026-03-27T14:53:44Z</time>
      </trkpt>
      <trkpt lat="43.36119" lon="5.87526">
        <ele>451</ele>
        <time>2026-03-27T14:54:04Z</time>
      </trkpt>
      <trkpt lat="43.36123" lon="5.87532">
        <ele>451.48</ele>
        <time>2026-03-27T14:54:15Z</time>
      </trkpt>
      <trkpt lat="43.36122" lon="5.87532">
        <ele>450.52</ele>
        <time>2026-03-27T14:54:33Z</time>
      </trkpt>
      <trkpt lat="43.36121" lon="5.87533">
        <ele>450.52</ele>
        <time>2026-03-27T14:54:38Z</time>
      </trkpt>
      <trkpt lat="43.36115" lon="5.8753">
        <ele>450.52</ele>
        <time>2026-03-27T14:54:49Z</time>
      </trkpt>
      <trkpt lat="43.36115" lon="5.87531">
        <ele>450.52</ele>
        <time>2026-03-27T14:55:05Z</time>
      </trkpt>
      <trkpt lat="43.36116" lon="5.87532">
        <ele>450.03</ele>
        <time>2026-03-27T14:55:23Z</time>
      </trkpt>
      <trkpt lat="43.36115" lon="5.87532">
        <ele>449.07</ele>
        <time>2026-03-27T14:55:43Z</time>
      </trkpt>
      <trkpt lat="43.36116" lon="5.8753">
        <ele>448.59</ele>
        <time>2026-03-27T14:56:11Z</time>
      </trkpt>
      <trkpt lat="43.36116" lon="5.87532">
        <ele>449.07</ele>
        <time>2026-03-27T14:56:46Z</time>
      </trkpt>
      <trkpt lat="43.36116" lon="5.87532">
        <ele>450.03</ele>
        <time>2026-03-27T14:57:06Z</time>
      </trkpt>
      <trkpt lat="43.36114" lon="5.87533">
        <ele>446.67</ele>
        <time>2026-03-27T14:57:36Z</time>
      </trkpt>
      <trkpt lat="43.36114" lon="5.87536">
        <ele>449.07</ele>
        <time>2026-03-27T14:57:52Z</time>
      </trkpt>
      <trkpt lat="43.36114" lon="5.87536">
        <ele>449.07</ele>
        <time>2026-03-27T14:58:13Z</time>
      </trkpt>
      <trkpt lat="43.36114" lon="5.87537">
        <ele>449.55</ele>
        <time>2026-03-27T14:58:53Z</time>
      </trkpt>
      <trkpt lat="43.36115" lon="5.87538">
        <ele>448.59</ele>
        <time>2026-03-27T14:59:05Z</time>
      </trkpt>
      <trkpt lat="43.36114" lon="5.87551">
        <ele>448.11</ele>
        <time>2026-03-27T14:59:16Z</time>
      </trkpt>
      <trkpt lat="43.36114" lon="5.87566">
        <ele>449.55</ele>
        <time>2026-03-27T14:59:28Z</time>
      </trkpt>
      <trkpt lat="43.36115" lon="5.87579">
        <ele>451</ele>
        <time>2026-03-27T14:59:39Z</time>
      </trkpt>
      <trkpt lat="43.36114" lon="5.87592">
        <ele>451.48</ele>
        <time>2026-03-27T14:59:50Z</time>
      </trkpt>
      <trkpt lat="43.36113" lon="5.87603">
        <ele>451.48</ele>
        <time>2026-03-27T14:59:59Z</time>
      </trkpt>
      <trkpt lat="43.36112" lon="5.87616">
        <ele>451.96</ele>
        <time>2026-03-27T15:00:10Z</time>
      </trkpt>
      <trkpt lat="43.3611" lon="5.8763">
        <ele>449.55</ele>
        <time>2026-03-27T15:00:22Z</time>
      </trkpt>
      <trkpt lat="43.3611" lon="5.87639">
        <ele>449.55</ele>
        <time>2026-03-27T15:00:36Z</time>
      </trkpt>
      <trkpt lat="43.36109" lon="5.87653">
        <ele>449.55</ele>
        <time>2026-03-27T15:00:47Z</time>
      </trkpt>
      <trkpt lat="43.36109" lon="5.87668">
        <ele>448.59</ele>
        <time>2026-03-27T15:00:58Z</time>
      </trkpt>
      <trkpt lat="43.36111" lon="5.87678">
        <ele>448.59</ele>
        <time>2026-03-27T15:01:08Z</time>
      </trkpt>
      <trkpt lat="43.36113" lon="5.87691">
        <ele>448.59</ele>
        <time>2026-03-27T15:01:18Z</time>
      </trkpt>
      <trkpt lat="43.36115" lon="5.87702">
        <ele>447.63</ele>
        <time>2026-03-27T15:01:29Z</time>
      </trkpt>
      <trkpt lat="43.36115" lon="5.87705">
        <ele>447.15</ele>
        <time>2026-03-27T15:01:56Z</time>
      </trkpt>
      <trkpt lat="43.36117" lon="5.87715">
        <ele>447.15</ele>
        <time>2026-03-27T15:02:09Z</time>
      </trkpt>
      <trkpt lat="43.36119" lon="5.87728">
        <ele>447.15</ele>
        <time>2026-03-27T15:02:19Z</time>
      </trkpt>
      <trkpt lat="43.3612" lon="5.87739">
        <ele>447.15</ele>
        <time>2026-03-27T15:02:31Z</time>
      </trkpt>
      <trkpt lat="43.3612" lon="5.87741">
        <ele>447.15</ele>
        <time>2026-03-27T15:02:33Z</time>
      </trkpt>
      <trkpt lat="43.36121" lon="5.87757">
        <ele>447.15</ele>
        <time>2026-03-27T15:02:45Z</time>
      </trkpt>
      <trkpt lat="43.36123" lon="5.87775">
        <ele>449.07</ele>
        <time>2026-03-27T15:02:59Z</time>
      </trkpt>
      <trkpt lat="43.36124" lon="5.87784">
        <ele>448.11</ele>
        <time>2026-03-27T15:03:13Z</time>
      </trkpt>
      <trkpt lat="43.36124" lon="5.87807">
        <ele>445.71</ele>
        <time>2026-03-27T15:03:28Z</time>
      </trkpt>
      <trkpt lat="43.36124" lon="5.87818">
        <ele>445.71</ele>
        <time>2026-03-27T15:03:37Z</time>
      </trkpt>
      <trkpt lat="43.36124" lon="5.87822">
        <ele>445.23</ele>
        <time>2026-03-27T15:03:40Z</time>
      </trkpt>
      <trkpt lat="43.36125" lon="5.8783">
        <ele>444.75</ele>
        <time>2026-03-27T15:03:48Z</time>
      </trkpt>
      <trkpt lat="43.36127" lon="5.87843">
        <ele>443.31</ele>
        <time>2026-03-27T15:03:59Z</time>
      </trkpt>
      <trkpt lat="43.36129" lon="5.8785">
        <ele>441.86</ele>
        <time>2026-03-27T15:04:06Z</time>
      </trkpt>
      <trkpt lat="43.36131" lon="5.87854">
        <ele>441.86</ele>
        <time>2026-03-27T15:04:09Z</time>
      </trkpt>
      <trkpt lat="43.36131" lon="5.8787">
        <ele>442.34</ele>
        <time>2026-03-27T15:04:22Z</time>
      </trkpt>
      <trkpt lat="43.36133" lon="5.87882">
        <ele>441.86</ele>
        <time>2026-03-27T15:04:32Z</time>
      </trkpt>
      <trkpt lat="43.36132" lon="5.87889">
        <ele>439.46</ele>
        <time>2026-03-27T15:04:45Z</time>
      </trkpt>
      <trkpt lat="43.36128" lon="5.87886">
        <ele>437.06</ele>
        <time>2026-03-27T15:05:01Z</time>
      </trkpt>
      <trkpt lat="43.36128" lon="5.87888">
        <ele>439.94</ele>
        <time>2026-03-27T15:05:20Z</time>
      </trkpt>
      <trkpt lat="43.3613" lon="5.87891">
        <ele>440.9</ele>
        <time>2026-03-27T15:05:58Z</time>
      </trkpt>
      <trkpt lat="43.3613" lon="5.8789">
        <ele>441.86</ele>
        <time>2026-03-27T15:06:36Z</time>
      </trkpt>
      <trkpt lat="43.3613" lon="5.87889">
        <ele>443.79</ele>
        <time>2026-03-27T15:07:02Z</time>
      </trkpt>
      <trkpt lat="43.36129" lon="5.87888">
        <ele>442.82</ele>
        <time>2026-03-27T15:07:26Z</time>
      </trkpt>
      <trkpt lat="43.36129" lon="5.87897">
        <ele>441.38</ele>
        <time>2026-03-27T15:07:43Z</time>
      </trkpt>
      <trkpt lat="43.36127" lon="5.87903">
        <ele>440.42</ele>
        <time>2026-03-27T15:07:49Z</time>
      </trkpt>
      <trkpt lat="43.36123" lon="5.87916">
        <ele>438.02</ele>
        <time>2026-03-27T15:08:01Z</time>
      </trkpt>
      <trkpt lat="43.36123" lon="5.87918">
        <ele>438.02</ele>
        <time>2026-03-27T15:08:03Z</time>
      </trkpt>
      <trkpt lat="43.36122" lon="5.87932">
        <ele>437.06</ele>
        <time>2026-03-27T15:08:13Z</time>
      </trkpt>
      <trkpt lat="43.36121" lon="5.8794">
        <ele>436.1</ele>
        <time>2026-03-27T15:08:19Z</time>
      </trkpt>
      <trkpt lat="43.3612" lon="5.87955">
        <ele>435.13</ele>
        <time>2026-03-27T15:08:30Z</time>
      </trkpt>
      <trkpt lat="43.3612" lon="5.8796">
        <ele>435.13</ele>
        <time>2026-03-27T15:08:33Z</time>
      </trkpt>
      <trkpt lat="43.36124" lon="5.87967">
        <ele>434.65</ele>
        <time>2026-03-27T15:08:40Z</time>
      </trkpt>
      <trkpt lat="43.36127" lon="5.87982">
        <ele>436.1</ele>
        <time>2026-03-27T15:08:51Z</time>
      </trkpt>
      <trkpt lat="43.36127" lon="5.87989">
        <ele>436.58</ele>
        <time>2026-03-27T15:08:56Z</time>
      </trkpt>
      <trkpt lat="43.36127" lon="5.87993">
        <ele>436.1</ele>
        <time>2026-03-27T15:08:59Z</time>
      </trkpt>
      <trkpt lat="43.36131" lon="5.8801">
        <ele>435.61</ele>
        <time>2026-03-27T15:09:11Z</time>
      </trkpt>
      <trkpt lat="43.36133" lon="5.88022">
        <ele>435.13</ele>
        <time>2026-03-27T15:09:20Z</time>
      </trkpt>
      <trkpt lat="43.36137" lon="5.88034">
        <ele>437.06</ele>
        <time>2026-03-27T15:09:30Z</time>
      </trkpt>
      <trkpt lat="43.36137" lon="5.88035">
        <ele>437.06</ele>
        <time>2026-03-27T15:09:31Z</time>
      </trkpt>
      <trkpt lat="43.36139" lon="5.88038">
        <ele>436.1</ele>
        <time>2026-03-27T15:09:35Z</time>
      </trkpt>
      <trkpt lat="43.3614" lon="5.88043">
        <ele>436.58</ele>
        <time>2026-03-27T15:09:39Z</time>
      </trkpt>
      <trkpt lat="43.36146" lon="5.88057">
        <ele>436.1</ele>
        <time>2026-03-27T15:09:51Z</time>
      </trkpt>
      <trkpt lat="43.36147" lon="5.8806">
        <ele>436.1</ele>
        <time>2026-03-27T15:09:54Z</time>
      </trkpt>
      <trkpt lat="43.36154" lon="5.8807">
        <ele>436.1</ele>
        <time>2026-03-27T15:10:05Z</time>
      </trkpt>
      <trkpt lat="43.36158" lon="5.88084">
        <ele>436.58</ele>
        <time>2026-03-27T15:10:15Z</time>
      </trkpt>
      <trkpt lat="43.36163" lon="5.88098">
        <ele>437.06</ele>
        <time>2026-03-27T15:10:26Z</time>
      </trkpt>
      <trkpt lat="43.36164" lon="5.88101">
        <ele>436.58</ele>
        <time>2026-03-27T15:10:29Z</time>
      </trkpt>
      <trkpt lat="43.36163" lon="5.88114">
        <ele>436.1</ele>
        <time>2026-03-27T15:10:39Z</time>
      </trkpt>
      <trkpt lat="43.36164" lon="5.88116">
        <ele>436.1</ele>
        <time>2026-03-27T15:10:40Z</time>
      </trkpt>
      <trkpt lat="43.36167" lon="5.88123">
        <ele>436.58</ele>
        <time>2026-03-27T15:10:47Z</time>
      </trkpt>
      <trkpt lat="43.36166" lon="5.8813">
        <ele>436.1</ele>
        <time>2026-03-27T15:10:52Z</time>
      </trkpt>
      <trkpt lat="43.36166" lon="5.88144">
        <ele>435.61</ele>
        <time>2026-03-27T15:11:03Z</time>
      </trkpt>
      <trkpt lat="43.36166" lon="5.88157">
        <ele>434.17</ele>
        <time>2026-03-27T15:11:13Z</time>
      </trkpt>
      <trkpt lat="43.36165" lon="5.88169">
        <ele>434.17</ele>
        <time>2026-03-27T15:11:23Z</time>
      </trkpt>
      <trkpt lat="43.36162" lon="5.8818">
        <ele>433.21</ele>
        <time>2026-03-27T15:11:32Z</time>
      </trkpt>
      <trkpt lat="43.36161" lon="5.88185">
        <ele>433.21</ele>
        <time>2026-03-27T15:11:36Z</time>
      </trkpt>
      <trkpt lat="43.36154" lon="5.88196">
        <ele>431.77</ele>
        <time>2026-03-27T15:11:47Z</time>
      </trkpt>
      <trkpt lat="43.36153" lon="5.88194">
        <ele>434.17</ele>
        <time>2026-03-27T15:12:05Z</time>
      </trkpt>
      <trkpt lat="43.36152" lon="5.88195">
        <ele>434.17</ele>
        <time>2026-03-27T15:12:06Z</time>
      </trkpt>
      <trkpt lat="43.36145" lon="5.88204">
        <ele>432.25</ele>
        <time>2026-03-27T15:12:17Z</time>
      </trkpt>
      <trkpt lat="43.3614" lon="5.88207">
        <ele>431.77</ele>
        <time>2026-03-27T15:12:33Z</time>
      </trkpt>
      <trkpt lat="43.36138" lon="5.88208">
        <ele>431.77</ele>
        <time>2026-03-27T15:12:35Z</time>
      </trkpt>
      <trkpt lat="43.36135" lon="5.88216">
        <ele>431.77</ele>
        <time>2026-03-27T15:12:44Z</time>
      </trkpt>
      <trkpt lat="43.36135" lon="5.88209">
        <ele>434.65</ele>
        <time>2026-03-27T15:13:11Z</time>
      </trkpt>
      <trkpt lat="43.36134" lon="5.8821">
        <ele>436.1</ele>
        <time>2026-03-27T15:13:19Z</time>
      </trkpt>
      <trkpt lat="43.36134" lon="5.88209">
        <ele>435.13</ele>
        <time>2026-03-27T15:13:30Z</time>
      </trkpt>
      <trkpt lat="43.36135" lon="5.8821">
        <ele>435.61</ele>
        <time>2026-03-27T15:13:51Z</time>
      </trkpt>
      <trkpt lat="43.36136" lon="5.88209">
        <ele>434.17</ele>
        <time>2026-03-27T15:14:15Z</time>
      </trkpt>
      <trkpt lat="43.36135" lon="5.88209">
        <ele>433.69</ele>
        <time>2026-03-27T15:14:41Z</time>
      </trkpt>
      <trkpt lat="43.36135" lon="5.88209">
        <ele>434.17</ele>
        <time>2026-03-27T15:15:06Z</time>
      </trkpt>
      <trkpt lat="43.36134" lon="5.88208">
        <ele>436.1</ele>
        <time>2026-03-27T15:15:22Z</time>
      </trkpt>
      <trkpt lat="43.36134" lon="5.8821">
        <ele>437.54</ele>
        <time>2026-03-27T15:15:47Z</time>
      </trkpt>
      <trkpt lat="43.36135" lon="5.88213">
        <ele>434.65</ele>
        <time>2026-03-27T15:16:06Z</time>
      </trkpt>
      <trkpt lat="43.36134" lon="5.88209">
        <ele>435.61</ele>
        <time>2026-03-27T15:16:30Z</time>
      </trkpt>
      <trkpt lat="43.36134" lon="5.88207">
        <ele>433.69</ele>
        <time>2026-03-27T15:16:53Z</time>
      </trkpt>
      <trkpt lat="43.36135" lon="5.88208">
        <ele>434.17</ele>
        <time>2026-03-27T15:17:22Z</time>
      </trkpt>
      <trkpt lat="43.36134" lon="5.88208">
        <ele>435.61</ele>
        <time>2026-03-27T15:17:53Z</time>
      </trkpt>
      <trkpt lat="43.36135" lon="5.88207">
        <ele>434.65</ele>
        <time>2026-03-27T15:18:24Z</time>
      </trkpt>
      <trkpt lat="43.36135" lon="5.88207">
        <ele>435.61</ele>
        <time>2026-03-27T15:18:47Z</time>
      </trkpt>
      <trkpt lat="43.36136" lon="5.8821">
        <ele>434.17</ele>
        <time>2026-03-27T15:19:15Z</time>
      </trkpt>
      <trkpt lat="43.36135" lon="5.88209">
        <ele>435.61</ele>
        <time>2026-03-27T15:19:38Z</time>
      </trkpt>
    </trkseg>
  </trk>
</gpx>